<?xml version="1.0" encoding="UTF-8"?>
<gpx version="1.1" creator="2bulu-scraper" xmlns="http://www.topografix.com/GPX/1/1">
  <metadata><name>方山后山 3 月挖笋 徒步路线</name><desc>source: 2bulu.com trackId=80881570; exported 2026-09-01T14:53:00.327Z</desc>
    <bounds minlat="28.8205308" minlon="105.2909643" maxlat="28.8328407" maxlon="105.3213487"/>
    <link href="https://www.2bulu.com/track/t-UWgr1S1pBIfp%252FR2KBg5Tzw%253D%253D.htm"><text>2bulu 源页面</text></link>
  </metadata>
  <wpt lat="28.8307928" lon="105.2911811"><ele>290</ele><name>
        </name></wpt>
  <wpt lat="28.8317034" lon="105.290982"><ele>298</ele><name>
        </name></wpt>
  <wpt lat="28.8324571" lon="105.293637"><ele>345</ele><name>
        </name></wpt>
  <wpt lat="28.8325988" lon="105.2943801"><ele>354</ele><name>
        </name></wpt>
  <wpt lat="28.8321871" lon="105.2949148"><ele>371</ele><name>
        </name></wpt>
  <wpt lat="28.8313723" lon="105.2951159"><ele>397</ele><name>
        </name></wpt>
  <wpt lat="28.8311723" lon="105.29582"><ele>438</ele><name>
        </name></wpt>
  <wpt lat="28.8310644" lon="105.2958645"><ele>444</ele><name>
        </name></wpt>
  <wpt lat="28.8310839" lon="105.2966691"><ele>489</ele><name>
        </name></wpt>
  <wpt lat="28.8310839" lon="105.2966691"><ele>489</ele><name>
        </name></wpt>
  <wpt lat="28.8265078" lon="105.3050324"><ele>592</ele><name>
        </name></wpt>
  <wpt lat="28.8273462" lon="105.3082397"><ele>589</ele><name>
        </name></wpt>
  <wpt lat="28.8290879" lon="105.3123297"><ele>598</ele><name>
        </name></wpt>
  <wpt lat="28.8291721" lon="105.3126336"><ele>592</ele><name>
        </name></wpt>
  <wpt lat="28.8295983" lon="105.3133367"><ele>593</ele><name>
        </name></wpt>
  <wpt lat="28.8292483" lon="105.3179451"><ele>544</ele><name>
        </name></wpt>
  <wpt lat="28.8293342" lon="105.3191604"><ele>528</ele><name>
        </name></wpt>
  <wpt lat="28.8293157" lon="105.319393"><ele>533</ele><name>
        </name></wpt>
  <wpt lat="28.8293261" lon="105.319882"><ele>528</ele><name>
        </name></wpt>
  <wpt lat="28.8295631" lon="105.3213421"><ele>520</ele><name>
        </name></wpt>
  <wpt lat="28.8295631" lon="105.3213421"><ele>520</ele><name>
        </name></wpt>
  <wpt lat="28.8263099" lon="105.3110215"><ele>572</ele><name>
        </name></wpt>
  <wpt lat="28.826062" lon="105.310989"><ele>562</ele><name>
        </name></wpt>
  <wpt lat="28.8261449" lon="105.3108664"><ele>549</ele><name>
        </name></wpt>
  <wpt lat="28.8260236" lon="105.3107348"><ele>545</ele><name>
        </name></wpt>
  <wpt lat="28.8254957" lon="105.3107534"><ele>511</ele><name>
        </name></wpt>
  <wpt lat="28.8251588" lon="105.3116475"><ele>509</ele><name>
        </name></wpt>
  <wpt lat="28.8262479" lon="105.3162078"><ele>466</ele><name>
        </name></wpt>
  <wpt lat="28.825497" lon="105.3168161"><ele>452</ele><name>
        </name></wpt>
  <wpt lat="28.8249743" lon="105.3172162"><ele>411</ele><name>
        </name></wpt>
  <wpt lat="28.8228161" lon="105.3122919"><ele>384</ele><name>
        </name></wpt>
  <wpt lat="28.8224133" lon="105.3122127"><ele>386</ele><name>
        </name></wpt>
  <wpt lat="28.8217097" lon="105.3128735"><ele>394</ele><name>
        </name></wpt>
  <wpt lat="28.8209033" lon="105.3131163"><ele>400</ele><name>
        </name></wpt>
  <wpt lat="28.8205308" lon="105.3132455"><ele>399</ele><name>
        </name></wpt>
  <wpt lat="28.8205308" lon="105.3132455"><ele>399</ele><name>
        </name></wpt>
  <wpt lat="28.8206156" lon="105.3129345"><ele>399</ele><name>
        </name></wpt>
  <wpt lat="28.8219463" lon="105.309653"><ele>475</ele><name>
        </name></wpt>
  <wpt lat="28.8216354" lon="105.3092386"><ele>486</ele><name>
        </name></wpt>
  <wpt lat="28.8218075" lon="105.3072598"><ele>512</ele><name>
        </name></wpt>
  <wpt lat="28.8217805" lon="105.3064105"><ele>528</ele><name>
        </name></wpt>
  <wpt lat="28.8216313" lon="105.3055563"><ele>545</ele><name>
        </name></wpt>
  <wpt lat="28.8218515" lon="105.3027678"><ele>529</ele><name>
        </name></wpt>
  <wpt lat="28.8221005" lon="105.3008853"><ele>510</ele><name>
        </name></wpt>
  <wpt lat="28.8225019" lon="105.2992855"><ele>497</ele><name>
        </name></wpt>
  <wpt lat="28.8227704" lon="105.2985031"><ele>481</ele><name>
        </name></wpt>
  <wpt lat="28.8229479" lon="105.2972509"><ele>468</ele><name>
        </name></wpt>
  <wpt lat="28.8234324" lon="105.2961588"><ele>458</ele><name>
        </name></wpt>
  <wpt lat="28.8241188" lon="105.2960056"><ele>451</ele><name>
        </name></wpt>
  <wpt lat="28.8244049" lon="105.2955626"><ele>436</ele><name>
        </name></wpt>
  <wpt lat="28.8244778" lon="105.2943926"><ele>402</ele><name>
        </name></wpt>
  <wpt lat="28.8246309" lon="105.2940064"><ele>403</ele><name>
        </name></wpt>
  <wpt lat="28.8251198" lon="105.2920792"><ele>359</ele><name>
        </name></wpt>
  <wpt lat="28.8252174" lon="105.2918783"><ele>356</ele><name>
        </name></wpt>
  <trk><name>方山后山 3 月挖笋 徒步路线</name>
      <trkseg>
        <trkpt lat="28.8271007" lon="105.293245"><ele>287.68</ele><time>2026-03-21T19:26:13.000Z</time></trkpt>
        <trkpt lat="28.8271752" lon="105.293274"><ele>287.68</ele><time>2026-03-21T19:26:23.000Z</time></trkpt>
        <trkpt lat="28.8272731" lon="105.2932947"><ele>287.8</ele><time>2026-03-21T19:26:33.000Z</time></trkpt>
        <trkpt lat="28.8273344" lon="105.2933055"><ele>287.96</ele><time>2026-03-21T19:26:39.000Z</time></trkpt>
        <trkpt lat="28.8274257" lon="105.2933363"><ele>287.89</ele><time>2026-03-21T19:26:57.000Z</time></trkpt>
        <trkpt lat="28.82752" lon="105.2933652"><ele>287.86</ele><time>2026-03-21T19:27:09.000Z</time></trkpt>
        <trkpt lat="28.827617" lon="105.2933958"><ele>287.91</ele><time>2026-03-21T19:27:19.000Z</time></trkpt>
        <trkpt lat="28.8277128" lon="105.2934062"><ele>287.77</ele><time>2026-03-21T19:27:29.000Z</time></trkpt>
        <trkpt lat="28.8278054" lon="105.2933827"><ele>287.18</ele><time>2026-03-21T19:27:37.000Z</time></trkpt>
        <trkpt lat="28.8279006" lon="105.2933541"><ele>286.57</ele><time>2026-03-21T19:27:45.000Z</time></trkpt>
        <trkpt lat="28.8279868" lon="105.2933099"><ele>285.38</ele><time>2026-03-21T19:27:59.000Z</time></trkpt>
        <trkpt lat="28.8280625" lon="105.2932454"><ele>284.35</ele><time>2026-03-21T19:28:07.000Z</time></trkpt>
        <trkpt lat="28.8281445" lon="105.2931916"><ele>283.59</ele><time>2026-03-21T19:28:17.000Z</time></trkpt>
        <trkpt lat="28.8282345" lon="105.2931373"><ele>283.36</ele><time>2026-03-21T19:28:27.000Z</time></trkpt>
        <trkpt lat="28.8283102" lon="105.2930695"><ele>283.42</ele><time>2026-03-21T19:28:35.000Z</time></trkpt>
        <trkpt lat="28.8283949" lon="105.2929963"><ele>283.14</ele><time>2026-03-21T19:28:45.000Z</time></trkpt>
        <trkpt lat="28.8284784" lon="105.2929452"><ele>283</ele><time>2026-03-21T19:28:53.000Z</time></trkpt>
        <trkpt lat="28.8285753" lon="105.2928978"><ele>282.72</ele><time>2026-03-21T19:29:03.000Z</time></trkpt>
        <trkpt lat="28.8286673" lon="105.2928713"><ele>282.49</ele><time>2026-03-21T19:29:11.000Z</time></trkpt>
        <trkpt lat="28.8287141" lon="105.2928483"><ele>282.56</ele><time>2026-03-21T19:29:17.000Z</time></trkpt>
        <trkpt lat="28.8287812" lon="105.2927976"><ele>282.87</ele><time>2026-03-21T19:29:29.000Z</time></trkpt>
        <trkpt lat="28.8288663" lon="105.2927505"><ele>283.23</ele><time>2026-03-21T19:29:39.000Z</time></trkpt>
        <trkpt lat="28.8289566" lon="105.292694"><ele>283.53</ele><time>2026-03-21T19:29:49.000Z</time></trkpt>
        <trkpt lat="28.8289964" lon="105.2926588"><ele>283.79</ele><time>2026-03-21T19:29:53.000Z</time></trkpt>
        <trkpt lat="28.8290533" lon="105.292596"><ele>283.98</ele><time>2026-03-21T19:30:05.000Z</time></trkpt>
        <trkpt lat="28.8291139" lon="105.2925176"><ele>284.14</ele><time>2026-03-21T19:30:15.000Z</time></trkpt>
        <trkpt lat="28.8291766" lon="105.2924197"><ele>284.96</ele><time>2026-03-21T19:30:25.000Z</time></trkpt>
        <trkpt lat="28.8292522" lon="105.2923426"><ele>286.04</ele><time>2026-03-21T19:30:37.000Z</time></trkpt>
        <trkpt lat="28.8293462" lon="105.2923489"><ele>286.96</ele><time>2026-03-21T19:30:47.000Z</time></trkpt>
        <trkpt lat="28.8294253" lon="105.2924091"><ele>287.91</ele><time>2026-03-21T19:30:55.000Z</time></trkpt>
        <trkpt lat="28.8295083" lon="105.2924656"><ele>288.8</ele><time>2026-03-21T19:31:03.000Z</time></trkpt>
        <trkpt lat="28.8296002" lon="105.2924829"><ele>289.3</ele><time>2026-03-21T19:31:11.000Z</time></trkpt>
        <trkpt lat="28.8296845" lon="105.2924472"><ele>289.59</ele><time>2026-03-21T19:31:19.000Z</time></trkpt>
        <trkpt lat="28.8296845" lon="105.2924472"><ele>289.59</ele><time>2026-03-21T19:31:39.000Z</time></trkpt>
        <trkpt lat="28.8297676" lon="105.2923855"><ele>289.61</ele><time>2026-03-21T19:31:48.000Z</time></trkpt>
        <trkpt lat="28.8297676" lon="105.2923855"><ele>289.61</ele><time>2026-03-21T19:31:59.000Z</time></trkpt>
        <trkpt lat="28.8298538" lon="105.2923298"><ele>288.75</ele><time>2026-03-21T19:32:07.000Z</time></trkpt>
        <trkpt lat="28.829914" lon="105.2922385"><ele>287.92</ele><time>2026-03-21T19:32:15.000Z</time></trkpt>
        <trkpt lat="28.8299481" lon="105.2921244"><ele>288.16</ele><time>2026-03-21T19:32:23.000Z</time></trkpt>
        <trkpt lat="28.8299402" lon="105.2920054"><ele>289.14</ele><time>2026-03-21T19:32:37.000Z</time></trkpt>
        <trkpt lat="28.829884" lon="105.2919018"><ele>289.75</ele><time>2026-03-21T19:32:49.000Z</time></trkpt>
        <trkpt lat="28.8298564" lon="105.2917885"><ele>290.67</ele><time>2026-03-21T19:32:57.000Z</time></trkpt>
        <trkpt lat="28.8298812" lon="105.2916793"><ele>290.09</ele><time>2026-03-21T19:33:05.000Z</time></trkpt>
        <trkpt lat="28.8299637" lon="105.2916162"><ele>289.25</ele><time>2026-03-21T19:33:13.000Z</time></trkpt>
        <trkpt lat="28.8300578" lon="105.2915772"><ele>288.91</ele><time>2026-03-21T19:33:21.000Z</time></trkpt>
        <trkpt lat="28.8301556" lon="105.2915647"><ele>287.57</ele><time>2026-03-21T19:33:29.000Z</time></trkpt>
        <trkpt lat="28.8302558" lon="105.2915462"><ele>287.53</ele><time>2026-03-21T19:33:37.000Z</time></trkpt>
        <trkpt lat="28.8303533" lon="105.2914991"><ele>286.84</ele><time>2026-03-21T19:33:47.000Z</time></trkpt>
        <trkpt lat="28.830451" lon="105.2914363"><ele>286.88</ele><time>2026-03-21T19:33:57.000Z</time></trkpt>
        <trkpt lat="28.8305335" lon="105.2913579"><ele>286.89</ele><time>2026-03-21T19:34:07.000Z</time></trkpt>
        <trkpt lat="28.8305642" lon="105.2913157"><ele>287.17</ele><time>2026-03-21T19:34:11.000Z</time></trkpt>
        <trkpt lat="28.8306281" lon="105.2912666"><ele>287.71</ele><time>2026-03-21T19:34:49.000Z</time></trkpt>
        <trkpt lat="28.8307073" lon="105.2912222"><ele>286.92</ele><time>2026-03-21T19:34:57.000Z</time></trkpt>
        <trkpt lat="28.8307928" lon="105.2911811"><ele>286.97</ele><time>2026-03-21T19:35:09.000Z</time></trkpt>
        <trkpt lat="28.8308884" lon="105.2911505"><ele>288.14</ele><time>2026-03-21T19:35:19.000Z</time></trkpt>
        <trkpt lat="28.8309902" lon="105.2911094"><ele>289.07</ele><time>2026-03-21T19:35:29.000Z</time></trkpt>
        <trkpt lat="28.8310958" lon="105.2910837"><ele>290.17</ele><time>2026-03-21T19:35:39.000Z</time></trkpt>
        <trkpt lat="28.8311856" lon="105.2910469"><ele>291.45</ele><time>2026-03-21T19:35:49.000Z</time></trkpt>
        <trkpt lat="28.8312754" lon="105.2910316"><ele>292.94</ele><time>2026-03-21T19:35:57.000Z</time></trkpt>
        <trkpt lat="28.8313245" lon="105.2910155"><ele>294.21</ele><time>2026-03-21T19:36:05.000Z</time></trkpt>
        <trkpt lat="28.8314056" lon="105.2910045"><ele>295.78</ele><time>2026-03-21T19:36:25.000Z</time></trkpt>
        <trkpt lat="28.8315083" lon="105.2909969"><ele>296.1</ele><time>2026-03-21T19:36:35.000Z</time></trkpt>
        <trkpt lat="28.8316186" lon="105.2909954"><ele>296.51</ele><time>2026-03-21T19:36:45.000Z</time></trkpt>
        <trkpt lat="28.8317034" lon="105.290982"><ele>296.43</ele><time>2026-03-21T19:36:59.000Z</time></trkpt>
        <trkpt lat="28.8317982" lon="105.2909712"><ele>296.9</ele><time>2026-03-21T19:37:11.000Z</time></trkpt>
        <trkpt lat="28.8318966" lon="105.2909643"><ele>297.19</ele><time>2026-03-21T19:37:19.000Z</time></trkpt>
        <trkpt lat="28.8319911" lon="105.2909729"><ele>297.15</ele><time>2026-03-21T19:37:27.000Z</time></trkpt>
        <trkpt lat="28.832086" lon="105.2909885"><ele>296.92</ele><time>2026-03-21T19:37:37.000Z</time></trkpt>
        <trkpt lat="28.8321915" lon="105.2910083"><ele>296.9</ele><time>2026-03-21T19:37:47.000Z</time></trkpt>
        <trkpt lat="28.8322965" lon="105.2910467"><ele>296.54</ele><time>2026-03-21T19:37:57.000Z</time></trkpt>
        <trkpt lat="28.8323008" lon="105.2910701"><ele>296.24</ele><time>2026-03-21T19:38:06.000Z</time></trkpt>
        <trkpt lat="28.8323008" lon="105.2910701"><ele>296.24</ele><time>2026-03-21T19:39:17.000Z</time></trkpt>
        <trkpt lat="28.8323008" lon="105.2910701"><ele>296.24</ele><time>2026-03-21T19:39:24.000Z</time></trkpt>
        <trkpt lat="28.8323008" lon="105.2910701"><ele>296.24</ele><time>2026-03-21T19:39:43.000Z</time></trkpt>
        <trkpt lat="28.8323008" lon="105.2910701"><ele>296.24</ele><time>2026-03-21T19:40:12.000Z</time></trkpt>
        <trkpt lat="28.8323008" lon="105.2910701"><ele>296.24</ele><time>2026-03-21T19:40:25.000Z</time></trkpt>
        <trkpt lat="28.832308" lon="105.2911727"><ele>296.85</ele><time>2026-03-21T19:40:30.000Z</time></trkpt>
        <trkpt lat="28.832308" lon="105.2911727"><ele>296.85</ele><time>2026-03-21T19:40:53.000Z</time></trkpt>
        <trkpt lat="28.8323319" lon="105.2911668"><ele>297.81</ele><time>2026-03-21T19:41:03.000Z</time></trkpt>
        <trkpt lat="28.8323427" lon="105.2912539"><ele>299.23</ele><time>2026-03-21T19:41:25.000Z</time></trkpt>
        <trkpt lat="28.8323524" lon="105.2913779"><ele>300.16</ele><time>2026-03-21T19:41:35.000Z</time></trkpt>
        <trkpt lat="28.8323527" lon="105.2914372"><ele>300.93</ele><time>2026-03-21T19:41:44.000Z</time></trkpt>
        <trkpt lat="28.8323792" lon="105.2915281"><ele>300.81</ele><time>2026-03-21T19:42:05.000Z</time></trkpt>
        <trkpt lat="28.8324454" lon="105.2916046"><ele>301.65</ele><time>2026-03-21T19:42:15.000Z</time></trkpt>
        <trkpt lat="28.8325313" lon="105.2916696"><ele>302.91</ele><time>2026-03-21T19:42:25.000Z</time></trkpt>
        <trkpt lat="28.8326151" lon="105.2917426"><ele>304.91</ele><time>2026-03-21T19:42:35.000Z</time></trkpt>
        <trkpt lat="28.8327122" lon="105.2917922"><ele>306.55</ele><time>2026-03-21T19:42:48.000Z</time></trkpt>
        <trkpt lat="28.8327706" lon="105.2918705"><ele>308.49</ele><time>2026-03-21T19:42:56.000Z</time></trkpt>
        <trkpt lat="28.8327843" lon="105.2919779"><ele>308.99</ele><time>2026-03-21T19:43:06.000Z</time></trkpt>
        <trkpt lat="28.8327454" lon="105.2920882"><ele>310.21</ele><time>2026-03-21T19:43:18.000Z</time></trkpt>
        <trkpt lat="28.832709" lon="105.2922028"><ele>310.69</ele><time>2026-03-21T19:43:30.000Z</time></trkpt>
        <trkpt lat="28.8326211" lon="105.2922178"><ele>311.73</ele><time>2026-03-21T19:43:42.000Z</time></trkpt>
        <trkpt lat="28.832519" lon="105.292199"><ele>314.44</ele><time>2026-03-21T19:44:00.000Z</time></trkpt>
        <trkpt lat="28.8324114" lon="105.2922066"><ele>317.89</ele><time>2026-03-21T19:44:10.000Z</time></trkpt>
        <trkpt lat="28.8323239" lon="105.2922634"><ele>319.78</ele><time>2026-03-21T19:44:20.000Z</time></trkpt>
        <trkpt lat="28.8323515" lon="105.2923467"><ele>320.04</ele><time>2026-03-21T19:44:36.000Z</time></trkpt>
        <trkpt lat="28.8323929" lon="105.2924481"><ele>320.29</ele><time>2026-03-21T19:44:50.000Z</time></trkpt>
        <trkpt lat="28.8324504" lon="105.2925476"><ele>320.85</ele><time>2026-03-21T19:45:02.000Z</time></trkpt>
        <trkpt lat="28.8325288" lon="105.2926273"><ele>321.5</ele><time>2026-03-21T19:45:14.000Z</time></trkpt>
        <trkpt lat="28.8326057" lon="105.2926997"><ele>322.08</ele><time>2026-03-21T19:45:24.000Z</time></trkpt>
        <trkpt lat="28.8326876" lon="105.2927594"><ele>322.5</ele><time>2026-03-21T19:45:39.000Z</time></trkpt>
        <trkpt lat="28.832756" lon="105.2928354"><ele>324.01</ele><time>2026-03-21T19:45:50.000Z</time></trkpt>
        <trkpt lat="28.8328219" lon="105.2929194"><ele>325.11</ele><time>2026-03-21T19:46:08.000Z</time></trkpt>
        <trkpt lat="28.8328407" lon="105.2930238"><ele>326.88</ele><time>2026-03-21T19:46:18.000Z</time></trkpt>
        <trkpt lat="28.8327805" lon="105.2931065"><ele>328.94</ele><time>2026-03-21T19:46:30.000Z</time></trkpt>
        <trkpt lat="28.8326828" lon="105.2931697"><ele>331.76</ele><time>2026-03-21T19:46:44.000Z</time></trkpt>
        <trkpt lat="28.8325877" lon="105.2932205"><ele>335.8</ele><time>2026-03-21T19:46:56.000Z</time></trkpt>
        <trkpt lat="28.832531" lon="105.2932422"><ele>338.21</ele><time>2026-03-21T19:47:02.000Z</time></trkpt>
        <trkpt lat="28.8324757" lon="105.293319"><ele>339.72</ele><time>2026-03-21T19:47:20.000Z</time></trkpt>
        <trkpt lat="28.832455" lon="105.2934237"><ele>341</ele><time>2026-03-21T19:47:30.000Z</time></trkpt>
        <trkpt lat="28.8324546" lon="105.2935428"><ele>341.26</ele><time>2026-03-21T19:47:40.000Z</time></trkpt>
        <trkpt lat="28.8324571" lon="105.293637"><ele>341.68</ele><time>2026-03-21T19:47:50.000Z</time></trkpt>
        <trkpt lat="28.8324891" lon="105.2937402"><ele>343.22</ele><time>2026-03-21T19:48:12.000Z</time></trkpt>
        <trkpt lat="28.832533" lon="105.2938357"><ele>344.51</ele><time>2026-03-21T19:48:22.000Z</time></trkpt>
        <trkpt lat="28.83257" lon="105.2939338"><ele>345.67</ele><time>2026-03-21T19:48:40.000Z</time></trkpt>
        <trkpt lat="28.8326031" lon="105.2940345"><ele>347.04</ele><time>2026-03-21T19:49:00.000Z</time></trkpt>
        <trkpt lat="28.8326099" lon="105.2941505"><ele>348.58</ele><time>2026-03-21T19:49:18.000Z</time></trkpt>
        <trkpt lat="28.8326017" lon="105.2942678"><ele>349.97</ele><time>2026-03-21T19:49:28.000Z</time></trkpt>
        <trkpt lat="28.8325988" lon="105.2943801"><ele>350.57</ele><time>2026-03-21T19:49:50.000Z</time></trkpt>
        <trkpt lat="28.8325795" lon="105.2944922"><ele>351.83</ele><time>2026-03-21T19:50:10.000Z</time></trkpt>
        <trkpt lat="28.8325352" lon="105.2945881"><ele>355.33</ele><time>2026-03-21T19:50:28.000Z</time></trkpt>
        <trkpt lat="28.8325352" lon="105.2945881"><ele>355.33</ele><time>2026-03-21T19:51:29.000Z</time></trkpt>
        <trkpt lat="28.8325352" lon="105.2945881"><ele>355.33</ele><time>2026-03-21T19:52:02.000Z</time></trkpt>
        <trkpt lat="28.8325352" lon="105.2945881"><ele>355.33</ele><time>2026-03-21T19:52:15.000Z</time></trkpt>
        <trkpt lat="28.8325352" lon="105.2945881"><ele>355.33</ele><time>2026-03-21T19:52:20.000Z</time></trkpt>
        <trkpt lat="28.8325352" lon="105.2945881"><ele>355.33</ele><time>2026-03-21T19:52:49.000Z</time></trkpt>
        <trkpt lat="28.8325352" lon="105.2945881"><ele>355.33</ele><time>2026-03-21T19:53:47.000Z</time></trkpt>
        <trkpt lat="28.8325352" lon="105.2945881"><ele>355.33</ele><time>2026-03-21T19:54:45.000Z</time></trkpt>
        <trkpt lat="28.8325352" lon="105.2945881"><ele>355.33</ele><time>2026-03-21T19:54:57.000Z</time></trkpt>
        <trkpt lat="28.8325352" lon="105.2945881"><ele>355.33</ele><time>2026-03-21T19:55:48.000Z</time></trkpt>
        <trkpt lat="28.8324346" lon="105.2945589"><ele>358.25</ele><time>2026-03-21T19:55:54.000Z</time></trkpt>
        <trkpt lat="28.8324346" lon="105.2945589"><ele>358.25</ele><time>2026-03-21T19:56:22.000Z</time></trkpt>
        <trkpt lat="28.8324346" lon="105.2945589"><ele>358.25</ele><time>2026-03-21T19:56:34.000Z</time></trkpt>
        <trkpt lat="28.8324346" lon="105.2945589"><ele>358.25</ele><time>2026-03-21T19:56:37.000Z</time></trkpt>
        <trkpt lat="28.8324346" lon="105.2945589"><ele>358.25</ele><time>2026-03-21T19:57:17.000Z</time></trkpt>
        <trkpt lat="28.8324346" lon="105.2945589"><ele>358.25</ele><time>2026-03-21T19:57:54.000Z</time></trkpt>
        <trkpt lat="28.8324346" lon="105.2945589"><ele>358.25</ele><time>2026-03-21T19:58:14.000Z</time></trkpt>
        <trkpt lat="28.8324346" lon="105.2945589"><ele>358.25</ele><time>2026-03-21T19:58:21.000Z</time></trkpt>
        <trkpt lat="28.8324346" lon="105.2945589"><ele>358.25</ele><time>2026-03-21T19:58:55.000Z</time></trkpt>
        <trkpt lat="28.8324346" lon="105.2945589"><ele>358.25</ele><time>2026-03-21T19:59:02.000Z</time></trkpt>
        <trkpt lat="28.8324346" lon="105.2945589"><ele>358.25</ele><time>2026-03-21T19:59:39.000Z</time></trkpt>
        <trkpt lat="28.8323779" lon="105.294674"><ele>359.95</ele><time>2026-03-21T19:59:49.000Z</time></trkpt>
        <trkpt lat="28.8323779" lon="105.294674"><ele>359.95</ele><time>2026-03-21T20:00:30.000Z</time></trkpt>
        <trkpt lat="28.8323127" lon="105.29475"><ele>363.16</ele><time>2026-03-21T20:00:38.000Z</time></trkpt>
        <trkpt lat="28.8322551" lon="105.2948355"><ele>364.98</ele><time>2026-03-21T20:00:57.000Z</time></trkpt>
        <trkpt lat="28.8321871" lon="105.2949148"><ele>368.56</ele><time>2026-03-21T20:01:29.000Z</time></trkpt>
        <trkpt lat="28.8321146" lon="105.2949803"><ele>369.58</ele><time>2026-03-21T20:01:53.000Z</time></trkpt>
        <trkpt lat="28.8320292" lon="105.2950159"><ele>372.21</ele><time>2026-03-21T20:02:50.000Z</time></trkpt>
        <trkpt lat="28.8319411" lon="105.2950449"><ele>374.16</ele><time>2026-03-21T20:03:17.000Z</time></trkpt>
        <trkpt lat="28.8318419" lon="105.2950631"><ele>376.53</ele><time>2026-03-21T20:03:47.000Z</time></trkpt>
        <trkpt lat="28.8317428" lon="105.2950663"><ele>379.89</ele><time>2026-03-21T20:03:59.000Z</time></trkpt>
        <trkpt lat="28.8316388" lon="105.295052"><ele>382.51</ele><time>2026-03-21T20:04:11.000Z</time></trkpt>
        <trkpt lat="28.8315394" lon="105.2950629"><ele>384.81</ele><time>2026-03-21T20:04:23.000Z</time></trkpt>
        <trkpt lat="28.8314499" lon="105.2951036"><ele>387.21</ele><time>2026-03-21T20:04:55.000Z</time></trkpt>
        <trkpt lat="28.8314496" lon="105.2951028"><ele>390.04</ele><time>2026-03-21T20:05:01.000Z</time></trkpt>
        <trkpt lat="28.8314496" lon="105.2951028"><ele>390.04</ele><time>2026-03-21T20:05:54.000Z</time></trkpt>
        <trkpt lat="28.8314496" lon="105.2951028"><ele>390.04</ele><time>2026-03-21T20:06:15.000Z</time></trkpt>
        <trkpt lat="28.8314496" lon="105.2951028"><ele>390.04</ele><time>2026-03-21T20:06:44.000Z</time></trkpt>
        <trkpt lat="28.8314496" lon="105.2951028"><ele>390.04</ele><time>2026-03-21T20:06:59.000Z</time></trkpt>
        <trkpt lat="28.8314496" lon="105.2951028"><ele>390.04</ele><time>2026-03-21T20:07:16.000Z</time></trkpt>
        <trkpt lat="28.8313898" lon="105.2951185"><ele>391.65</ele><time>2026-03-21T20:07:33.000Z</time></trkpt>
        <trkpt lat="28.8313898" lon="105.2951185"><ele>391.65</ele><time>2026-03-21T20:08:03.000Z</time></trkpt>
        <trkpt lat="28.8313723" lon="105.2951159"><ele>393.77</ele><time>2026-03-21T20:08:07.000Z</time></trkpt>
        <trkpt lat="28.8313271" lon="105.2951945"><ele>395.36</ele><time>2026-03-21T20:09:02.000Z</time></trkpt>
        <trkpt lat="28.8312786" lon="105.2952956"><ele>398.45</ele><time>2026-03-21T20:09:26.000Z</time></trkpt>
        <trkpt lat="28.8312273" lon="105.2953925"><ele>402.45</ele><time>2026-03-21T20:09:38.000Z</time></trkpt>
        <trkpt lat="28.8311426" lon="105.2954573"><ele>404.96</ele><time>2026-03-21T20:10:00.000Z</time></trkpt>
        <trkpt lat="28.8310476" lon="105.2954454"><ele>405.33</ele><time>2026-03-21T20:10:12.000Z</time></trkpt>
        <trkpt lat="28.8310476" lon="105.2954454"><ele>405.33</ele><time>2026-03-21T20:11:05.000Z</time></trkpt>
        <trkpt lat="28.8309459" lon="105.295449"><ele>407.64</ele><time>2026-03-21T20:12:13.000Z</time></trkpt>
        <trkpt lat="28.8309459" lon="105.295449"><ele>407.64</ele><time>2026-03-21T20:12:15.000Z</time></trkpt>
        <trkpt lat="28.8308605" lon="105.2954878"><ele>410.7</ele><time>2026-03-21T20:12:30.000Z</time></trkpt>
        <trkpt lat="28.8308797" lon="105.2955746"><ele>413.27</ele><time>2026-03-21T20:13:08.000Z</time></trkpt>
        <trkpt lat="28.8308797" lon="105.2955746"><ele>413.27</ele><time>2026-03-21T20:13:29.000Z</time></trkpt>
        <trkpt lat="28.8309803" lon="105.2956499"><ele>416.83</ele><time>2026-03-21T20:13:49.000Z</time></trkpt>
        <trkpt lat="28.8309803" lon="105.2956499"><ele>416.83</ele><time>2026-03-21T20:14:18.000Z</time></trkpt>
        <trkpt lat="28.8310757" lon="105.2956662"><ele>421.76</ele><time>2026-03-21T20:14:38.000Z</time></trkpt>
        <trkpt lat="28.831153" lon="105.295724"><ele>425.65</ele><time>2026-03-21T20:14:50.000Z</time></trkpt>
        <trkpt lat="28.8311723" lon="105.29582"><ele>428.86</ele><time>2026-03-21T20:15:04.000Z</time></trkpt>
        <trkpt lat="28.8311723" lon="105.29582"><ele>428.86</ele><time>2026-03-21T20:15:38.000Z</time></trkpt>
        <trkpt lat="28.8310644" lon="105.2958645"><ele>432.99</ele><time>2026-03-21T20:15:51.000Z</time></trkpt>
        <trkpt lat="28.8310644" lon="105.2958645"><ele>432.99</ele><time>2026-03-21T20:16:09.000Z</time></trkpt>
        <trkpt lat="28.8310351" lon="105.2959769"><ele>437.61</ele><time>2026-03-21T20:16:27.000Z</time></trkpt>
        <trkpt lat="28.8310152" lon="105.296082"><ele>441.48</ele><time>2026-03-21T20:17:07.000Z</time></trkpt>
        <trkpt lat="28.8310152" lon="105.296082"><ele>441.48</ele><time>2026-03-21T20:17:24.000Z</time></trkpt>
        <trkpt lat="28.8310628" lon="105.2961815"><ele>443.85</ele><time>2026-03-21T20:17:35.000Z</time></trkpt>
        <trkpt lat="28.8310628" lon="105.2961815"><ele>443.85</ele><time>2026-03-21T20:18:22.000Z</time></trkpt>
        <trkpt lat="28.831068" lon="105.2962282"><ele>448.69</ele><time>2026-03-21T20:18:28.000Z</time></trkpt>
        <trkpt lat="28.8311454" lon="105.2962777"><ele>450.82</ele><time>2026-03-21T20:19:23.000Z</time></trkpt>
        <trkpt lat="28.8311814" lon="105.2963685"><ele>453.14</ele><time>2026-03-21T20:19:35.000Z</time></trkpt>
        <trkpt lat="28.8311469" lon="105.2964573"><ele>453.85</ele><time>2026-03-21T20:19:51.000Z</time></trkpt>
        <trkpt lat="28.8311469" lon="105.2964573"><ele>453.85</ele><time>2026-03-21T20:20:23.000Z</time></trkpt>
        <trkpt lat="28.8311166" lon="105.2965617"><ele>454.96</ele><time>2026-03-21T20:20:24.000Z</time></trkpt>
        <trkpt lat="28.8311166" lon="105.2965617"><ele>454.96</ele><time>2026-03-21T20:20:43.000Z</time></trkpt>
        <trkpt lat="28.8311398" lon="105.2965151"><ele>457.57</ele><time>2026-03-21T20:20:55.000Z</time></trkpt>
        <trkpt lat="28.8311933" lon="105.2964229"><ele>458.89</ele><time>2026-03-21T20:21:07.000Z</time></trkpt>
        <trkpt lat="28.8311933" lon="105.2964229"><ele>458.89</ele><time>2026-03-21T20:21:29.000Z</time></trkpt>
        <trkpt lat="28.8312521" lon="105.2964499"><ele>456.88</ele><time>2026-03-21T20:21:36.000Z</time></trkpt>
        <trkpt lat="28.8312521" lon="105.2964499"><ele>456.88</ele><time>2026-03-21T20:21:39.000Z</time></trkpt>
        <trkpt lat="28.8312521" lon="105.2964499"><ele>456.88</ele><time>2026-03-21T20:21:55.000Z</time></trkpt>
        <trkpt lat="28.831285" lon="105.2963609"><ele>454.64</ele><time>2026-03-21T20:23:20.000Z</time></trkpt>
        <trkpt lat="28.831285" lon="105.2963609"><ele>454.64</ele><time>2026-03-21T20:23:30.000Z</time></trkpt>
        <trkpt lat="28.8311831" lon="105.2963687"><ele>458.28</ele><time>2026-03-21T20:23:38.000Z</time></trkpt>
        <trkpt lat="28.8311297" lon="105.2964499"><ele>461.84</ele><time>2026-03-21T20:23:46.000Z</time></trkpt>
        <trkpt lat="28.8311214" lon="105.2965066"><ele>464.42</ele><time>2026-03-21T20:23:55.000Z</time></trkpt>
        <trkpt lat="28.831086" lon="105.296596"><ele>467.65</ele><time>2026-03-21T20:24:12.000Z</time></trkpt>
        <trkpt lat="28.8310406" lon="105.2966988"><ele>471.1</ele><time>2026-03-21T20:24:31.000Z</time></trkpt>
        <trkpt lat="28.8310839" lon="105.2966691"><ele>476.09</ele><time>2026-03-21T20:24:50.000Z</time></trkpt>
        <trkpt lat="28.8310839" lon="105.2966691"><ele>476.09</ele><time>2026-03-21T20:25:12.000Z</time></trkpt>
        <trkpt lat="28.8311737" lon="105.2966638"><ele>481.76</ele><time>2026-03-21T20:25:13.000Z</time></trkpt>
        <trkpt lat="28.8311737" lon="105.2966638"><ele>481.76</ele><time>2026-03-21T20:25:26.000Z</time></trkpt>
        <trkpt lat="28.831249" lon="105.2967241"><ele>482.08</ele><time>2026-03-21T20:26:21.000Z</time></trkpt>
        <trkpt lat="28.8312927" lon="105.2968203"><ele>483.52</ele><time>2026-03-21T20:26:42.000Z</time></trkpt>
        <trkpt lat="28.8313542" lon="105.2969047"><ele>484.54</ele><time>2026-03-21T20:27:10.000Z</time></trkpt>
        <trkpt lat="28.8314283" lon="105.2969853"><ele>487.99</ele><time>2026-03-21T20:27:50.000Z</time></trkpt>
        <trkpt lat="28.83151" lon="105.2970591"><ele>490.13</ele><time>2026-03-21T20:28:12.000Z</time></trkpt>
        <trkpt lat="28.83151" lon="105.2970591"><ele>490.13</ele><time>2026-03-21T20:29:37.000Z</time></trkpt>
        <trkpt lat="28.83151" lon="105.2970591"><ele>490.13</ele><time>2026-03-21T20:30:14.000Z</time></trkpt>
        <trkpt lat="28.83151" lon="105.2970591"><ele>490.13</ele><time>2026-03-21T20:30:39.000Z</time></trkpt>
        <trkpt lat="28.8315482" lon="105.297161"><ele>493.35</ele><time>2026-03-21T20:30:43.000Z</time></trkpt>
        <trkpt lat="28.8315482" lon="105.297161"><ele>493.35</ele><time>2026-03-21T20:31:31.000Z</time></trkpt>
        <trkpt lat="28.8314701" lon="105.2972175"><ele>502.03</ele><time>2026-03-21T20:31:38.000Z</time></trkpt>
        <trkpt lat="28.8315302" lon="105.2972578"><ele>507.66</ele><time>2026-03-21T20:31:58.000Z</time></trkpt>
        <trkpt lat="28.8315332" lon="105.2973482"><ele>514.24</ele><time>2026-03-21T20:32:23.000Z</time></trkpt>
        <trkpt lat="28.8315084" lon="105.2974475"><ele>521.5</ele><time>2026-03-21T20:32:48.000Z</time></trkpt>
        <trkpt lat="28.8314644" lon="105.2975457"><ele>527.69</ele><time>2026-03-21T20:33:20.000Z</time></trkpt>
        <trkpt lat="28.8314965" lon="105.2976369"><ele>531.01</ele><time>2026-03-21T20:33:48.000Z</time></trkpt>
        <trkpt lat="28.8315114" lon="105.2976542"><ele>529.95</ele><time>2026-03-21T20:33:50.000Z</time></trkpt>
        <trkpt lat="28.831572" lon="105.2977053"><ele>529.77</ele><time>2026-03-21T20:34:18.000Z</time></trkpt>
        <trkpt lat="28.831494" lon="105.2977577"><ele>529.96</ele><time>2026-03-21T20:36:33.000Z</time></trkpt>
        <trkpt lat="28.8314351" lon="105.2978413"><ele>536.46</ele><time>2026-03-21T20:36:45.000Z</time></trkpt>
        <trkpt lat="28.8313877" lon="105.2979381"><ele>540.77</ele><time>2026-03-21T20:37:01.000Z</time></trkpt>
        <trkpt lat="28.8313495" lon="105.2980441"><ele>545.08</ele><time>2026-03-21T20:37:17.000Z</time></trkpt>
        <trkpt lat="28.8313495" lon="105.2980441"><ele>545.08</ele><time>2026-03-21T20:38:10.000Z</time></trkpt>
        <trkpt lat="28.8313516" lon="105.2981937"><ele>550.01</ele><time>2026-03-21T20:39:03.000Z</time></trkpt>
        <trkpt lat="28.8313516" lon="105.2981937"><ele>550.01</ele><time>2026-03-21T20:39:16.000Z</time></trkpt>
        <trkpt lat="28.8313011" lon="105.298285"><ele>557.8</ele><time>2026-03-21T20:39:22.000Z</time></trkpt>
        <trkpt lat="28.8313011" lon="105.298285"><ele>557.8</ele><time>2026-03-21T20:39:48.000Z</time></trkpt>
        <trkpt lat="28.8313037" lon="105.298394"><ele>563.52</ele><time>2026-03-21T20:39:51.000Z</time></trkpt>
        <trkpt lat="28.8313037" lon="105.298394"><ele>563.52</ele><time>2026-03-21T20:41:06.000Z</time></trkpt>
        <trkpt lat="28.8312622" lon="105.2984949"><ele>567.73</ele><time>2026-03-21T20:41:14.000Z</time></trkpt>
        <trkpt lat="28.8312483" lon="105.2985983"><ele>570.2</ele><time>2026-03-21T20:41:58.000Z</time></trkpt>
        <trkpt lat="28.831227" lon="105.2987064"><ele>569.85</ele><time>2026-03-21T20:42:22.000Z</time></trkpt>
        <trkpt lat="28.831187" lon="105.2988057"><ele>572.2</ele><time>2026-03-21T20:42:34.000Z</time></trkpt>
        <trkpt lat="28.831187" lon="105.2988057"><ele>572.2</ele><time>2026-03-21T20:43:12.000Z</time></trkpt>
        <trkpt lat="28.8310914" lon="105.2988774"><ele>575.14</ele><time>2026-03-21T20:43:15.000Z</time></trkpt>
        <trkpt lat="28.8310914" lon="105.2988774"><ele>575.14</ele><time>2026-03-21T20:43:53.000Z</time></trkpt>
        <trkpt lat="28.8310155" lon="105.2989386"><ele>578.32</ele><time>2026-03-21T20:44:05.000Z</time></trkpt>
        <trkpt lat="28.8309237" lon="105.2989874"><ele>581.17</ele><time>2026-03-21T20:44:19.000Z</time></trkpt>
        <trkpt lat="28.8308414" lon="105.2990407"><ele>584.25</ele><time>2026-03-21T20:44:35.000Z</time></trkpt>
        <trkpt lat="28.8308414" lon="105.2990407"><ele>584.25</ele><time>2026-03-21T20:44:46.000Z</time></trkpt>
        <trkpt lat="28.8307533" lon="105.2990966"><ele>586.86</ele><time>2026-03-21T20:44:57.000Z</time></trkpt>
        <trkpt lat="28.8307533" lon="105.2990966"><ele>586.86</ele><time>2026-03-21T20:45:15.000Z</time></trkpt>
        <trkpt lat="28.830663" lon="105.2991512"><ele>589.35</ele><time>2026-03-21T20:45:25.000Z</time></trkpt>
        <trkpt lat="28.8305765" lon="105.2992237"><ele>590.73</ele><time>2026-03-21T20:45:39.000Z</time></trkpt>
        <trkpt lat="28.8305132" lon="105.2993219"><ele>591.89</ele><time>2026-03-21T20:45:43.000Z</time></trkpt>
        <trkpt lat="28.8304748" lon="105.2994301"><ele>592.64</ele><time>2026-03-21T20:45:53.000Z</time></trkpt>
        <trkpt lat="28.830477" lon="105.2995777"><ele>592.81</ele><time>2026-03-21T20:46:19.000Z</time></trkpt>
        <trkpt lat="28.8304824" lon="105.2997047"><ele>594.76</ele><time>2026-03-21T20:46:27.000Z</time></trkpt>
        <trkpt lat="28.8304917" lon="105.2997498"><ele>596.58</ele><time>2026-03-21T20:46:31.000Z</time></trkpt>
        <trkpt lat="28.8304387" lon="105.2998136"><ele>597.85</ele><time>2026-03-21T20:46:51.000Z</time></trkpt>
        <trkpt lat="28.8303928" lon="105.2999011"><ele>599.69</ele><time>2026-03-21T20:46:57.000Z</time></trkpt>
        <trkpt lat="28.8303737" lon="105.300012"><ele>599.94</ele><time>2026-03-21T20:47:05.000Z</time></trkpt>
        <trkpt lat="28.8303785" lon="105.3001258"><ele>600.08</ele><time>2026-03-21T20:47:15.000Z</time></trkpt>
        <trkpt lat="28.8303361" lon="105.3002116"><ele>598.47</ele><time>2026-03-21T20:48:01.000Z</time></trkpt>
        <trkpt lat="28.8303361" lon="105.3002116"><ele>598.47</ele><time>2026-03-21T20:48:02.000Z</time></trkpt>
        <trkpt lat="28.8302541" lon="105.3002726"><ele>598.25</ele><time>2026-03-21T20:48:36.000Z</time></trkpt>
        <trkpt lat="28.8302541" lon="105.3002726"><ele>598.25</ele><time>2026-03-21T20:49:01.000Z</time></trkpt>
        <trkpt lat="28.8301654" lon="105.3003592"><ele>591.96</ele><time>2026-03-21T20:49:33.000Z</time></trkpt>
        <trkpt lat="28.8301075" lon="105.3004551"><ele>593.27</ele><time>2026-03-21T20:49:45.000Z</time></trkpt>
        <trkpt lat="28.8301075" lon="105.3004551"><ele>593.27</ele><time>2026-03-21T20:50:16.000Z</time></trkpt>
        <trkpt lat="28.8300038" lon="105.3005181"><ele>597.27</ele><time>2026-03-21T20:50:20.000Z</time></trkpt>
        <trkpt lat="28.8300038" lon="105.3005181"><ele>597.27</ele><time>2026-03-21T20:50:34.000Z</time></trkpt>
        <trkpt lat="28.8299201" lon="105.30058"><ele>600.71</ele><time>2026-03-21T20:50:37.000Z</time></trkpt>
        <trkpt lat="28.8298626" lon="105.3006382"><ele>603.21</ele><time>2026-03-21T20:50:45.000Z</time></trkpt>
        <trkpt lat="28.8297949" lon="105.300697"><ele>605.79</ele><time>2026-03-21T20:51:07.000Z</time></trkpt>
        <trkpt lat="28.8297949" lon="105.300697"><ele>605.79</ele><time>2026-03-21T20:51:52.000Z</time></trkpt>
        <trkpt lat="28.8297949" lon="105.300697"><ele>605.79</ele><time>2026-03-21T20:51:55.000Z</time></trkpt>
        <trkpt lat="28.8297949" lon="105.300697"><ele>605.79</ele><time>2026-03-21T20:52:04.000Z</time></trkpt>
        <trkpt lat="28.829678" lon="105.3007805"><ele>609.08</ele><time>2026-03-21T20:52:09.000Z</time></trkpt>
        <trkpt lat="28.829678" lon="105.3007805"><ele>609.08</ele><time>2026-03-21T20:52:27.000Z</time></trkpt>
        <trkpt lat="28.8295907" lon="105.3008377"><ele>611.02</ele><time>2026-03-21T20:52:33.000Z</time></trkpt>
        <trkpt lat="28.8295475" lon="105.3008983"><ele>612.44</ele><time>2026-03-21T20:52:39.000Z</time></trkpt>
        <trkpt lat="28.8295249" lon="105.3009985"><ele>613.3</ele><time>2026-03-21T20:53:31.000Z</time></trkpt>
        <trkpt lat="28.8294423" lon="105.3010343"><ele>608.24</ele><time>2026-03-21T20:53:57.000Z</time></trkpt>
        <trkpt lat="28.8293453" lon="105.3010511"><ele>607.79</ele><time>2026-03-21T20:54:07.000Z</time></trkpt>
        <trkpt lat="28.8292592" lon="105.3011031"><ele>610.03</ele><time>2026-03-21T20:54:21.000Z</time></trkpt>
        <trkpt lat="28.8291927" lon="105.3011849"><ele>610.74</ele><time>2026-03-21T20:54:37.000Z</time></trkpt>
        <trkpt lat="28.8291172" lon="105.3012459"><ele>611.16</ele><time>2026-03-21T20:54:47.000Z</time></trkpt>
        <trkpt lat="28.8291172" lon="105.3012459"><ele>611.16</ele><time>2026-03-21T20:55:11.000Z</time></trkpt>
        <trkpt lat="28.8291172" lon="105.3012459"><ele>611.16</ele><time>2026-03-21T20:55:24.000Z</time></trkpt>
        <trkpt lat="28.8291172" lon="105.3012459"><ele>611.16</ele><time>2026-03-21T20:55:44.000Z</time></trkpt>
        <trkpt lat="28.8291172" lon="105.3012459"><ele>611.16</ele><time>2026-03-21T20:55:58.000Z</time></trkpt>
        <trkpt lat="28.8291172" lon="105.3012459"><ele>611.16</ele><time>2026-03-21T20:56:40.000Z</time></trkpt>
        <trkpt lat="28.8289513" lon="105.3013127"><ele>611.45</ele><time>2026-03-21T20:56:48.000Z</time></trkpt>
        <trkpt lat="28.8289513" lon="105.3013127"><ele>611.45</ele><time>2026-03-21T20:56:55.000Z</time></trkpt>
        <trkpt lat="28.8288315" lon="105.3013131"><ele>607.13</ele><time>2026-03-21T20:57:05.000Z</time></trkpt>
        <trkpt lat="28.8287226" lon="105.3013041"><ele>602.78</ele><time>2026-03-21T20:57:11.000Z</time></trkpt>
        <trkpt lat="28.8286271" lon="105.3012905"><ele>599.48</ele><time>2026-03-21T20:57:17.000Z</time></trkpt>
        <trkpt lat="28.8285388" lon="105.3013033"><ele>598.49</ele><time>2026-03-21T20:57:25.000Z</time></trkpt>
        <trkpt lat="28.8285027" lon="105.3013969"><ele>597.8</ele><time>2026-03-21T20:57:39.000Z</time></trkpt>
        <trkpt lat="28.8285013" lon="105.3014611"><ele>599.69</ele><time>2026-03-21T20:57:47.000Z</time></trkpt>
        <trkpt lat="28.8285086" lon="105.301574"><ele>599.42</ele><time>2026-03-21T20:59:21.000Z</time></trkpt>
        <trkpt lat="28.8285153" lon="105.3016974"><ele>599.24</ele><time>2026-03-21T20:59:31.000Z</time></trkpt>
        <trkpt lat="28.8284709" lon="105.3017897"><ele>598.95</ele><time>2026-03-21T20:59:46.000Z</time></trkpt>
        <trkpt lat="28.8283812" lon="105.3018398"><ele>600.26</ele><time>2026-03-21T20:59:59.000Z</time></trkpt>
        <trkpt lat="28.8282738" lon="105.3018649"><ele>603.85</ele><time>2026-03-21T21:00:07.000Z</time></trkpt>
        <trkpt lat="28.8281743" lon="105.3019032"><ele>604.74</ele><time>2026-03-21T21:00:17.000Z</time></trkpt>
        <trkpt lat="28.8281031" lon="105.3019777"><ele>606.44</ele><time>2026-03-21T21:00:25.000Z</time></trkpt>
        <trkpt lat="28.8281089" lon="105.302052"><ele>607.02</ele><time>2026-03-21T21:00:37.000Z</time></trkpt>
        <trkpt lat="28.8281089" lon="105.302052"><ele>607.02</ele><time>2026-03-21T21:01:16.000Z</time></trkpt>
        <trkpt lat="28.8281403" lon="105.3021807"><ele>607.12</ele><time>2026-03-21T21:01:31.000Z</time></trkpt>
        <trkpt lat="28.8281403" lon="105.3021807"><ele>607.12</ele><time>2026-03-21T21:01:49.000Z</time></trkpt>
        <trkpt lat="28.8281418" lon="105.3022925"><ele>611.75</ele><time>2026-03-21T21:01:55.000Z</time></trkpt>
        <trkpt lat="28.8281812" lon="105.3023999"><ele>615.03</ele><time>2026-03-21T21:02:03.000Z</time></trkpt>
        <trkpt lat="28.8282416" lon="105.3024902"><ele>614.56</ele><time>2026-03-21T21:02:11.000Z</time></trkpt>
        <trkpt lat="28.8283172" lon="105.302562"><ele>612.83</ele><time>2026-03-21T21:02:20.000Z</time></trkpt>
        <trkpt lat="28.8283929" lon="105.3026506"><ele>610.77</ele><time>2026-03-21T21:02:30.000Z</time></trkpt>
        <trkpt lat="28.8284217" lon="105.3026834"><ele>609.32</ele><time>2026-03-21T21:02:38.000Z</time></trkpt>
        <trkpt lat="28.8283604" lon="105.3027533"><ele>608.52</ele><time>2026-03-21T21:03:02.000Z</time></trkpt>
        <trkpt lat="28.8282581" lon="105.3028224"><ele>610.49</ele><time>2026-03-21T21:03:10.000Z</time></trkpt>
        <trkpt lat="28.8281501" lon="105.3028705"><ele>610.53</ele><time>2026-03-21T21:03:20.000Z</time></trkpt>
        <trkpt lat="28.8280409" lon="105.302905"><ele>610.54</ele><time>2026-03-21T21:03:38.000Z</time></trkpt>
        <trkpt lat="28.8279331" lon="105.3029144"><ele>609.95</ele><time>2026-03-21T21:03:52.000Z</time></trkpt>
        <trkpt lat="28.8278281" lon="105.3029061"><ele>609.19</ele><time>2026-03-21T21:04:04.000Z</time></trkpt>
        <trkpt lat="28.8277362" lon="105.302877"><ele>608.8</ele><time>2026-03-21T21:04:14.000Z</time></trkpt>
        <trkpt lat="28.8276418" lon="105.3028255"><ele>608.73</ele><time>2026-03-21T21:04:26.000Z</time></trkpt>
        <trkpt lat="28.8275589" lon="105.302749"><ele>608.45</ele><time>2026-03-21T21:04:34.000Z</time></trkpt>
        <trkpt lat="28.8274796" lon="105.3026651"><ele>608.83</ele><time>2026-03-21T21:04:44.000Z</time></trkpt>
        <trkpt lat="28.8274005" lon="105.3025968"><ele>610.29</ele><time>2026-03-21T21:04:52.000Z</time></trkpt>
        <trkpt lat="28.8273099" lon="105.3025564"><ele>610.17</ele><time>2026-03-21T21:05:02.000Z</time></trkpt>
        <trkpt lat="28.8272236" lon="105.3025082"><ele>609.56</ele><time>2026-03-21T21:05:58.000Z</time></trkpt>
        <trkpt lat="28.8271252" lon="105.3024955"><ele>611.7</ele><time>2026-03-21T21:06:16.000Z</time></trkpt>
        <trkpt lat="28.8270259" lon="105.3024753"><ele>613.56</ele><time>2026-03-21T21:06:46.000Z</time></trkpt>
        <trkpt lat="28.8269248" lon="105.3024981"><ele>613.68</ele><time>2026-03-21T21:06:56.000Z</time></trkpt>
        <trkpt lat="28.8268265" lon="105.3025026"><ele>614.18</ele><time>2026-03-21T21:07:06.000Z</time></trkpt>
        <trkpt lat="28.8267453" lon="105.3025531"><ele>614.24</ele><time>2026-03-21T21:07:24.000Z</time></trkpt>
        <trkpt lat="28.8267113" lon="105.3026574"><ele>616.16</ele><time>2026-03-21T21:07:34.000Z</time></trkpt>
        <trkpt lat="28.8267055" lon="105.3027884"><ele>616.82</ele><time>2026-03-21T21:07:44.000Z</time></trkpt>
        <trkpt lat="28.8266985" lon="105.302908"><ele>616.48</ele><time>2026-03-21T21:07:56.000Z</time></trkpt>
        <trkpt lat="28.8266671" lon="105.3030322"><ele>616.51</ele><time>2026-03-21T21:08:04.000Z</time></trkpt>
        <trkpt lat="28.8266253" lon="105.3031475"><ele>613.53</ele><time>2026-03-21T21:08:12.000Z</time></trkpt>
        <trkpt lat="28.8266253" lon="105.3031475"><ele>613.53</ele><time>2026-03-21T21:08:27.000Z</time></trkpt>
        <trkpt lat="28.8266253" lon="105.3031475"><ele>613.53</ele><time>2026-03-21T21:08:36.000Z</time></trkpt>
        <trkpt lat="28.8266253" lon="105.3031475"><ele>613.53</ele><time>2026-03-21T21:08:53.000Z</time></trkpt>
        <trkpt lat="28.8266253" lon="105.3031475"><ele>613.53</ele><time>2026-03-21T21:09:14.000Z</time></trkpt>
        <trkpt lat="28.8266253" lon="105.3031475"><ele>613.53</ele><time>2026-03-21T21:09:30.000Z</time></trkpt>
        <trkpt lat="28.8265891" lon="105.3032491"><ele>610.85</ele><time>2026-03-21T21:09:36.000Z</time></trkpt>
        <trkpt lat="28.8265891" lon="105.3032491"><ele>610.85</ele><time>2026-03-21T21:09:55.000Z</time></trkpt>
        <trkpt lat="28.8265891" lon="105.3032491"><ele>610.85</ele><time>2026-03-21T21:10:14.000Z</time></trkpt>
        <trkpt lat="28.8265417" lon="105.3033492"><ele>607.46</ele><time>2026-03-21T21:10:17.000Z</time></trkpt>
        <trkpt lat="28.8265417" lon="105.3033492"><ele>607.46</ele><time>2026-03-21T21:10:20.000Z</time></trkpt>
        <trkpt lat="28.8265272" lon="105.3034592"><ele>604.34</ele><time>2026-03-21T21:10:30.000Z</time></trkpt>
        <trkpt lat="28.8265098" lon="105.3035631"><ele>603.08</ele><time>2026-03-21T21:11:05.000Z</time></trkpt>
        <trkpt lat="28.8265053" lon="105.3036787"><ele>605.57</ele><time>2026-03-21T21:11:24.000Z</time></trkpt>
        <trkpt lat="28.8264775" lon="105.303785"><ele>607.88</ele><time>2026-03-21T21:11:42.000Z</time></trkpt>
        <trkpt lat="28.8264199" lon="105.3038753"><ele>609.64</ele><time>2026-03-21T21:11:54.000Z</time></trkpt>
        <trkpt lat="28.8264153" lon="105.3039089"><ele>609.94</ele><time>2026-03-21T21:11:59.000Z</time></trkpt>
        <trkpt lat="28.8263425" lon="105.3039231"><ele>609.68</ele><time>2026-03-21T21:12:14.000Z</time></trkpt>
        <trkpt lat="28.8262657" lon="105.3039725"><ele>610.52</ele><time>2026-03-21T21:12:24.000Z</time></trkpt>
        <trkpt lat="28.8261952" lon="105.3040504"><ele>612.16</ele><time>2026-03-21T21:12:36.000Z</time></trkpt>
        <trkpt lat="28.8261952" lon="105.3040504"><ele>612.16</ele><time>2026-03-21T21:13:20.000Z</time></trkpt>
        <trkpt lat="28.8261952" lon="105.3040504"><ele>612.16</ele><time>2026-03-21T21:13:26.000Z</time></trkpt>
        <trkpt lat="28.8261952" lon="105.3040504"><ele>612.16</ele><time>2026-03-21T21:13:40.000Z</time></trkpt>
        <trkpt lat="28.8261378" lon="105.3041515"><ele>612</ele><time>2026-03-21T21:14:06.000Z</time></trkpt>
        <trkpt lat="28.8261378" lon="105.3041515"><ele>612</ele><time>2026-03-21T21:14:28.000Z</time></trkpt>
        <trkpt lat="28.8260615" lon="105.3042139"><ele>613.6</ele><time>2026-03-21T21:14:52.000Z</time></trkpt>
        <trkpt lat="28.8259742" lon="105.3042634"><ele>613.5</ele><time>2026-03-21T21:15:06.000Z</time></trkpt>
        <trkpt lat="28.8259742" lon="105.3042634"><ele>613.5</ele><time>2026-03-21T21:15:26.000Z</time></trkpt>
        <trkpt lat="28.8259742" lon="105.3042634"><ele>613.5</ele><time>2026-03-21T21:15:41.000Z</time></trkpt>
        <trkpt lat="28.8259742" lon="105.3042634"><ele>613.5</ele><time>2026-03-21T21:16:37.000Z</time></trkpt>
        <trkpt lat="28.8259742" lon="105.3042634"><ele>613.5</ele><time>2026-03-21T21:16:42.000Z</time></trkpt>
        <trkpt lat="28.8259742" lon="105.3042634"><ele>613.5</ele><time>2026-03-21T21:17:58.000Z</time></trkpt>
        <trkpt lat="28.8259611" lon="105.3043294"><ele>614.02</ele><time>2026-03-21T21:21:37.000Z</time></trkpt>
        <trkpt lat="28.8259611" lon="105.3043294"><ele>614.02</ele><time>2026-03-21T21:21:42.000Z</time></trkpt>
        <trkpt lat="28.8258695" lon="105.3043506"><ele>612.18</ele><time>2026-03-21T21:21:46.000Z</time></trkpt>
        <trkpt lat="28.8259359" lon="105.3044146"><ele>611.39</ele><time>2026-03-21T21:21:56.000Z</time></trkpt>
        <trkpt lat="28.8260266" lon="105.3044328"><ele>608.62</ele><time>2026-03-21T21:22:02.000Z</time></trkpt>
        <trkpt lat="28.82612" lon="105.3044711"><ele>605.11</ele><time>2026-03-21T21:22:08.000Z</time></trkpt>
        <trkpt lat="28.8261935" lon="105.3045469"><ele>601.72</ele><time>2026-03-21T21:22:22.000Z</time></trkpt>
        <trkpt lat="28.8262464" lon="105.3046543"><ele>599.46</ele><time>2026-03-21T21:22:32.000Z</time></trkpt>
        <trkpt lat="28.8262704" lon="105.3046945"><ele>596.32</ele><time>2026-03-21T21:22:40.000Z</time></trkpt>
        <trkpt lat="28.8263211" lon="105.3047843"><ele>593.95</ele><time>2026-03-21T21:22:50.000Z</time></trkpt>
        <trkpt lat="28.8263779" lon="105.3048795"><ele>591.23</ele><time>2026-03-21T21:22:58.000Z</time></trkpt>
        <trkpt lat="28.8264433" lon="105.3049639"><ele>590.42</ele><time>2026-03-21T21:23:06.000Z</time></trkpt>
        <trkpt lat="28.8265078" lon="105.3050324"><ele>590.54</ele><time>2026-03-21T21:23:16.000Z</time></trkpt>
        <trkpt lat="28.8265503" lon="105.3051324"><ele>591.26</ele><time>2026-03-21T21:24:32.000Z</time></trkpt>
        <trkpt lat="28.8265742" lon="105.3052371"><ele>594.17</ele><time>2026-03-21T21:24:40.000Z</time></trkpt>
        <trkpt lat="28.8266052" lon="105.3053413"><ele>595.16</ele><time>2026-03-21T21:24:48.000Z</time></trkpt>
        <trkpt lat="28.8266397" lon="105.3054505"><ele>595.69</ele><time>2026-03-21T21:24:58.000Z</time></trkpt>
        <trkpt lat="28.8266643" lon="105.3055738"><ele>595.07</ele><time>2026-03-21T21:25:09.000Z</time></trkpt>
        <trkpt lat="28.8266895" lon="105.3056982"><ele>594.41</ele><time>2026-03-21T21:25:22.000Z</time></trkpt>
        <trkpt lat="28.8267414" lon="105.3057835"><ele>593.63</ele><time>2026-03-21T21:25:32.000Z</time></trkpt>
        <trkpt lat="28.826805" lon="105.3058786"><ele>592.55</ele><time>2026-03-21T21:25:44.000Z</time></trkpt>
        <trkpt lat="28.8268113" lon="105.3058631"><ele>591.28</ele><time>2026-03-21T21:25:59.000Z</time></trkpt>
        <trkpt lat="28.8268589" lon="105.3058987"><ele>590.49</ele><time>2026-03-21T21:26:12.000Z</time></trkpt>
        <trkpt lat="28.8269478" lon="105.3059234"><ele>590.06</ele><time>2026-03-21T21:26:20.000Z</time></trkpt>
        <trkpt lat="28.8270452" lon="105.3059518"><ele>590.93</ele><time>2026-03-21T21:26:28.000Z</time></trkpt>
        <trkpt lat="28.827088" lon="105.3059773"><ele>592.45</ele><time>2026-03-21T21:26:33.000Z</time></trkpt>
        <trkpt lat="28.8270813" lon="105.3060616"><ele>593.11</ele><time>2026-03-21T21:26:54.000Z</time></trkpt>
        <trkpt lat="28.8270359" lon="105.3061672"><ele>593.65</ele><time>2026-03-21T21:27:24.000Z</time></trkpt>
        <trkpt lat="28.8270332" lon="105.3062002"><ele>595.71</ele><time>2026-03-21T21:27:36.000Z</time></trkpt>
        <trkpt lat="28.8269936" lon="105.3062758"><ele>596.84</ele><time>2026-03-21T21:27:50.000Z</time></trkpt>
        <trkpt lat="28.8269936" lon="105.3062758"><ele>596.84</ele><time>2026-03-21T21:27:57.000Z</time></trkpt>
        <trkpt lat="28.8269664" lon="105.3063808"><ele>599.19</ele><time>2026-03-21T21:28:26.000Z</time></trkpt>
        <trkpt lat="28.8269664" lon="105.3063808"><ele>599.19</ele><time>2026-03-21T21:28:32.000Z</time></trkpt>
        <trkpt lat="28.8269705" lon="105.306502"><ele>601.03</ele><time>2026-03-21T21:28:40.000Z</time></trkpt>
        <trkpt lat="28.8269651" lon="105.3066145"><ele>600.32</ele><time>2026-03-21T21:28:48.000Z</time></trkpt>
        <trkpt lat="28.8269839" lon="105.3067222"><ele>599.02</ele><time>2026-03-21T21:28:56.000Z</time></trkpt>
        <trkpt lat="28.8270006" lon="105.3068466"><ele>598.44</ele><time>2026-03-21T21:29:04.000Z</time></trkpt>
        <trkpt lat="28.8270539" lon="105.3069425"><ele>597.52</ele><time>2026-03-21T21:29:12.000Z</time></trkpt>
        <trkpt lat="28.8271409" lon="105.3069977"><ele>597.14</ele><time>2026-03-21T21:29:20.000Z</time></trkpt>
        <trkpt lat="28.8272345" lon="105.307034"><ele>596.33</ele><time>2026-03-21T21:29:28.000Z</time></trkpt>
        <trkpt lat="28.827326" lon="105.3070829"><ele>594.56</ele><time>2026-03-21T21:29:36.000Z</time></trkpt>
        <trkpt lat="28.8273881" lon="105.3071717"><ele>592.94</ele><time>2026-03-21T21:29:46.000Z</time></trkpt>
        <trkpt lat="28.8273606" lon="105.307268"><ele>591.91</ele><time>2026-03-21T21:29:58.000Z</time></trkpt>
        <trkpt lat="28.8272715" lon="105.3073124"><ele>593.66</ele><time>2026-03-21T21:30:10.000Z</time></trkpt>
        <trkpt lat="28.8271555" lon="105.3073515"><ele>596.8</ele><time>2026-03-21T21:30:20.000Z</time></trkpt>
        <trkpt lat="28.8270942" lon="105.3074313"><ele>598.15</ele><time>2026-03-21T21:30:28.000Z</time></trkpt>
        <trkpt lat="28.8270942" lon="105.3074313"><ele>598.15</ele><time>2026-03-21T21:31:10.000Z</time></trkpt>
        <trkpt lat="28.8270521" lon="105.3075505"><ele>597.87</ele><time>2026-03-21T21:31:18.000Z</time></trkpt>
        <trkpt lat="28.8270521" lon="105.3075505"><ele>597.87</ele><time>2026-03-21T21:31:34.000Z</time></trkpt>
        <trkpt lat="28.8270492" lon="105.3076551"><ele>597.92</ele><time>2026-03-21T21:31:48.000Z</time></trkpt>
        <trkpt lat="28.8270813" lon="105.3077498"><ele>596.26</ele><time>2026-03-21T21:31:54.000Z</time></trkpt>
        <trkpt lat="28.8271123" lon="105.3078561"><ele>593.71</ele><time>2026-03-21T21:32:02.000Z</time></trkpt>
        <trkpt lat="28.8271627" lon="105.3079508"><ele>592.37</ele><time>2026-03-21T21:32:10.000Z</time></trkpt>
        <trkpt lat="28.8272157" lon="105.3080574"><ele>591.33</ele><time>2026-03-21T21:32:20.000Z</time></trkpt>
        <trkpt lat="28.8272719" lon="105.3081577"><ele>590.93</ele><time>2026-03-21T21:32:30.000Z</time></trkpt>
        <trkpt lat="28.8273462" lon="105.3082397"><ele>590.01</ele><time>2026-03-21T21:32:40.000Z</time></trkpt>
        <trkpt lat="28.8274303" lon="105.308298"><ele>589.71</ele><time>2026-03-21T21:32:50.000Z</time></trkpt>
        <trkpt lat="28.8275248" lon="105.3083203"><ele>589.22</ele><time>2026-03-21T21:32:58.000Z</time></trkpt>
        <trkpt lat="28.8276254" lon="105.3083161"><ele>588.38</ele><time>2026-03-21T21:33:06.000Z</time></trkpt>
        <trkpt lat="28.8277141" lon="105.3082551"><ele>587.83</ele><time>2026-03-21T21:33:16.000Z</time></trkpt>
        <trkpt lat="28.8276236" lon="105.3082658"><ele>588.53</ele><time>2026-03-21T21:35:02.000Z</time></trkpt>
        <trkpt lat="28.8276988" lon="105.3083313"><ele>585.64</ele><time>2026-03-21T21:35:10.000Z</time></trkpt>
        <trkpt lat="28.8277715" lon="105.3084196"><ele>583.14</ele><time>2026-03-21T21:35:18.000Z</time></trkpt>
        <trkpt lat="28.8277553" lon="105.3085173"><ele>583.02</ele><time>2026-03-21T21:35:31.000Z</time></trkpt>
        <trkpt lat="28.8277271" lon="105.3086209"><ele>582.35</ele><time>2026-03-21T21:35:38.000Z</time></trkpt>
        <trkpt lat="28.8277181" lon="105.3087348"><ele>582.56</ele><time>2026-03-21T21:35:46.000Z</time></trkpt>
        <trkpt lat="28.8277018" lon="105.308705"><ele>583.98</ele><time>2026-03-21T21:36:07.000Z</time></trkpt>
        <trkpt lat="28.8277112" lon="105.3085849"><ele>583.05</ele><time>2026-03-21T21:36:25.000Z</time></trkpt>
        <trkpt lat="28.8277518" lon="105.3084982"><ele>582.3</ele><time>2026-03-21T21:36:38.000Z</time></trkpt>
        <trkpt lat="28.8277667" lon="105.3083842"><ele>579.42</ele><time>2026-03-21T21:36:55.000Z</time></trkpt>
        <trkpt lat="28.8277617" lon="105.3083413"><ele>579.54</ele><time>2026-03-21T21:37:00.000Z</time></trkpt>
        <trkpt lat="28.8277124" lon="105.3082749"><ele>580.36</ele><time>2026-03-21T21:37:18.000Z</time></trkpt>
        <trkpt lat="28.8276867" lon="105.3082219"><ele>580.7</ele><time>2026-03-21T21:37:32.000Z</time></trkpt>
        <trkpt lat="28.8277176" lon="105.308141"><ele>580.96</ele><time>2026-03-21T21:37:52.000Z</time></trkpt>
        <trkpt lat="28.8277807" lon="105.3080568"><ele>581.48</ele><time>2026-03-21T21:38:06.000Z</time></trkpt>
        <trkpt lat="28.8278492" lon="105.3079723"><ele>583.22</ele><time>2026-03-21T21:38:38.000Z</time></trkpt>
        <trkpt lat="28.8279293" lon="105.3079066"><ele>587.04</ele><time>2026-03-21T21:38:50.000Z</time></trkpt>
        <trkpt lat="28.8279318" lon="105.3079707"><ele>588.79</ele><time>2026-03-21T21:39:28.000Z</time></trkpt>
        <trkpt lat="28.8278552" lon="105.3080315"><ele>590.43</ele><time>2026-03-21T21:39:54.000Z</time></trkpt>
        <trkpt lat="28.8277871" lon="105.3081307"><ele>592.9</ele><time>2026-03-21T21:40:24.000Z</time></trkpt>
        <trkpt lat="28.8277714" lon="105.3081811"><ele>593.92</ele><time>2026-03-21T21:40:26.000Z</time></trkpt>
        <trkpt lat="28.8277138" lon="105.3082361"><ele>593.92</ele><time>2026-03-21T21:40:54.000Z</time></trkpt>
        <trkpt lat="28.8276255" lon="105.3082583"><ele>588.98</ele><time>2026-03-21T21:41:18.000Z</time></trkpt>
        <trkpt lat="28.8276482" lon="105.3083152"><ele>585.33</ele><time>2026-03-21T21:41:30.000Z</time></trkpt>
        <trkpt lat="28.8277138" lon="105.3083885"><ele>582.21</ele><time>2026-03-21T21:41:38.000Z</time></trkpt>
        <trkpt lat="28.8277405" lon="105.308504"><ele>581.67</ele><time>2026-03-21T21:41:48.000Z</time></trkpt>
        <trkpt lat="28.8277409" lon="105.3086276"><ele>581.37</ele><time>2026-03-21T21:41:56.000Z</time></trkpt>
        <trkpt lat="28.8277206" lon="105.3087536"><ele>581.01</ele><time>2026-03-21T21:42:04.000Z</time></trkpt>
        <trkpt lat="28.8276955" lon="105.3087579"><ele>581.26</ele><time>2026-03-21T21:42:07.000Z</time></trkpt>
        <trkpt lat="28.8276955" lon="105.3087579"><ele>581.26</ele><time>2026-03-21T21:42:19.000Z</time></trkpt>
        <trkpt lat="28.8276955" lon="105.3087579"><ele>581.26</ele><time>2026-03-21T21:42:33.000Z</time></trkpt>
        <trkpt lat="28.8276955" lon="105.3087579"><ele>581.26</ele><time>2026-03-21T21:42:46.000Z</time></trkpt>
        <trkpt lat="28.8276955" lon="105.3087579"><ele>581.26</ele><time>2026-03-21T21:42:47.000Z</time></trkpt>
        <trkpt lat="28.8276955" lon="105.3087579"><ele>581.26</ele><time>2026-03-21T21:43:18.000Z</time></trkpt>
        <trkpt lat="28.8276558" lon="105.3088176"><ele>582.69</ele><time>2026-03-21T21:43:23.000Z</time></trkpt>
        <trkpt lat="28.8276558" lon="105.3088176"><ele>582.69</ele><time>2026-03-21T21:43:38.000Z</time></trkpt>
        <trkpt lat="28.8276751" lon="105.3089333"><ele>581.71</ele><time>2026-03-21T21:43:46.000Z</time></trkpt>
        <trkpt lat="28.8276726" lon="105.3090406"><ele>581.4</ele><time>2026-03-21T21:43:58.000Z</time></trkpt>
        <trkpt lat="28.827593" lon="105.3090835"><ele>582.17</ele><time>2026-03-21T21:44:10.000Z</time></trkpt>
        <trkpt lat="28.8274966" lon="105.309095"><ele>582.64</ele><time>2026-03-21T21:44:20.000Z</time></trkpt>
        <trkpt lat="28.8274966" lon="105.309095"><ele>582.64</ele><time>2026-03-21T21:44:43.000Z</time></trkpt>
        <trkpt lat="28.827426" lon="105.3091648"><ele>583.78</ele><time>2026-03-21T21:45:12.000Z</time></trkpt>
        <trkpt lat="28.827426" lon="105.3091648"><ele>583.78</ele><time>2026-03-21T21:45:14.000Z</time></trkpt>
        <trkpt lat="28.8274087" lon="105.3092054"><ele>582.98</ele><time>2026-03-21T21:45:18.000Z</time></trkpt>
        <trkpt lat="28.8274091" lon="105.309303"><ele>582.65</ele><time>2026-03-21T21:45:34.000Z</time></trkpt>
        <trkpt lat="28.8274314" lon="105.3093499"><ele>582.38</ele><time>2026-03-21T21:45:38.000Z</time></trkpt>
        <trkpt lat="28.827457" lon="105.3094439"><ele>581.97</ele><time>2026-03-21T21:45:58.000Z</time></trkpt>
        <trkpt lat="28.8274786" lon="105.3095548"><ele>582</ele><time>2026-03-21T21:46:06.000Z</time></trkpt>
        <trkpt lat="28.8275075" lon="105.3096678"><ele>582.92</ele><time>2026-03-21T21:46:16.000Z</time></trkpt>
        <trkpt lat="28.8275325" lon="105.3097923"><ele>583.7</ele><time>2026-03-21T21:46:26.000Z</time></trkpt>
        <trkpt lat="28.8275666" lon="105.3098977"><ele>582.93</ele><time>2026-03-21T21:46:34.000Z</time></trkpt>
        <trkpt lat="28.8276311" lon="105.3100016"><ele>582.89</ele><time>2026-03-21T21:46:44.000Z</time></trkpt>
        <trkpt lat="28.8276884" lon="105.3100952"><ele>583.02</ele><time>2026-03-21T21:46:50.000Z</time></trkpt>
        <trkpt lat="28.8277477" lon="105.3101269"><ele>582.66</ele><time>2026-03-21T21:47:02.000Z</time></trkpt>
        <trkpt lat="28.8277477" lon="105.3101269"><ele>582.66</ele><time>2026-03-21T21:47:50.000Z</time></trkpt>
        <trkpt lat="28.8277477" lon="105.3101269"><ele>582.66</ele><time>2026-03-21T21:47:57.000Z</time></trkpt>
        <trkpt lat="28.8277477" lon="105.3101269"><ele>582.66</ele><time>2026-03-21T21:48:12.000Z</time></trkpt>
        <trkpt lat="28.8277063" lon="105.3102053"><ele>582.58</ele><time>2026-03-21T21:48:24.000Z</time></trkpt>
        <trkpt lat="28.8277063" lon="105.3102053"><ele>582.58</ele><time>2026-03-21T21:48:30.000Z</time></trkpt>
        <trkpt lat="28.8276705" lon="105.3103074"><ele>581.16</ele><time>2026-03-21T21:48:43.000Z</time></trkpt>
        <trkpt lat="28.8276292" lon="105.3104019"><ele>581.25</ele><time>2026-03-21T21:48:56.000Z</time></trkpt>
        <trkpt lat="28.8275703" lon="105.3104988"><ele>580</ele><time>2026-03-21T21:49:12.000Z</time></trkpt>
        <trkpt lat="28.8275191" lon="105.3105938"><ele>582.49</ele><time>2026-03-21T21:49:22.000Z</time></trkpt>
        <trkpt lat="28.8274791" lon="105.3107018"><ele>583.45</ele><time>2026-03-21T21:49:32.000Z</time></trkpt>
        <trkpt lat="28.827448" lon="105.3108123"><ele>583.4</ele><time>2026-03-21T21:49:44.000Z</time></trkpt>
        <trkpt lat="28.8274311" lon="105.3109206"><ele>584.48</ele><time>2026-03-21T21:49:59.000Z</time></trkpt>
        <trkpt lat="28.8274708" lon="105.3110097"><ele>586.37</ele><time>2026-03-21T21:50:15.000Z</time></trkpt>
        <trkpt lat="28.8275589" lon="105.3110615"><ele>587.4</ele><time>2026-03-21T21:50:28.000Z</time></trkpt>
        <trkpt lat="28.8276254" lon="105.3111441"><ele>589.15</ele><time>2026-03-21T21:50:47.000Z</time></trkpt>
        <trkpt lat="28.8276976" lon="105.3112308"><ele>590.01</ele><time>2026-03-21T21:51:00.000Z</time></trkpt>
        <trkpt lat="28.8277777" lon="105.3113074"><ele>592.22</ele><time>2026-03-21T21:51:10.000Z</time></trkpt>
        <trkpt lat="28.8278657" lon="105.3113642"><ele>595.08</ele><time>2026-03-21T21:51:26.000Z</time></trkpt>
        <trkpt lat="28.8279457" lon="105.3114225"><ele>596.13</ele><time>2026-03-21T21:51:38.000Z</time></trkpt>
        <trkpt lat="28.8279457" lon="105.3114225"><ele>596.13</ele><time>2026-03-21T21:51:51.000Z</time></trkpt>
        <trkpt lat="28.8280381" lon="105.3114372"><ele>598.28</ele><time>2026-03-21T21:51:52.000Z</time></trkpt>
        <trkpt lat="28.8280381" lon="105.3114372"><ele>598.28</ele><time>2026-03-21T21:51:58.000Z</time></trkpt>
        <trkpt lat="28.8281304" lon="105.3114347"><ele>599.61</ele><time>2026-03-21T21:52:10.000Z</time></trkpt>
        <trkpt lat="28.828238" lon="105.3114528"><ele>600.8</ele><time>2026-03-21T21:52:20.000Z</time></trkpt>
        <trkpt lat="28.8283345" lon="105.3114711"><ele>601.67</ele><time>2026-03-21T21:52:26.000Z</time></trkpt>
        <trkpt lat="28.8284146" lon="105.3115269"><ele>602.61</ele><time>2026-03-21T21:52:42.000Z</time></trkpt>
        <trkpt lat="28.8285033" lon="105.3115635"><ele>604.49</ele><time>2026-03-21T21:52:54.000Z</time></trkpt>
        <trkpt lat="28.8285871" lon="105.3115351"><ele>602.73</ele><time>2026-03-21T21:53:14.000Z</time></trkpt>
        <trkpt lat="28.8285871" lon="105.3115351"><ele>602.73</ele><time>2026-03-21T21:53:43.000Z</time></trkpt>
        <trkpt lat="28.8284845" lon="105.3115628"><ele>599.53</ele><time>2026-03-21T21:54:01.000Z</time></trkpt>
        <trkpt lat="28.8284845" lon="105.3115628"><ele>599.53</ele><time>2026-03-21T21:54:21.000Z</time></trkpt>
        <trkpt lat="28.8284845" lon="105.3115628"><ele>599.53</ele><time>2026-03-21T21:54:39.000Z</time></trkpt>
        <trkpt lat="28.8283799" lon="105.311588"><ele>594.21</ele><time>2026-03-21T21:55:31.000Z</time></trkpt>
        <trkpt lat="28.8283799" lon="105.311588"><ele>594.21</ele><time>2026-03-21T21:56:25.000Z</time></trkpt>
        <trkpt lat="28.8283484" lon="105.3116952"><ele>598.33</ele><time>2026-03-21T21:56:35.000Z</time></trkpt>
        <trkpt lat="28.8283518" lon="105.3118019"><ele>600.25</ele><time>2026-03-21T21:56:51.000Z</time></trkpt>
        <trkpt lat="28.8283682" lon="105.3119196"><ele>600.52</ele><time>2026-03-21T21:57:09.000Z</time></trkpt>
        <trkpt lat="28.8283953" lon="105.3119736"><ele>601.88</ele><time>2026-03-21T21:57:13.000Z</time></trkpt>
        <trkpt lat="28.8284366" lon="105.3120603"><ele>604.17</ele><time>2026-03-21T21:57:33.000Z</time></trkpt>
        <trkpt lat="28.8284964" lon="105.3121429"><ele>606.33</ele><time>2026-03-21T21:57:43.000Z</time></trkpt>
        <trkpt lat="28.8285849" lon="105.3121899"><ele>608.22</ele><time>2026-03-21T21:57:53.000Z</time></trkpt>
        <trkpt lat="28.8286898" lon="105.3122353"><ele>607.17</ele><time>2026-03-21T21:58:03.000Z</time></trkpt>
        <trkpt lat="28.8287765" lon="105.3122388"><ele>605.98</ele><time>2026-03-21T21:58:11.000Z</time></trkpt>
        <trkpt lat="28.8288589" lon="105.3122833"><ele>603.81</ele><time>2026-03-21T21:58:41.000Z</time></trkpt>
        <trkpt lat="28.8289575" lon="105.3123215"><ele>600.79</ele><time>2026-03-21T21:58:49.000Z</time></trkpt>
        <trkpt lat="28.8290571" lon="105.3123426"><ele>598.91</ele><time>2026-03-21T21:59:03.000Z</time></trkpt>
        <trkpt lat="28.8290879" lon="105.3123297"><ele>598.11</ele><time>2026-03-21T21:59:05.000Z</time></trkpt>
        <trkpt lat="28.8290784" lon="105.3124278"><ele>597.86</ele><time>2026-03-21T21:59:39.000Z</time></trkpt>
        <trkpt lat="28.82906" lon="105.3124793"><ele>596.24</ele><time>2026-03-21T21:59:45.000Z</time></trkpt>
        <trkpt lat="28.8291159" lon="105.3125465"><ele>595.99</ele><time>2026-03-21T21:59:59.000Z</time></trkpt>
        <trkpt lat="28.8291721" lon="105.3126336"><ele>594.4</ele><time>2026-03-21T22:00:07.000Z</time></trkpt>
        <trkpt lat="28.829233" lon="105.3127333"><ele>593.55</ele><time>2026-03-21T22:00:17.000Z</time></trkpt>
        <trkpt lat="28.8292927" lon="105.3128224"><ele>592.2</ele><time>2026-03-21T22:00:25.000Z</time></trkpt>
        <trkpt lat="28.8293457" lon="105.3129119"><ele>591.67</ele><time>2026-03-21T22:00:33.000Z</time></trkpt>
        <trkpt lat="28.8294157" lon="105.3130045"><ele>591.28</ele><time>2026-03-21T22:00:41.000Z</time></trkpt>
        <trkpt lat="28.8294824" lon="105.3130899"><ele>592.15</ele><time>2026-03-21T22:00:49.000Z</time></trkpt>
        <trkpt lat="28.8295345" lon="105.313193"><ele>591.87</ele><time>2026-03-21T22:00:57.000Z</time></trkpt>
        <trkpt lat="28.8295923" lon="105.3133006"><ele>592.06</ele><time>2026-03-21T22:01:05.000Z</time></trkpt>
        <trkpt lat="28.8295983" lon="105.3133367"><ele>592.91</ele><time>2026-03-21T22:01:13.000Z</time></trkpt>
        <trkpt lat="28.8295983" lon="105.3133367"><ele>592.91</ele><time>2026-03-21T22:01:38.000Z</time></trkpt>
        <trkpt lat="28.8296137" lon="105.3134133"><ele>592.8</ele><time>2026-03-21T22:01:43.000Z</time></trkpt>
        <trkpt lat="28.8296137" lon="105.3134133"><ele>592.8</ele><time>2026-03-21T22:02:05.000Z</time></trkpt>
        <trkpt lat="28.8295585" lon="105.3135483"><ele>591.5</ele><time>2026-03-21T22:02:15.000Z</time></trkpt>
        <trkpt lat="28.8294987" lon="105.313579"><ele>588.94</ele><time>2026-03-21T22:02:19.000Z</time></trkpt>
        <trkpt lat="28.829431" lon="105.3136579"><ele>588.31</ele><time>2026-03-21T22:02:29.000Z</time></trkpt>
        <trkpt lat="28.8293654" lon="105.3137497"><ele>586.38</ele><time>2026-03-21T22:02:37.000Z</time></trkpt>
        <trkpt lat="28.8293132" lon="105.313848"><ele>585.51</ele><time>2026-03-21T22:02:45.000Z</time></trkpt>
        <trkpt lat="28.8292902" lon="105.3139569"><ele>583.95</ele><time>2026-03-21T22:02:57.000Z</time></trkpt>
        <trkpt lat="28.8292106" lon="105.3139821"><ele>581.67</ele><time>2026-03-21T22:03:21.000Z</time></trkpt>
        <trkpt lat="28.8291248" lon="105.31403"><ele>581.22</ele><time>2026-03-21T22:03:29.000Z</time></trkpt>
        <trkpt lat="28.8290875" lon="105.3141157"><ele>582.08</ele><time>2026-03-21T22:03:37.000Z</time></trkpt>
        <trkpt lat="28.8291049" lon="105.3142311"><ele>583.73</ele><time>2026-03-21T22:04:01.000Z</time></trkpt>
        <trkpt lat="28.8291337" lon="105.3143433"><ele>586.28</ele><time>2026-03-21T22:04:11.000Z</time></trkpt>
        <trkpt lat="28.829164" lon="105.3144516"><ele>586.43</ele><time>2026-03-21T22:04:21.000Z</time></trkpt>
        <trkpt lat="28.8292011" lon="105.3145614"><ele>584.86</ele><time>2026-03-21T22:04:29.000Z</time></trkpt>
        <trkpt lat="28.8292255" lon="105.3146846"><ele>583.61</ele><time>2026-03-21T22:04:39.000Z</time></trkpt>
        <trkpt lat="28.8292192" lon="105.314803"><ele>582.76</ele><time>2026-03-21T22:04:49.000Z</time></trkpt>
        <trkpt lat="28.8291497" lon="105.3148784"><ele>581.18</ele><time>2026-03-21T22:04:57.000Z</time></trkpt>
        <trkpt lat="28.8291167" lon="105.3149363"><ele>580.01</ele><time>2026-03-21T22:05:03.000Z</time></trkpt>
        <trkpt lat="28.8291167" lon="105.3149363"><ele>580.01</ele><time>2026-03-21T22:05:34.000Z</time></trkpt>
        <trkpt lat="28.8291302" lon="105.3150347"><ele>579.65</ele><time>2026-03-21T22:05:37.000Z</time></trkpt>
        <trkpt lat="28.8291302" lon="105.3150347"><ele>579.65</ele><time>2026-03-21T22:05:51.000Z</time></trkpt>
        <trkpt lat="28.8291451" lon="105.3151394"><ele>580.09</ele><time>2026-03-21T22:05:57.000Z</time></trkpt>
        <trkpt lat="28.8291641" lon="105.3152554"><ele>579.09</ele><time>2026-03-21T22:06:05.000Z</time></trkpt>
        <trkpt lat="28.8291571" lon="105.3153769"><ele>576.59</ele><time>2026-03-21T22:06:17.000Z</time></trkpt>
        <trkpt lat="28.8290954" lon="105.3154705"><ele>573.12</ele><time>2026-03-21T22:06:25.000Z</time></trkpt>
        <trkpt lat="28.8290365" lon="105.3155665"><ele>571.29</ele><time>2026-03-21T22:06:33.000Z</time></trkpt>
        <trkpt lat="28.8289773" lon="105.3156773"><ele>571.14</ele><time>2026-03-21T22:06:43.000Z</time></trkpt>
        <trkpt lat="28.8289139" lon="105.3157795"><ele>570.6</ele><time>2026-03-21T22:06:51.000Z</time></trkpt>
        <trkpt lat="28.8288643" lon="105.3158907"><ele>570.71</ele><time>2026-03-21T22:07:02.000Z</time></trkpt>
        <trkpt lat="28.8288643" lon="105.3158907"><ele>570.71</ele><time>2026-03-21T22:07:26.000Z</time></trkpt>
        <trkpt lat="28.8288831" lon="105.315994"><ele>570.19</ele><time>2026-03-21T22:07:36.000Z</time></trkpt>
        <trkpt lat="28.8288831" lon="105.315994"><ele>570.19</ele><time>2026-03-21T22:08:24.000Z</time></trkpt>
        <trkpt lat="28.828935" lon="105.3160973"><ele>567.03</ele><time>2026-03-21T22:08:33.000Z</time></trkpt>
        <trkpt lat="28.8289555" lon="105.3162151"><ele>565.12</ele><time>2026-03-21T22:08:45.000Z</time></trkpt>
        <trkpt lat="28.8289557" lon="105.3163414"><ele>564.58</ele><time>2026-03-21T22:08:55.000Z</time></trkpt>
        <trkpt lat="28.8289295" lon="105.3164634"><ele>562.33</ele><time>2026-03-21T22:09:06.000Z</time></trkpt>
        <trkpt lat="28.8288958" lon="105.3165812"><ele>558.95</ele><time>2026-03-21T22:09:13.000Z</time></trkpt>
        <trkpt lat="28.8288843" lon="105.3166957"><ele>556.86</ele><time>2026-03-21T22:09:21.000Z</time></trkpt>
        <trkpt lat="28.8288904" lon="105.3168108"><ele>555.49</ele><time>2026-03-21T22:09:37.000Z</time></trkpt>
        <trkpt lat="28.8288973" lon="105.3169182"><ele>553.76</ele><time>2026-03-21T22:09:45.000Z</time></trkpt>
        <trkpt lat="28.8289488" lon="105.317019"><ele>551.84</ele><time>2026-03-21T22:10:01.000Z</time></trkpt>
        <trkpt lat="28.828994" lon="105.317124"><ele>550.68</ele><time>2026-03-21T22:10:09.000Z</time></trkpt>
        <trkpt lat="28.8290085" lon="105.3172465"><ele>549.13</ele><time>2026-03-21T22:10:17.000Z</time></trkpt>
        <trkpt lat="28.8289798" lon="105.3173481"><ele>548.9</ele><time>2026-03-21T22:10:23.000Z</time></trkpt>
        <trkpt lat="28.8289958" lon="105.3174605"><ele>549.23</ele><time>2026-03-21T22:10:33.000Z</time></trkpt>
        <trkpt lat="28.8290467" lon="105.3175518"><ele>548.92</ele><time>2026-03-21T22:10:43.000Z</time></trkpt>
        <trkpt lat="28.8291199" lon="105.3176352"><ele>549.2</ele><time>2026-03-21T22:10:51.000Z</time></trkpt>
        <trkpt lat="28.8291734" lon="105.3177424"><ele>548.92</ele><time>2026-03-21T22:11:01.000Z</time></trkpt>
        <trkpt lat="28.8292344" lon="105.3178416"><ele>548.69</ele><time>2026-03-21T22:11:11.000Z</time></trkpt>
        <trkpt lat="28.8292483" lon="105.3179451"><ele>546.97</ele><time>2026-03-21T22:11:32.000Z</time></trkpt>
        <trkpt lat="28.8292483" lon="105.3179451"><ele>546.97</ele><time>2026-03-21T22:12:06.000Z</time></trkpt>
        <trkpt lat="28.8292483" lon="105.3179451"><ele>546.97</ele><time>2026-03-21T22:12:10.000Z</time></trkpt>
        <trkpt lat="28.8292483" lon="105.3179451"><ele>546.97</ele><time>2026-03-21T22:12:12.000Z</time></trkpt>
        <trkpt lat="28.8292483" lon="105.3179451"><ele>546.97</ele><time>2026-03-21T22:12:16.000Z</time></trkpt>
        <trkpt lat="28.8292483" lon="105.3179451"><ele>546.97</ele><time>2026-03-21T22:12:51.000Z</time></trkpt>
        <trkpt lat="28.8292533" lon="105.3180708"><ele>545.65</ele><time>2026-03-21T22:13:10.000Z</time></trkpt>
        <trkpt lat="28.8292533" lon="105.3180708"><ele>545.65</ele><time>2026-03-21T22:13:22.000Z</time></trkpt>
        <trkpt lat="28.8292304" lon="105.3181829"><ele>547.64</ele><time>2026-03-21T22:13:36.000Z</time></trkpt>
        <trkpt lat="28.8292478" lon="105.3182111"><ele>544.45</ele><time>2026-03-21T22:13:44.000Z</time></trkpt>
        <trkpt lat="28.8292478" lon="105.3182111"><ele>544.45</ele><time>2026-03-21T22:14:13.000Z</time></trkpt>
        <trkpt lat="28.8292478" lon="105.3182111"><ele>544.45</ele><time>2026-03-21T22:14:55.000Z</time></trkpt>
        <trkpt lat="28.8292478" lon="105.3182111"><ele>544.45</ele><time>2026-03-21T22:15:25.000Z</time></trkpt>
        <trkpt lat="28.8292478" lon="105.3182111"><ele>544.45</ele><time>2026-03-21T22:15:27.000Z</time></trkpt>
        <trkpt lat="28.8292478" lon="105.3182111"><ele>544.45</ele><time>2026-03-21T22:16:23.000Z</time></trkpt>
        <trkpt lat="28.829308" lon="105.3180759"><ele>542.64</ele><time>2026-03-21T22:16:26.000Z</time></trkpt>
        <trkpt lat="28.829308" lon="105.3180759"><ele>542.64</ele><time>2026-03-21T22:16:26.000Z</time></trkpt>
        <trkpt lat="28.8292923" lon="105.3179708"><ele>536.85</ele><time>2026-03-21T22:16:40.000Z</time></trkpt>
        <trkpt lat="28.8292923" lon="105.3179708"><ele>536.85</ele><time>2026-03-21T22:16:41.000Z</time></trkpt>
        <trkpt lat="28.8292923" lon="105.3179708"><ele>536.85</ele><time>2026-03-21T22:23:30.000Z</time></trkpt>
        <trkpt lat="28.8292923" lon="105.3179708"><ele>536.85</ele><time>2026-03-21T22:24:14.000Z</time></trkpt>
        <trkpt lat="28.8292509" lon="105.3181124"><ele>539.86</ele><time>2026-03-21T22:24:27.000Z</time></trkpt>
        <trkpt lat="28.8292509" lon="105.3181124"><ele>539.86</ele><time>2026-03-21T22:24:48.000Z</time></trkpt>
        <trkpt lat="28.8292509" lon="105.3181124"><ele>539.86</ele><time>2026-03-21T22:25:15.000Z</time></trkpt>
        <trkpt lat="28.8292509" lon="105.3181124"><ele>539.86</ele><time>2026-03-21T22:25:20.000Z</time></trkpt>
        <trkpt lat="28.8292509" lon="105.3181124"><ele>539.86</ele><time>2026-03-21T22:26:02.000Z</time></trkpt>
        <trkpt lat="28.8292517" lon="105.3182623"><ele>539.45</ele><time>2026-03-21T22:26:13.000Z</time></trkpt>
        <trkpt lat="28.8292517" lon="105.3182623"><ele>539.45</ele><time>2026-03-21T22:27:36.000Z</time></trkpt>
        <trkpt lat="28.8292483" lon="105.3183835"><ele>534.9</ele><time>2026-03-21T22:27:42.000Z</time></trkpt>
        <trkpt lat="28.8292376" lon="105.3185009"><ele>529.66</ele><time>2026-03-21T22:28:13.000Z</time></trkpt>
        <trkpt lat="28.8292479" lon="105.3186056"><ele>527.07</ele><time>2026-03-21T22:28:24.000Z</time></trkpt>
        <trkpt lat="28.8292584" lon="105.3187131"><ele>525.63</ele><time>2026-03-21T22:28:38.000Z</time></trkpt>
        <trkpt lat="28.8292725" lon="105.3188337"><ele>524.78</ele><time>2026-03-21T22:28:50.000Z</time></trkpt>
        <trkpt lat="28.8292993" lon="105.318944"><ele>523.92</ele><time>2026-03-21T22:29:06.000Z</time></trkpt>
        <trkpt lat="28.8293119" lon="105.3190561"><ele>525.99</ele><time>2026-03-21T22:29:25.000Z</time></trkpt>
        <trkpt lat="28.8293342" lon="105.3191604"><ele>526.52</ele><time>2026-03-21T22:29:38.000Z</time></trkpt>
        <trkpt lat="28.8293342" lon="105.3191604"><ele>526.52</ele><time>2026-03-21T22:30:16.000Z</time></trkpt>
        <trkpt lat="28.8293339" lon="105.3192638"><ele>527</ele><time>2026-03-21T22:30:20.000Z</time></trkpt>
        <trkpt lat="28.8293339" lon="105.3192638"><ele>527</ele><time>2026-03-21T22:30:23.000Z</time></trkpt>
        <trkpt lat="28.8293339" lon="105.3192638"><ele>527</ele><time>2026-03-21T22:31:02.000Z</time></trkpt>
        <trkpt lat="28.8293339" lon="105.3192638"><ele>527</ele><time>2026-03-21T22:31:07.000Z</time></trkpt>
        <trkpt lat="28.8293339" lon="105.3192638"><ele>527</ele><time>2026-03-21T22:31:26.000Z</time></trkpt>
        <trkpt lat="28.8293157" lon="105.319393"><ele>528.81</ele><time>2026-03-21T22:31:35.000Z</time></trkpt>
        <trkpt lat="28.8293157" lon="105.319393"><ele>528.81</ele><time>2026-03-21T22:31:51.000Z</time></trkpt>
        <trkpt lat="28.8293024" lon="105.3195144"><ele>530.5</ele><time>2026-03-21T22:31:59.000Z</time></trkpt>
        <trkpt lat="28.8293043" lon="105.3196308"><ele>530.15</ele><time>2026-03-21T22:32:07.000Z</time></trkpt>
        <trkpt lat="28.8293027" lon="105.3197418"><ele>529.76</ele><time>2026-03-21T22:32:15.000Z</time></trkpt>
        <trkpt lat="28.8293179" lon="105.3198479"><ele>529.21</ele><time>2026-03-21T22:32:23.000Z</time></trkpt>
        <trkpt lat="28.8293261" lon="105.319882"><ele>528.59</ele><time>2026-03-21T22:32:25.000Z</time></trkpt>
        <trkpt lat="28.8293261" lon="105.319882"><ele>528.59</ele><time>2026-03-21T22:32:50.000Z</time></trkpt>
        <trkpt lat="28.8293542" lon="105.3199705"><ele>528.42</ele><time>2026-03-21T22:33:03.000Z</time></trkpt>
        <trkpt lat="28.8293542" lon="105.3199705"><ele>528.42</ele><time>2026-03-21T22:33:13.000Z</time></trkpt>
        <trkpt lat="28.8293885" lon="105.3200667"><ele>527.39</ele><time>2026-03-21T22:33:25.000Z</time></trkpt>
        <trkpt lat="28.829444" lon="105.3201646"><ele>527.17</ele><time>2026-03-21T22:33:37.000Z</time></trkpt>
        <trkpt lat="28.8294872" lon="105.3202679"><ele>525.86</ele><time>2026-03-21T22:33:51.000Z</time></trkpt>
        <trkpt lat="28.8295064" lon="105.3203748"><ele>521.03</ele><time>2026-03-21T22:33:59.000Z</time></trkpt>
        <trkpt lat="28.829532" lon="105.3204747"><ele>519.69</ele><time>2026-03-21T22:34:09.000Z</time></trkpt>
        <trkpt lat="28.8295525" lon="105.3205918"><ele>519.12</ele><time>2026-03-21T22:34:15.000Z</time></trkpt>
        <trkpt lat="28.8295613" lon="105.3207003"><ele>517.2</ele><time>2026-03-21T22:34:19.000Z</time></trkpt>
        <trkpt lat="28.8295496" lon="105.3207861"><ele>515.7</ele><time>2026-03-21T22:34:23.000Z</time></trkpt>
        <trkpt lat="28.8295501" lon="105.3208836"><ele>515.13</ele><time>2026-03-21T22:34:39.000Z</time></trkpt>
        <trkpt lat="28.8295832" lon="105.3209958"><ele>513.65</ele><time>2026-03-21T22:34:53.000Z</time></trkpt>
        <trkpt lat="28.8295953" lon="105.3210516"><ele>513.32</ele><time>2026-03-21T22:34:58.000Z</time></trkpt>
        <trkpt lat="28.829573" lon="105.3211358"><ele>513.24</ele><time>2026-03-21T22:35:11.000Z</time></trkpt>
        <trkpt lat="28.82956" lon="105.321239"><ele>513.94</ele><time>2026-03-21T22:35:31.000Z</time></trkpt>
        <trkpt lat="28.8295672" lon="105.3213487"><ele>515.87</ele><time>2026-03-21T22:35:38.000Z</time></trkpt>
        <trkpt lat="28.8295631" lon="105.3213421"><ele>517.2</ele><time>2026-03-21T22:36:13.000Z</time></trkpt>
        <trkpt lat="28.8295631" lon="105.3213421"><ele>517.2</ele><time>2026-03-21T22:36:54.000Z</time></trkpt>
        <trkpt lat="28.8295631" lon="105.3213421"><ele>517.2</ele><time>2026-03-21T22:37:26.000Z</time></trkpt>
        <trkpt lat="28.8295631" lon="105.3213421"><ele>517.2</ele><time>2026-03-21T22:38:56.000Z</time></trkpt>
        <trkpt lat="28.8295878" lon="105.3211899"><ele>518.57</ele><time>2026-03-21T22:39:14.000Z</time></trkpt>
        <trkpt lat="28.8295878" lon="105.3211899"><ele>518.57</ele><time>2026-03-21T22:39:19.000Z</time></trkpt>
        <trkpt lat="28.8295807" lon="105.3211347"><ele>519.89</ele><time>2026-03-21T22:39:25.000Z</time></trkpt>
        <trkpt lat="28.8295807" lon="105.3211347"><ele>519.89</ele><time>2026-03-21T22:39:53.000Z</time></trkpt>
        <trkpt lat="28.8295807" lon="105.3211347"><ele>519.89</ele><time>2026-03-21T22:39:57.000Z</time></trkpt>
        <trkpt lat="28.8295807" lon="105.3211347"><ele>519.89</ele><time>2026-03-21T22:40:20.000Z</time></trkpt>
        <trkpt lat="28.8295807" lon="105.3211347"><ele>519.89</ele><time>2026-03-21T22:40:28.000Z</time></trkpt>
        <trkpt lat="28.8295807" lon="105.3211347"><ele>519.89</ele><time>2026-03-21T22:41:09.000Z</time></trkpt>
        <trkpt lat="28.8296019" lon="105.3210266"><ele>520.89</ele><time>2026-03-21T22:41:25.000Z</time></trkpt>
        <trkpt lat="28.8296019" lon="105.3210266"><ele>520.89</ele><time>2026-03-21T22:41:29.000Z</time></trkpt>
        <trkpt lat="28.8295863" lon="105.3209242"><ele>520.39</ele><time>2026-03-21T22:41:41.000Z</time></trkpt>
        <trkpt lat="28.8295378" lon="105.3208263"><ele>520.07</ele><time>2026-03-21T22:42:11.000Z</time></trkpt>
        <trkpt lat="28.8295156" lon="105.3206831"><ele>518.43</ele><time>2026-03-21T22:42:17.000Z</time></trkpt>
        <trkpt lat="28.8294943" lon="105.3205634"><ele>517.27</ele><time>2026-03-21T22:42:25.000Z</time></trkpt>
        <trkpt lat="28.8294889" lon="105.3204446"><ele>516.48</ele><time>2026-03-21T22:42:33.000Z</time></trkpt>
        <trkpt lat="28.8294665" lon="105.3203229"><ele>516.46</ele><time>2026-03-21T22:42:43.000Z</time></trkpt>
        <trkpt lat="28.8294814" lon="105.3202144"><ele>517.19</ele><time>2026-03-21T22:42:51.000Z</time></trkpt>
        <trkpt lat="28.8294408" lon="105.3201265"><ele>517.32</ele><time>2026-03-21T22:43:03.000Z</time></trkpt>
        <trkpt lat="28.829406" lon="105.3200334"><ele>517.94</ele><time>2026-03-21T22:43:23.000Z</time></trkpt>
        <trkpt lat="28.8293779" lon="105.3199367"><ele>521.58</ele><time>2026-03-21T22:43:45.000Z</time></trkpt>
        <trkpt lat="28.8293615" lon="105.3198331"><ele>524.25</ele><time>2026-03-21T22:43:59.000Z</time></trkpt>
        <trkpt lat="28.8293343" lon="105.319733"><ele>526.85</ele><time>2026-03-21T22:44:09.000Z</time></trkpt>
        <trkpt lat="28.8293248" lon="105.3196255"><ele>527.37</ele><time>2026-03-21T22:44:19.000Z</time></trkpt>
        <trkpt lat="28.8293281" lon="105.319506"><ele>528.13</ele><time>2026-03-21T22:44:29.000Z</time></trkpt>
        <trkpt lat="28.8293466" lon="105.3193956"><ele>529.32</ele><time>2026-03-21T22:44:41.000Z</time></trkpt>
        <trkpt lat="28.8293567" lon="105.3192867"><ele>530.46</ele><time>2026-03-21T22:44:53.000Z</time></trkpt>
        <trkpt lat="28.8293692" lon="105.3191809"><ele>531.45</ele><time>2026-03-21T22:45:11.000Z</time></trkpt>
        <trkpt lat="28.8293692" lon="105.3191809"><ele>531.45</ele><time>2026-03-21T22:45:42.000Z</time></trkpt>
        <trkpt lat="28.8293176" lon="105.3190457"><ele>533.24</ele><time>2026-03-21T22:47:29.000Z</time></trkpt>
        <trkpt lat="28.8293176" lon="105.3190457"><ele>533.24</ele><time>2026-03-21T22:47:39.000Z</time></trkpt>
        <trkpt lat="28.829271" lon="105.3189476"><ele>534.71</ele><time>2026-03-21T22:47:43.000Z</time></trkpt>
        <trkpt lat="28.829254" lon="105.3189057"><ele>534.21</ele><time>2026-03-21T22:47:47.000Z</time></trkpt>
        <trkpt lat="28.829228" lon="105.3188176"><ele>533.74</ele><time>2026-03-21T22:47:55.000Z</time></trkpt>
        <trkpt lat="28.8292053" lon="105.318668"><ele>532.81</ele><time>2026-03-21T22:47:59.000Z</time></trkpt>
        <trkpt lat="28.8291835" lon="105.3185315"><ele>531.29</ele><time>2026-03-21T22:48:07.000Z</time></trkpt>
        <trkpt lat="28.8291873" lon="105.3184156"><ele>531.08</ele><time>2026-03-21T22:48:17.000Z</time></trkpt>
        <trkpt lat="28.8291942" lon="105.3183034"><ele>531.42</ele><time>2026-03-21T22:48:41.000Z</time></trkpt>
        <trkpt lat="28.8291972" lon="105.3181889"><ele>533.86</ele><time>2026-03-21T22:48:57.000Z</time></trkpt>
        <trkpt lat="28.8292293" lon="105.3181478"><ele>537.45</ele><time>2026-03-21T22:49:09.000Z</time></trkpt>
        <trkpt lat="28.8292293" lon="105.3181478"><ele>537.45</ele><time>2026-03-21T22:49:16.000Z</time></trkpt>
        <trkpt lat="28.8292293" lon="105.3181478"><ele>537.45</ele><time>2026-03-21T22:49:27.000Z</time></trkpt>
        <trkpt lat="28.8292293" lon="105.3181478"><ele>537.45</ele><time>2026-03-21T22:49:56.000Z</time></trkpt>
        <trkpt lat="28.8292293" lon="105.3181478"><ele>537.45</ele><time>2026-03-21T22:49:57.000Z</time></trkpt>
        <trkpt lat="28.8292293" lon="105.3181478"><ele>537.45</ele><time>2026-03-21T22:50:08.000Z</time></trkpt>
        <trkpt lat="28.8292293" lon="105.3181478"><ele>537.45</ele><time>2026-03-21T22:50:13.000Z</time></trkpt>
        <trkpt lat="28.8292293" lon="105.3181478"><ele>537.45</ele><time>2026-03-21T22:50:48.000Z</time></trkpt>
        <trkpt lat="28.8292293" lon="105.3181478"><ele>537.45</ele><time>2026-03-21T22:51:05.000Z</time></trkpt>
        <trkpt lat="28.8292293" lon="105.3181478"><ele>537.45</ele><time>2026-03-21T22:51:18.000Z</time></trkpt>
        <trkpt lat="28.8292293" lon="105.3181478"><ele>537.45</ele><time>2026-03-21T22:51:19.000Z</time></trkpt>
        <trkpt lat="28.8292293" lon="105.3181478"><ele>537.45</ele><time>2026-03-21T22:51:48.000Z</time></trkpt>
        <trkpt lat="28.8292293" lon="105.3181478"><ele>537.45</ele><time>2026-03-21T22:52:11.000Z</time></trkpt>
        <trkpt lat="28.8292293" lon="105.3181478"><ele>537.45</ele><time>2026-03-21T22:53:22.000Z</time></trkpt>
        <trkpt lat="28.8292293" lon="105.3181478"><ele>537.45</ele><time>2026-03-21T22:53:27.000Z</time></trkpt>
        <trkpt lat="28.8292293" lon="105.3181478"><ele>537.45</ele><time>2026-03-21T22:53:38.000Z</time></trkpt>
        <trkpt lat="28.8292293" lon="105.3181478"><ele>537.45</ele><time>2026-03-21T22:53:55.000Z</time></trkpt>
        <trkpt lat="28.8292293" lon="105.3181478"><ele>537.45</ele><time>2026-03-21T22:54:20.000Z</time></trkpt>
        <trkpt lat="28.8292349" lon="105.318066"><ele>541.66</ele><time>2026-03-21T22:54:23.000Z</time></trkpt>
        <trkpt lat="28.8292349" lon="105.318066"><ele>541.66</ele><time>2026-03-21T22:54:27.000Z</time></trkpt>
        <trkpt lat="28.829232" lon="105.3179616"><ele>544.7</ele><time>2026-03-21T22:54:47.000Z</time></trkpt>
        <trkpt lat="28.8292103" lon="105.3178582"><ele>547.55</ele><time>2026-03-21T22:55:05.000Z</time></trkpt>
        <trkpt lat="28.8292103" lon="105.3178582"><ele>547.55</ele><time>2026-03-21T22:55:28.000Z</time></trkpt>
        <trkpt lat="28.8292103" lon="105.3178582"><ele>547.55</ele><time>2026-03-21T22:55:41.000Z</time></trkpt>
        <trkpt lat="28.8292103" lon="105.3178582"><ele>547.55</ele><time>2026-03-21T22:56:00.000Z</time></trkpt>
        <trkpt lat="28.8292103" lon="105.3178582"><ele>547.55</ele><time>2026-03-21T22:56:01.000Z</time></trkpt>
        <trkpt lat="28.8292103" lon="105.3178582"><ele>547.55</ele><time>2026-03-21T22:56:30.000Z</time></trkpt>
        <trkpt lat="28.8292103" lon="105.3178582"><ele>547.55</ele><time>2026-03-21T22:56:35.000Z</time></trkpt>
        <trkpt lat="28.8292103" lon="105.3178582"><ele>547.55</ele><time>2026-03-21T22:56:50.000Z</time></trkpt>
        <trkpt lat="28.8291748" lon="105.3177585"><ele>550.4</ele><time>2026-03-21T22:56:53.000Z</time></trkpt>
        <trkpt lat="28.8291748" lon="105.3177585"><ele>550.4</ele><time>2026-03-21T22:56:58.000Z</time></trkpt>
        <trkpt lat="28.8291465" lon="105.3176449"><ele>552.28</ele><time>2026-03-21T22:57:09.000Z</time></trkpt>
        <trkpt lat="28.8290938" lon="105.3175518"><ele>553.33</ele><time>2026-03-21T22:57:17.000Z</time></trkpt>
        <trkpt lat="28.8290383" lon="105.3174627"><ele>553.15</ele><time>2026-03-21T22:57:27.000Z</time></trkpt>
        <trkpt lat="28.8289971" lon="105.3173313"><ele>551.66</ele><time>2026-03-21T22:57:38.000Z</time></trkpt>
        <trkpt lat="28.8289969" lon="105.317217"><ele>551.26</ele><time>2026-03-21T22:57:46.000Z</time></trkpt>
        <trkpt lat="28.8290034" lon="105.3170947"><ele>551.59</ele><time>2026-03-21T22:57:55.000Z</time></trkpt>
        <trkpt lat="28.8289683" lon="105.3169815"><ele>551.99</ele><time>2026-03-21T22:58:06.000Z</time></trkpt>
        <trkpt lat="28.828914" lon="105.3168732"><ele>553.18</ele><time>2026-03-21T22:58:16.000Z</time></trkpt>
        <trkpt lat="28.8288688" lon="105.3167979"><ele>554.19</ele><time>2026-03-21T22:58:30.000Z</time></trkpt>
        <trkpt lat="28.8288863" lon="105.3167061"><ele>556.36</ele><time>2026-03-21T22:58:47.000Z</time></trkpt>
        <trkpt lat="28.8289001" lon="105.3165954"><ele>558.68</ele><time>2026-03-21T22:59:12.000Z</time></trkpt>
        <trkpt lat="28.8289264" lon="105.3164898"><ele>559.62</ele><time>2026-03-21T22:59:22.000Z</time></trkpt>
        <trkpt lat="28.8289703" lon="105.3163837"><ele>560.05</ele><time>2026-03-21T22:59:32.000Z</time></trkpt>
        <trkpt lat="28.8289662" lon="105.3163274"><ele>561.49</ele><time>2026-03-21T22:59:50.000Z</time></trkpt>
        <trkpt lat="28.8289662" lon="105.3163274"><ele>561.49</ele><time>2026-03-21T22:59:56.000Z</time></trkpt>
        <trkpt lat="28.8290123" lon="105.3162672"><ele>562.55</ele><time>2026-03-21T22:59:59.000Z</time></trkpt>
        <trkpt lat="28.8290123" lon="105.3162672"><ele>562.55</ele><time>2026-03-21T23:00:06.000Z</time></trkpt>
        <trkpt lat="28.8290202" lon="105.316176"><ele>563.68</ele><time>2026-03-21T23:00:14.000Z</time></trkpt>
        <trkpt lat="28.8289992" lon="105.3160659"><ele>565.08</ele><time>2026-03-21T23:00:20.000Z</time></trkpt>
        <trkpt lat="28.8289817" lon="105.3159547"><ele>567.93</ele><time>2026-03-21T23:00:30.000Z</time></trkpt>
        <trkpt lat="28.8289578" lon="105.315834"><ele>568.02</ele><time>2026-03-21T23:00:40.000Z</time></trkpt>
        <trkpt lat="28.8289781" lon="105.3157308"><ele>568.06</ele><time>2026-03-21T23:00:50.000Z</time></trkpt>
        <trkpt lat="28.8290096" lon="105.3156171"><ele>568.94</ele><time>2026-03-21T23:01:02.000Z</time></trkpt>
        <trkpt lat="28.8290409" lon="105.315513"><ele>569.54</ele><time>2026-03-21T23:01:10.000Z</time></trkpt>
        <trkpt lat="28.8290822" lon="105.3154153"><ele>569.34</ele><time>2026-03-21T23:01:18.000Z</time></trkpt>
        <trkpt lat="28.8291416" lon="105.3153284"><ele>569.5</ele><time>2026-03-21T23:01:26.000Z</time></trkpt>
        <trkpt lat="28.8291505" lon="105.31523"><ele>569.24</ele><time>2026-03-21T23:01:34.000Z</time></trkpt>
        <trkpt lat="28.8291417" lon="105.315196"><ele>569.55</ele><time>2026-03-21T23:01:36.000Z</time></trkpt>
        <trkpt lat="28.8291417" lon="105.315196"><ele>569.55</ele><time>2026-03-21T23:02:10.000Z</time></trkpt>
        <trkpt lat="28.8291637" lon="105.3151014"><ele>570.09</ele><time>2026-03-21T23:02:13.000Z</time></trkpt>
        <trkpt lat="28.8291637" lon="105.3151014"><ele>570.09</ele><time>2026-03-21T23:02:50.000Z</time></trkpt>
        <trkpt lat="28.8291224" lon="105.3150054"><ele>570.7</ele><time>2026-03-21T23:03:00.000Z</time></trkpt>
        <trkpt lat="28.8290919" lon="105.3149003"><ele>571.3</ele><time>2026-03-21T23:03:10.000Z</time></trkpt>
        <trkpt lat="28.8291419" lon="105.3148283"><ele>569.61</ele><time>2026-03-21T23:03:22.000Z</time></trkpt>
        <trkpt lat="28.8291982" lon="105.3147438"><ele>569.96</ele><time>2026-03-21T23:03:36.000Z</time></trkpt>
        <trkpt lat="28.8292177" lon="105.314646"><ele>569.3</ele><time>2026-03-21T23:03:44.000Z</time></trkpt>
        <trkpt lat="28.8292053" lon="105.3145377"><ele>568.85</ele><time>2026-03-21T23:03:52.000Z</time></trkpt>
        <trkpt lat="28.8291681" lon="105.3144321"><ele>567.36</ele><time>2026-03-21T23:04:00.000Z</time></trkpt>
        <trkpt lat="28.8291713" lon="105.3143818"><ele>566.84</ele><time>2026-03-21T23:04:04.000Z</time></trkpt>
        <trkpt lat="28.8291468" lon="105.3143004"><ele>567.17</ele><time>2026-03-21T23:04:26.000Z</time></trkpt>
        <trkpt lat="28.8291107" lon="105.3142014"><ele>568.66</ele><time>2026-03-21T23:04:40.000Z</time></trkpt>
        <trkpt lat="28.8291107" lon="105.3142014"><ele>568.66</ele><time>2026-03-21T23:05:06.000Z</time></trkpt>
        <trkpt lat="28.8291848" lon="105.3141853"><ele>568.32</ele><time>2026-03-21T23:05:11.000Z</time></trkpt>
        <trkpt lat="28.8291848" lon="105.3141853"><ele>568.32</ele><time>2026-03-21T23:05:28.000Z</time></trkpt>
        <trkpt lat="28.829205" lon="105.3141517"><ele>567.82</ele><time>2026-03-21T23:05:36.000Z</time></trkpt>
        <trkpt lat="28.829205" lon="105.3141517"><ele>567.82</ele><time>2026-03-21T23:05:44.000Z</time></trkpt>
        <trkpt lat="28.8291578" lon="105.3140939"><ele>567.25</ele><time>2026-03-21T23:05:55.000Z</time></trkpt>
        <trkpt lat="28.8291578" lon="105.3140939"><ele>567.25</ele><time>2026-03-21T23:06:36.000Z</time></trkpt>
        <trkpt lat="28.8291795" lon="105.3139992"><ele>567.51</ele><time>2026-03-21T23:06:46.000Z</time></trkpt>
        <trkpt lat="28.8292645" lon="105.3139311"><ele>567.75</ele><time>2026-03-21T23:06:54.000Z</time></trkpt>
        <trkpt lat="28.8293634" lon="105.3138823"><ele>568.71</ele><time>2026-03-21T23:07:06.000Z</time></trkpt>
        <trkpt lat="28.8294272" lon="105.3137983"><ele>568.76</ele><time>2026-03-21T23:07:16.000Z</time></trkpt>
        <trkpt lat="28.8294717" lon="105.3136932"><ele>569.57</ele><time>2026-03-21T23:07:28.000Z</time></trkpt>
        <trkpt lat="28.8295314" lon="105.3135972"><ele>570.03</ele><time>2026-03-21T23:07:40.000Z</time></trkpt>
        <trkpt lat="28.8295314" lon="105.3135972"><ele>570.03</ele><time>2026-03-21T23:08:08.000Z</time></trkpt>
        <trkpt lat="28.8295621" lon="105.3134862"><ele>571.9</ele><time>2026-03-21T23:08:11.000Z</time></trkpt>
        <trkpt lat="28.8295621" lon="105.3134862"><ele>571.9</ele><time>2026-03-21T23:08:16.000Z</time></trkpt>
        <trkpt lat="28.8296127" lon="105.3133876"><ele>574.03</ele><time>2026-03-21T23:08:32.000Z</time></trkpt>
        <trkpt lat="28.8296398" lon="105.3132816"><ele>576.17</ele><time>2026-03-21T23:08:44.000Z</time></trkpt>
        <trkpt lat="28.8296251" lon="105.3132396"><ele>577.71</ele><time>2026-03-21T23:08:48.000Z</time></trkpt>
        <trkpt lat="28.829545" lon="105.3132116"><ele>578.72</ele><time>2026-03-21T23:09:14.000Z</time></trkpt>
        <trkpt lat="28.8294942" lon="105.313136"><ele>580.09</ele><time>2026-03-21T23:09:24.000Z</time></trkpt>
        <trkpt lat="28.829455" lon="105.3130374"><ele>582.24</ele><time>2026-03-21T23:09:36.000Z</time></trkpt>
        <trkpt lat="28.8294025" lon="105.3129458"><ele>584.47</ele><time>2026-03-21T23:09:52.000Z</time></trkpt>
        <trkpt lat="28.8293394" lon="105.3128651"><ele>585.92</ele><time>2026-03-21T23:10:04.000Z</time></trkpt>
        <trkpt lat="28.8292791" lon="105.3127668"><ele>586.16</ele><time>2026-03-21T23:10:16.000Z</time></trkpt>
        <trkpt lat="28.82922" lon="105.3126667"><ele>585.52</ele><time>2026-03-21T23:10:24.000Z</time></trkpt>
        <trkpt lat="28.8291572" lon="105.3125646"><ele>585.08</ele><time>2026-03-21T23:10:34.000Z</time></trkpt>
        <trkpt lat="28.8291057" lon="105.3124521"><ele>585.55</ele><time>2026-03-21T23:10:44.000Z</time></trkpt>
        <trkpt lat="28.8290677" lon="105.3123477"><ele>586.51</ele><time>2026-03-21T23:10:54.000Z</time></trkpt>
        <trkpt lat="28.8289807" lon="105.3123068"><ele>586.66</ele><time>2026-03-21T23:11:36.000Z</time></trkpt>
        <trkpt lat="28.8288852" lon="105.3122714"><ele>587.25</ele><time>2026-03-21T23:11:46.000Z</time></trkpt>
        <trkpt lat="28.8287956" lon="105.3122349"><ele>587.93</ele><time>2026-03-21T23:11:54.000Z</time></trkpt>
        <trkpt lat="28.8287048" lon="105.3122083"><ele>588.58</ele><time>2026-03-21T23:12:02.000Z</time></trkpt>
        <trkpt lat="28.8286154" lon="105.3121741"><ele>589.51</ele><time>2026-03-21T23:12:10.000Z</time></trkpt>
        <trkpt lat="28.8285293" lon="105.3121392"><ele>590.97</ele><time>2026-03-21T23:12:18.000Z</time></trkpt>
        <trkpt lat="28.828454" lon="105.3120713"><ele>592.83</ele><time>2026-03-21T23:12:28.000Z</time></trkpt>
        <trkpt lat="28.828401" lon="105.3119732"><ele>593.65</ele><time>2026-03-21T23:12:38.000Z</time></trkpt>
        <trkpt lat="28.8283643" lon="105.3118517"><ele>594.44</ele><time>2026-03-21T23:12:48.000Z</time></trkpt>
        <trkpt lat="28.8283526" lon="105.3117236"><ele>594.96</ele><time>2026-03-21T23:12:58.000Z</time></trkpt>
        <trkpt lat="28.8284077" lon="105.3116234"><ele>595.03</ele><time>2026-03-21T23:13:10.000Z</time></trkpt>
        <trkpt lat="28.8284817" lon="105.3115406"><ele>593.04</ele><time>2026-03-21T23:13:20.000Z</time></trkpt>
        <trkpt lat="28.8285445" lon="105.3114686"><ele>591.47</ele><time>2026-03-21T23:13:33.000Z</time></trkpt>
        <trkpt lat="28.8285445" lon="105.3114686"><ele>591.47</ele><time>2026-03-21T23:13:54.000Z</time></trkpt>
        <trkpt lat="28.8286409" lon="105.3114564"><ele>590.19</ele><time>2026-03-21T23:14:07.000Z</time></trkpt>
        <trkpt lat="28.8286409" lon="105.3114564"><ele>590.19</ele><time>2026-03-21T23:14:26.000Z</time></trkpt>
        <trkpt lat="28.8286825" lon="105.31138"><ele>589.74</ele><time>2026-03-21T23:15:42.000Z</time></trkpt>
        <trkpt lat="28.8286452" lon="105.3114733"><ele>588.98</ele><time>2026-03-21T23:16:32.000Z</time></trkpt>
        <trkpt lat="28.8285818" lon="105.3114216"><ele>589.79</ele><time>2026-03-21T23:17:04.000Z</time></trkpt>
        <trkpt lat="28.8285036" lon="105.3113671"><ele>589.85</ele><time>2026-03-21T23:17:16.000Z</time></trkpt>
        <trkpt lat="28.8284123" lon="105.3113865"><ele>590.34</ele><time>2026-03-21T23:17:26.000Z</time></trkpt>
        <trkpt lat="28.8283272" lon="105.3114398"><ele>590.81</ele><time>2026-03-21T23:17:34.000Z</time></trkpt>
        <trkpt lat="28.8282361" lon="105.3114571"><ele>590.87</ele><time>2026-03-21T23:17:42.000Z</time></trkpt>
        <trkpt lat="28.8281393" lon="105.311461"><ele>590.84</ele><time>2026-03-21T23:17:52.000Z</time></trkpt>
        <trkpt lat="28.8280473" lon="105.3114459"><ele>592.35</ele><time>2026-03-21T23:18:00.000Z</time></trkpt>
        <trkpt lat="28.8279666" lon="105.3114345"><ele>592.61</ele><time>2026-03-21T23:18:08.000Z</time></trkpt>
        <trkpt lat="28.8279666" lon="105.3114345"><ele>592.61</ele><time>2026-03-21T23:18:17.000Z</time></trkpt>
        <trkpt lat="28.8278795" lon="105.3113884"><ele>592.62</ele><time>2026-03-21T23:18:22.000Z</time></trkpt>
        <trkpt lat="28.8278795" lon="105.3113884"><ele>592.62</ele><time>2026-03-21T23:18:36.000Z</time></trkpt>
        <trkpt lat="28.8278047" lon="105.311308"><ele>593.23</ele><time>2026-03-21T23:18:46.000Z</time></trkpt>
        <trkpt lat="28.827737" lon="105.3112234"><ele>593.84</ele><time>2026-03-21T23:18:54.000Z</time></trkpt>
        <trkpt lat="28.8276817" lon="105.3111162"><ele>593.17</ele><time>2026-03-21T23:19:04.000Z</time></trkpt>
        <trkpt lat="28.8276212" lon="105.3110279"><ele>592.43</ele><time>2026-03-21T23:19:12.000Z</time></trkpt>
        <trkpt lat="28.8275559" lon="105.3109428"><ele>591.09</ele><time>2026-03-21T23:19:20.000Z</time></trkpt>
        <trkpt lat="28.8274903" lon="105.3108515"><ele>589.62</ele><time>2026-03-21T23:19:30.000Z</time></trkpt>
        <trkpt lat="28.8274067" lon="105.3108539"><ele>588.09</ele><time>2026-03-21T23:19:46.000Z</time></trkpt>
        <trkpt lat="28.8273145" lon="105.3108908"><ele>585.99</ele><time>2026-03-21T23:20:02.000Z</time></trkpt>
        <trkpt lat="28.8272906" lon="105.3109027"><ele>586.58</ele><time>2026-03-21T23:20:06.000Z</time></trkpt>
        <trkpt lat="28.8272204" lon="105.3109239"><ele>586.12</ele><time>2026-03-21T23:20:26.000Z</time></trkpt>
        <trkpt lat="28.8271314" lon="105.3109238"><ele>587.8</ele><time>2026-03-21T23:20:36.000Z</time></trkpt>
        <trkpt lat="28.8270385" lon="105.3109024"><ele>589.07</ele><time>2026-03-21T23:20:46.000Z</time></trkpt>
        <trkpt lat="28.8269342" lon="105.3108922"><ele>587.44</ele><time>2026-03-21T23:21:00.000Z</time></trkpt>
        <trkpt lat="28.8268252" lon="105.3108963"><ele>582.95</ele><time>2026-03-21T23:21:10.000Z</time></trkpt>
        <trkpt lat="28.8267278" lon="105.3109053"><ele>580.35</ele><time>2026-03-21T23:21:20.000Z</time></trkpt>
        <trkpt lat="28.8266195" lon="105.3109181"><ele>580.15</ele><time>2026-03-21T23:21:30.000Z</time></trkpt>
        <trkpt lat="28.8265112" lon="105.3109517"><ele>577.49</ele><time>2026-03-21T23:21:40.000Z</time></trkpt>
        <trkpt lat="28.8264078" lon="105.3109952"><ele>575.79</ele><time>2026-03-21T23:21:50.000Z</time></trkpt>
        <trkpt lat="28.8263099" lon="105.3110215"><ele>575.92</ele><time>2026-03-21T23:22:02.000Z</time></trkpt>
        <trkpt lat="28.8262282" lon="105.3110927"><ele>574.34</ele><time>2026-03-21T23:22:20.000Z</time></trkpt>
        <trkpt lat="28.8261551" lon="105.3111251"><ele>573.48</ele><time>2026-03-21T23:22:34.000Z</time></trkpt>
        <trkpt lat="28.8260812" lon="105.3111711"><ele>572.24</ele><time>2026-03-21T23:23:20.000Z</time></trkpt>
        <trkpt lat="28.8260905" lon="105.3111075"><ele>569.83</ele><time>2026-03-21T23:23:54.000Z</time></trkpt>
        <trkpt lat="28.826062" lon="105.310989"><ele>567.03</ele><time>2026-03-21T23:25:02.000Z</time></trkpt>
        <trkpt lat="28.8261338" lon="105.3109038"><ele>564.68</ele><time>2026-03-21T23:25:28.000Z</time></trkpt>
        <trkpt lat="28.8261449" lon="105.3108664"><ele>559.98</ele><time>2026-03-21T23:25:34.000Z</time></trkpt>
        <trkpt lat="28.8260944" lon="105.3108051"><ele>555.28</ele><time>2026-03-21T23:26:20.000Z</time></trkpt>
        <trkpt lat="28.8260236" lon="105.3107348"><ele>552.4</ele><time>2026-03-21T23:26:34.000Z</time></trkpt>
        <trkpt lat="28.8260894" lon="105.3107782"><ele>549</ele><time>2026-03-21T23:27:50.000Z</time></trkpt>
        <trkpt lat="28.8261398" lon="105.3108705"><ele>551.7</ele><time>2026-03-21T23:28:16.000Z</time></trkpt>
        <trkpt lat="28.8260726" lon="105.31092"><ele>555.55</ele><time>2026-03-21T23:28:34.000Z</time></trkpt>
        <trkpt lat="28.8260726" lon="105.31092"><ele>555.55</ele><time>2026-03-21T23:33:15.000Z</time></trkpt>
        <trkpt lat="28.8260726" lon="105.31092"><ele>555.55</ele><time>2026-03-21T23:33:20.000Z</time></trkpt>
        <trkpt lat="28.8260726" lon="105.31092"><ele>555.55</ele><time>2026-03-21T23:33:35.000Z</time></trkpt>
        <trkpt lat="28.8260726" lon="105.31092"><ele>555.55</ele><time>2026-03-21T23:33:48.000Z</time></trkpt>
        <trkpt lat="28.8260726" lon="105.31092"><ele>555.55</ele><time>2026-03-21T23:35:37.000Z</time></trkpt>
        <trkpt lat="28.8261414" lon="105.3109189"><ele>557.1</ele><time>2026-03-21T23:35:39.000Z</time></trkpt>
        <trkpt lat="28.8261414" lon="105.3109189"><ele>557.1</ele><time>2026-03-21T23:37:13.000Z</time></trkpt>
        <trkpt lat="28.8261414" lon="105.3109189"><ele>557.1</ele><time>2026-03-21T23:37:55.000Z</time></trkpt>
        <trkpt lat="28.8261414" lon="105.3109189"><ele>557.1</ele><time>2026-03-21T23:39:04.000Z</time></trkpt>
        <trkpt lat="28.8261414" lon="105.3109189"><ele>557.1</ele><time>2026-03-21T23:39:19.000Z</time></trkpt>
        <trkpt lat="28.8261414" lon="105.3109189"><ele>557.1</ele><time>2026-03-21T23:39:45.000Z</time></trkpt>
        <trkpt lat="28.8261414" lon="105.3109189"><ele>557.1</ele><time>2026-03-21T23:40:09.000Z</time></trkpt>
        <trkpt lat="28.8261414" lon="105.3109189"><ele>557.1</ele><time>2026-03-21T23:40:22.000Z</time></trkpt>
        <trkpt lat="28.8261414" lon="105.3109189"><ele>557.1</ele><time>2026-03-21T23:40:43.000Z</time></trkpt>
        <trkpt lat="28.8261414" lon="105.3109189"><ele>557.1</ele><time>2026-03-21T23:40:55.000Z</time></trkpt>
        <trkpt lat="28.8261414" lon="105.3109189"><ele>557.1</ele><time>2026-03-21T23:41:06.000Z</time></trkpt>
        <trkpt lat="28.8261376" lon="105.3108734"><ele>556.86</ele><time>2026-03-21T23:43:07.000Z</time></trkpt>
        <trkpt lat="28.8261376" lon="105.3108734"><ele>556.86</ele><time>2026-03-21T23:43:32.000Z</time></trkpt>
        <trkpt lat="28.8261731" lon="105.3108306"><ele>558.27</ele><time>2026-03-21T23:43:39.000Z</time></trkpt>
        <trkpt lat="28.8261039" lon="105.3108428"><ele>558.49</ele><time>2026-03-21T23:44:01.000Z</time></trkpt>
        <trkpt lat="28.8260394" lon="105.310777"><ele>557.76</ele><time>2026-03-21T23:44:12.000Z</time></trkpt>
        <trkpt lat="28.826001" lon="105.3106648"><ele>556.4</ele><time>2026-03-21T23:44:23.000Z</time></trkpt>
        <trkpt lat="28.825966" lon="105.3105483"><ele>553.67</ele><time>2026-03-21T23:44:31.000Z</time></trkpt>
        <trkpt lat="28.8259326" lon="105.310438"><ele>550.42</ele><time>2026-03-21T23:44:41.000Z</time></trkpt>
        <trkpt lat="28.8259383" lon="105.3104306"><ele>548.19</ele><time>2026-03-21T23:44:43.000Z</time></trkpt>
        <trkpt lat="28.8259135" lon="105.3103696"><ele>546.36</ele><time>2026-03-21T23:44:51.000Z</time></trkpt>
        <trkpt lat="28.8258617" lon="105.3102849"><ele>545.13</ele><time>2026-03-21T23:44:59.000Z</time></trkpt>
        <trkpt lat="28.8258398" lon="105.3102705"><ele>543.2</ele><time>2026-03-21T23:45:07.000Z</time></trkpt>
        <trkpt lat="28.8258328" lon="105.3103544"><ele>542.02</ele><time>2026-03-21T23:45:39.000Z</time></trkpt>
        <trkpt lat="28.8258378" lon="105.3104673"><ele>540.59</ele><time>2026-03-21T23:45:57.000Z</time></trkpt>
        <trkpt lat="28.8257983" lon="105.31044"><ele>538.62</ele><time>2026-03-21T23:46:47.000Z</time></trkpt>
        <trkpt lat="28.825764" lon="105.3104966"><ele>534.07</ele><time>2026-03-21T23:47:05.000Z</time></trkpt>
        <trkpt lat="28.8257104" lon="105.3105776"><ele>530.01</ele><time>2026-03-21T23:47:27.000Z</time></trkpt>
        <trkpt lat="28.8256281" lon="105.3105608"><ele>527.25</ele><time>2026-03-21T23:47:47.000Z</time></trkpt>
        <trkpt lat="28.8255386" lon="105.31052"><ele>525.03</ele><time>2026-03-21T23:48:05.000Z</time></trkpt>
        <trkpt lat="28.8254594" lon="105.3104689"><ele>521.17</ele><time>2026-03-21T23:48:17.000Z</time></trkpt>
        <trkpt lat="28.8254594" lon="105.3104689"><ele>521.17</ele><time>2026-03-21T23:48:48.000Z</time></trkpt>
        <trkpt lat="28.8254361" lon="105.3105428"><ele>519.11</ele><time>2026-03-21T23:49:01.000Z</time></trkpt>
        <trkpt lat="28.8254361" lon="105.3105428"><ele>519.11</ele><time>2026-03-21T23:49:17.000Z</time></trkpt>
        <trkpt lat="28.8254872" lon="105.3106399"><ele>515.1</ele><time>2026-03-21T23:49:27.000Z</time></trkpt>
        <trkpt lat="28.8254957" lon="105.3107534"><ele>513.08</ele><time>2026-03-21T23:49:37.000Z</time></trkpt>
        <trkpt lat="28.8254521" lon="105.3108633"><ele>511.98</ele><time>2026-03-21T23:49:53.000Z</time></trkpt>
        <trkpt lat="28.8254067" lon="105.3109785"><ele>512.27</ele><time>2026-03-21T23:50:05.000Z</time></trkpt>
        <trkpt lat="28.825392" lon="105.3110869"><ele>512.23</ele><time>2026-03-21T23:50:15.000Z</time></trkpt>
        <trkpt lat="28.8253909" lon="105.3111676"><ele>511.76</ele><time>2026-03-21T23:50:23.000Z</time></trkpt>
        <trkpt lat="28.8253606" lon="105.3112597"><ele>512.69</ele><time>2026-03-21T23:50:39.000Z</time></trkpt>
        <trkpt lat="28.8253251" lon="105.3113642"><ele>512.08</ele><time>2026-03-21T23:50:47.000Z</time></trkpt>
        <trkpt lat="28.8252726" lon="105.3114653"><ele>511.39</ele><time>2026-03-21T23:50:55.000Z</time></trkpt>
        <trkpt lat="28.8252159" lon="105.3115594"><ele>510.99</ele><time>2026-03-21T23:51:03.000Z</time></trkpt>
        <trkpt lat="28.8251588" lon="105.3116475"><ele>510.15</ele><time>2026-03-21T23:51:13.000Z</time></trkpt>
        <trkpt lat="28.8251588" lon="105.3116475"><ele>510.15</ele><time>2026-03-21T23:52:34.000Z</time></trkpt>
        <trkpt lat="28.8251588" lon="105.3116475"><ele>510.15</ele><time>2026-03-21T23:52:43.000Z</time></trkpt>
        <trkpt lat="28.8251588" lon="105.3116475"><ele>510.15</ele><time>2026-03-21T23:53:38.000Z</time></trkpt>
        <trkpt lat="28.8251588" lon="105.3116475"><ele>510.15</ele><time>2026-03-21T23:53:43.000Z</time></trkpt>
        <trkpt lat="28.8251588" lon="105.3116475"><ele>510.15</ele><time>2026-03-21T23:54:48.000Z</time></trkpt>
        <trkpt lat="28.8251905" lon="105.3117412"><ele>509.73</ele><time>2026-03-21T23:55:17.000Z</time></trkpt>
        <trkpt lat="28.8251905" lon="105.3117412"><ele>509.73</ele><time>2026-03-21T23:55:19.000Z</time></trkpt>
        <trkpt lat="28.8252568" lon="105.3118128"><ele>508.22</ele><time>2026-03-21T23:55:29.000Z</time></trkpt>
        <trkpt lat="28.8253456" lon="105.3118273"><ele>507</ele><time>2026-03-21T23:55:39.000Z</time></trkpt>
        <trkpt lat="28.8254268" lon="105.3118801"><ele>503.66</ele><time>2026-03-21T23:55:47.000Z</time></trkpt>
        <trkpt lat="28.8254731" lon="105.3119852"><ele>501.56</ele><time>2026-03-21T23:55:57.000Z</time></trkpt>
        <trkpt lat="28.8255095" lon="105.3120889"><ele>499.57</ele><time>2026-03-21T23:56:07.000Z</time></trkpt>
        <trkpt lat="28.8255693" lon="105.3121719"><ele>498.32</ele><time>2026-03-21T23:56:17.000Z</time></trkpt>
        <trkpt lat="28.8255392" lon="105.3121347"><ele>497.52</ele><time>2026-03-21T23:57:07.000Z</time></trkpt>
        <trkpt lat="28.8254491" lon="105.3121352"><ele>497.31</ele><time>2026-03-21T23:57:20.000Z</time></trkpt>
        <trkpt lat="28.8254546" lon="105.3120846"><ele>498.46</ele><time>2026-03-21T23:57:27.000Z</time></trkpt>
        <trkpt lat="28.8254546" lon="105.3120846"><ele>498.46</ele><time>2026-03-21T23:57:37.000Z</time></trkpt>
        <trkpt lat="28.8254546" lon="105.3120846"><ele>498.46</ele><time>2026-03-21T23:57:58.000Z</time></trkpt>
        <trkpt lat="28.8254546" lon="105.3120846"><ele>498.46</ele><time>2026-03-21T23:58:21.000Z</time></trkpt>
        <trkpt lat="28.8255421" lon="105.3121774"><ele>499.66</ele><time>2026-03-21T23:58:49.000Z</time></trkpt>
        <trkpt lat="28.8255421" lon="105.3121774"><ele>499.66</ele><time>2026-03-21T23:59:11.000Z</time></trkpt>
        <trkpt lat="28.8255699" lon="105.3121979"><ele>500.53</ele><time>2026-03-21T23:59:16.000Z</time></trkpt>
        <trkpt lat="28.8255699" lon="105.3121979"><ele>500.53</ele><time>2026-03-21T23:59:38.000Z</time></trkpt>
        <trkpt lat="28.8256444" lon="105.3122522"><ele>500.52</ele><time>2026-03-21T23:59:48.000Z</time></trkpt>
        <trkpt lat="28.8256444" lon="105.3122522"><ele>500.52</ele><time>2026-03-21T23:59:49.000Z</time></trkpt>
        <trkpt lat="28.8256641" lon="105.3122686"><ele>499.26</ele><time>2026-03-21T23:59:51.000Z</time></trkpt>
        <trkpt lat="28.8256641" lon="105.3122686"><ele>499.26</ele><time>2026-03-22T00:00:09.000Z</time></trkpt>
        <trkpt lat="28.8257443" lon="105.3122732"><ele>498.38</ele><time>2026-03-22T00:00:25.000Z</time></trkpt>
        <trkpt lat="28.8257443" lon="105.3122732"><ele>498.38</ele><time>2026-03-22T00:00:25.000Z</time></trkpt>
        <trkpt lat="28.8258042" lon="105.3123118"><ele>496.13</ele><time>2026-03-22T00:00:33.000Z</time></trkpt>
        <trkpt lat="28.8258042" lon="105.3123118"><ele>496.13</ele><time>2026-03-22T00:01:42.000Z</time></trkpt>
        <trkpt lat="28.8258042" lon="105.3123118"><ele>496.13</ele><time>2026-03-22T00:02:09.000Z</time></trkpt>
        <trkpt lat="28.8258042" lon="105.3123118"><ele>496.13</ele><time>2026-03-22T00:02:20.000Z</time></trkpt>
        <trkpt lat="28.8258042" lon="105.3123118"><ele>496.13</ele><time>2026-03-22T00:02:33.000Z</time></trkpt>
        <trkpt lat="28.8258042" lon="105.3123118"><ele>496.13</ele><time>2026-03-22T00:02:54.000Z</time></trkpt>
        <trkpt lat="28.8258626" lon="105.3124048"><ele>495.37</ele><time>2026-03-22T00:03:03.000Z</time></trkpt>
        <trkpt lat="28.8258626" lon="105.3124048"><ele>495.37</ele><time>2026-03-22T00:03:29.000Z</time></trkpt>
        <trkpt lat="28.825878" lon="105.3125068"><ele>496.12</ele><time>2026-03-22T00:03:37.000Z</time></trkpt>
        <trkpt lat="28.8258822" lon="105.3125395"><ele>496.96</ele><time>2026-03-22T00:03:41.000Z</time></trkpt>
        <trkpt lat="28.8258779" lon="105.3126365"><ele>498</ele><time>2026-03-22T00:04:23.000Z</time></trkpt>
        <trkpt lat="28.8258758" lon="105.3127556"><ele>500.49</ele><time>2026-03-22T00:04:33.000Z</time></trkpt>
        <trkpt lat="28.8258579" lon="105.3128708"><ele>501.87</ele><time>2026-03-22T00:04:41.000Z</time></trkpt>
        <trkpt lat="28.8257981" lon="105.3129741"><ele>502.3</ele><time>2026-03-22T00:04:49.000Z</time></trkpt>
        <trkpt lat="28.8257059" lon="105.3130272"><ele>501.99</ele><time>2026-03-22T00:04:55.000Z</time></trkpt>
        <trkpt lat="28.8256025" lon="105.3130551"><ele>501.35</ele><time>2026-03-22T00:05:03.000Z</time></trkpt>
        <trkpt lat="28.8255306" lon="105.3131223"><ele>500.62</ele><time>2026-03-22T00:05:11.000Z</time></trkpt>
        <trkpt lat="28.8254484" lon="105.3132039"><ele>499.44</ele><time>2026-03-22T00:05:21.000Z</time></trkpt>
        <trkpt lat="28.8253899" lon="105.3132546"><ele>498.35</ele><time>2026-03-22T00:05:29.000Z</time></trkpt>
        <trkpt lat="28.8253568" lon="105.3133509"><ele>497.91</ele><time>2026-03-22T00:05:45.000Z</time></trkpt>
        <trkpt lat="28.8253798" lon="105.3132947"><ele>497.29</ele><time>2026-03-22T00:06:13.000Z</time></trkpt>
        <trkpt lat="28.8253805" lon="105.31324"><ele>495.83</ele><time>2026-03-22T00:06:15.000Z</time></trkpt>
        <trkpt lat="28.8253805" lon="105.31324"><ele>495.83</ele><time>2026-03-22T00:06:30.000Z</time></trkpt>
        <trkpt lat="28.8253805" lon="105.31324"><ele>495.83</ele><time>2026-03-22T00:06:33.000Z</time></trkpt>
        <trkpt lat="28.8253805" lon="105.31324"><ele>495.83</ele><time>2026-03-22T00:08:18.000Z</time></trkpt>
        <trkpt lat="28.8253805" lon="105.31324"><ele>495.83</ele><time>2026-03-22T00:08:25.000Z</time></trkpt>
        <trkpt lat="28.8253805" lon="105.31324"><ele>495.83</ele><time>2026-03-22T00:08:42.000Z</time></trkpt>
        <trkpt lat="28.8253504" lon="105.3133325"><ele>495.17</ele><time>2026-03-22T00:08:47.000Z</time></trkpt>
        <trkpt lat="28.8253504" lon="105.3133325"><ele>495.17</ele><time>2026-03-22T00:08:57.000Z</time></trkpt>
        <trkpt lat="28.825312" lon="105.3134166"><ele>496.97</ele><time>2026-03-22T00:09:05.000Z</time></trkpt>
        <trkpt lat="28.8252232" lon="105.3133975"><ele>497.46</ele><time>2026-03-22T00:09:41.000Z</time></trkpt>
        <trkpt lat="28.8251591" lon="105.3134678"><ele>497.93</ele><time>2026-03-22T00:09:53.000Z</time></trkpt>
        <trkpt lat="28.8251338" lon="105.3135741"><ele>498</ele><time>2026-03-22T00:10:05.000Z</time></trkpt>
        <trkpt lat="28.8251074" lon="105.3136806"><ele>497.64</ele><time>2026-03-22T00:10:19.000Z</time></trkpt>
        <trkpt lat="28.8251248" lon="105.3137226"><ele>497.86</ele><time>2026-03-22T00:10:25.000Z</time></trkpt>
        <trkpt lat="28.8251248" lon="105.3137226"><ele>497.86</ele><time>2026-03-22T00:10:34.000Z</time></trkpt>
        <trkpt lat="28.8250784" lon="105.313774"><ele>496.6</ele><time>2026-03-22T00:10:39.000Z</time></trkpt>
        <trkpt lat="28.8250784" lon="105.313774"><ele>496.6</ele><time>2026-03-22T00:10:49.000Z</time></trkpt>
        <trkpt lat="28.8250814" lon="105.313873"><ele>493.75</ele><time>2026-03-22T00:10:57.000Z</time></trkpt>
        <trkpt lat="28.8250846" lon="105.3139954"><ele>492.95</ele><time>2026-03-22T00:11:07.000Z</time></trkpt>
        <trkpt lat="28.8250924" lon="105.3141135"><ele>492.01</ele><time>2026-03-22T00:11:19.000Z</time></trkpt>
        <trkpt lat="28.8251694" lon="105.314186"><ele>491.56</ele><time>2026-03-22T00:11:31.000Z</time></trkpt>
        <trkpt lat="28.8251152" lon="105.3141861"><ele>491.15</ele><time>2026-03-22T00:11:43.000Z</time></trkpt>
        <trkpt lat="28.8250895" lon="105.3141766"><ele>491.43</ele><time>2026-03-22T00:11:45.000Z</time></trkpt>
        <trkpt lat="28.8250877" lon="105.3142504"><ele>491.59</ele><time>2026-03-22T00:12:05.000Z</time></trkpt>
        <trkpt lat="28.8250877" lon="105.3142504"><ele>491.59</ele><time>2026-03-22T00:12:54.000Z</time></trkpt>
        <trkpt lat="28.8250877" lon="105.3142504"><ele>491.59</ele><time>2026-03-22T00:13:07.000Z</time></trkpt>
        <trkpt lat="28.8250877" lon="105.3142504"><ele>491.59</ele><time>2026-03-22T00:13:22.000Z</time></trkpt>
        <trkpt lat="28.8250877" lon="105.3142504"><ele>491.59</ele><time>2026-03-22T00:13:29.000Z</time></trkpt>
        <trkpt lat="28.8250877" lon="105.3142504"><ele>491.59</ele><time>2026-03-22T00:13:38.000Z</time></trkpt>
        <trkpt lat="28.8250877" lon="105.3142504"><ele>491.59</ele><time>2026-03-22T00:13:43.000Z</time></trkpt>
        <trkpt lat="28.8250877" lon="105.3142504"><ele>491.59</ele><time>2026-03-22T00:14:04.000Z</time></trkpt>
        <trkpt lat="28.8250877" lon="105.3142504"><ele>491.59</ele><time>2026-03-22T00:14:17.000Z</time></trkpt>
        <trkpt lat="28.8250877" lon="105.3142504"><ele>491.59</ele><time>2026-03-22T00:14:28.000Z</time></trkpt>
        <trkpt lat="28.8250877" lon="105.3142504"><ele>491.59</ele><time>2026-03-22T00:14:29.000Z</time></trkpt>
        <trkpt lat="28.8250877" lon="105.3142504"><ele>491.59</ele><time>2026-03-22T00:15:00.000Z</time></trkpt>
        <trkpt lat="28.8250877" lon="105.3142504"><ele>491.59</ele><time>2026-03-22T00:15:23.000Z</time></trkpt>
        <trkpt lat="28.8250877" lon="105.3142504"><ele>491.59</ele><time>2026-03-22T00:15:38.000Z</time></trkpt>
        <trkpt lat="28.8250877" lon="105.3142504"><ele>491.59</ele><time>2026-03-22T00:15:47.000Z</time></trkpt>
        <trkpt lat="28.8250877" lon="105.3142504"><ele>491.59</ele><time>2026-03-22T00:16:02.000Z</time></trkpt>
        <trkpt lat="28.8250877" lon="105.3142504"><ele>491.59</ele><time>2026-03-22T00:16:23.000Z</time></trkpt>
        <trkpt lat="28.8250877" lon="105.3142504"><ele>491.59</ele><time>2026-03-22T00:16:34.000Z</time></trkpt>
        <trkpt lat="28.8250877" lon="105.3142504"><ele>491.59</ele><time>2026-03-22T00:17:13.000Z</time></trkpt>
        <trkpt lat="28.8250877" lon="105.3142504"><ele>491.59</ele><time>2026-03-22T00:17:28.000Z</time></trkpt>
        <trkpt lat="28.8250877" lon="105.3142504"><ele>491.59</ele><time>2026-03-22T00:17:53.000Z</time></trkpt>
        <trkpt lat="28.8250877" lon="105.3142504"><ele>491.59</ele><time>2026-03-22T00:18:36.000Z</time></trkpt>
        <trkpt lat="28.8250877" lon="105.3142504"><ele>491.59</ele><time>2026-03-22T00:18:41.000Z</time></trkpt>
        <trkpt lat="28.8250877" lon="105.3142504"><ele>491.59</ele><time>2026-03-22T00:19:04.000Z</time></trkpt>
        <trkpt lat="28.8250877" lon="105.3142504"><ele>491.59</ele><time>2026-03-22T00:19:11.000Z</time></trkpt>
        <trkpt lat="28.8250877" lon="105.3142504"><ele>491.59</ele><time>2026-03-22T00:19:22.000Z</time></trkpt>
        <trkpt lat="28.8250877" lon="105.3142504"><ele>491.59</ele><time>2026-03-22T00:19:27.000Z</time></trkpt>
        <trkpt lat="28.8250877" lon="105.3142504"><ele>491.59</ele><time>2026-03-22T00:19:38.000Z</time></trkpt>
        <trkpt lat="28.825077" lon="105.3141613"><ele>491.51</ele><time>2026-03-22T00:19:43.000Z</time></trkpt>
        <trkpt lat="28.825077" lon="105.3141613"><ele>491.51</ele><time>2026-03-22T00:19:51.000Z</time></trkpt>
        <trkpt lat="28.8251003" lon="105.3140543"><ele>491.29</ele><time>2026-03-22T00:19:59.000Z</time></trkpt>
        <trkpt lat="28.8251301" lon="105.3139505"><ele>492.28</ele><time>2026-03-22T00:20:07.000Z</time></trkpt>
        <trkpt lat="28.8251975" lon="105.3138876"><ele>492.4</ele><time>2026-03-22T00:20:17.000Z</time></trkpt>
        <trkpt lat="28.8251836" lon="105.3138828"><ele>492.68</ele><time>2026-03-22T00:20:23.000Z</time></trkpt>
        <trkpt lat="28.8251836" lon="105.3138828"><ele>492.68</ele><time>2026-03-22T00:20:48.000Z</time></trkpt>
        <trkpt lat="28.8251836" lon="105.3138828"><ele>492.68</ele><time>2026-03-22T00:20:53.000Z</time></trkpt>
        <trkpt lat="28.8251836" lon="105.3138828"><ele>492.68</ele><time>2026-03-22T00:21:02.000Z</time></trkpt>
        <trkpt lat="28.8251836" lon="105.3138828"><ele>492.68</ele><time>2026-03-22T00:21:05.000Z</time></trkpt>
        <trkpt lat="28.8251836" lon="105.3138828"><ele>492.68</ele><time>2026-03-22T00:21:18.000Z</time></trkpt>
        <trkpt lat="28.8251836" lon="105.3138828"><ele>492.68</ele><time>2026-03-22T00:21:39.000Z</time></trkpt>
        <trkpt lat="28.8251836" lon="105.3138828"><ele>492.68</ele><time>2026-03-22T00:22:48.000Z</time></trkpt>
        <trkpt lat="28.8252206" lon="105.3138058"><ele>492.41</ele><time>2026-03-22T00:22:53.000Z</time></trkpt>
        <trkpt lat="28.8252206" lon="105.3138058"><ele>492.41</ele><time>2026-03-22T00:23:31.000Z</time></trkpt>
        <trkpt lat="28.8252206" lon="105.3138058"><ele>492.41</ele><time>2026-03-22T00:23:59.000Z</time></trkpt>
        <trkpt lat="28.8252059" lon="105.3139086"><ele>495.07</ele><time>2026-03-22T00:24:09.000Z</time></trkpt>
        <trkpt lat="28.8252059" lon="105.3139086"><ele>495.07</ele><time>2026-03-22T00:24:16.000Z</time></trkpt>
        <trkpt lat="28.8252059" lon="105.3139086"><ele>495.07</ele><time>2026-03-22T00:24:42.000Z</time></trkpt>
        <trkpt lat="28.8252059" lon="105.3139086"><ele>495.07</ele><time>2026-03-22T00:24:54.000Z</time></trkpt>
        <trkpt lat="28.8252059" lon="105.3139086"><ele>495.07</ele><time>2026-03-22T00:25:14.000Z</time></trkpt>
        <trkpt lat="28.8252059" lon="105.3139086"><ele>495.07</ele><time>2026-03-22T00:25:34.000Z</time></trkpt>
        <trkpt lat="28.8252059" lon="105.3139086"><ele>495.07</ele><time>2026-03-22T00:25:46.000Z</time></trkpt>
        <trkpt lat="28.8252302" lon="105.3138017"><ele>496.41</ele><time>2026-03-22T00:25:53.000Z</time></trkpt>
        <trkpt lat="28.8252302" lon="105.3138017"><ele>496.41</ele><time>2026-03-22T00:26:29.000Z</time></trkpt>
        <trkpt lat="28.8251663" lon="105.3138991"><ele>498.8</ele><time>2026-03-22T00:26:51.000Z</time></trkpt>
        <trkpt lat="28.8251006" lon="105.3139854"><ele>500.36</ele><time>2026-03-22T00:26:59.000Z</time></trkpt>
        <trkpt lat="28.8250785" lon="105.3140951"><ele>499.92</ele><time>2026-03-22T00:27:09.000Z</time></trkpt>
        <trkpt lat="28.8250777" lon="105.3142157"><ele>498.62</ele><time>2026-03-22T00:27:21.000Z</time></trkpt>
        <trkpt lat="28.8251489" lon="105.3143135"><ele>496.91</ele><time>2026-03-22T00:27:32.000Z</time></trkpt>
        <trkpt lat="28.825247" lon="105.3143561"><ele>495.43</ele><time>2026-03-22T00:27:39.000Z</time></trkpt>
        <trkpt lat="28.8253555" lon="105.3143595"><ele>494.28</ele><time>2026-03-22T00:27:47.000Z</time></trkpt>
        <trkpt lat="28.8253762" lon="105.3143416"><ele>494.2</ele><time>2026-03-22T00:27:49.000Z</time></trkpt>
        <trkpt lat="28.8254499" lon="105.3143599"><ele>494.27</ele><time>2026-03-22T00:28:27.000Z</time></trkpt>
        <trkpt lat="28.8255119" lon="105.314366"><ele>492.5</ele><time>2026-03-22T00:28:31.000Z</time></trkpt>
        <trkpt lat="28.8256035" lon="105.3143826"><ele>491.26</ele><time>2026-03-22T00:28:43.000Z</time></trkpt>
        <trkpt lat="28.8256946" lon="105.3143582"><ele>490.87</ele><time>2026-03-22T00:28:59.000Z</time></trkpt>
        <trkpt lat="28.8257923" lon="105.3143836"><ele>489.61</ele><time>2026-03-22T00:29:09.000Z</time></trkpt>
        <trkpt lat="28.8258801" lon="105.3144309"><ele>487.65</ele><time>2026-03-22T00:29:17.000Z</time></trkpt>
        <trkpt lat="28.8259675" lon="105.314491"><ele>487.5</ele><time>2026-03-22T00:29:30.000Z</time></trkpt>
        <trkpt lat="28.8260288" lon="105.3145733"><ele>487.27</ele><time>2026-03-22T00:29:37.000Z</time></trkpt>
        <trkpt lat="28.8260544" lon="105.314676"><ele>487.64</ele><time>2026-03-22T00:29:47.000Z</time></trkpt>
        <trkpt lat="28.8260489" lon="105.3147898"><ele>487.99</ele><time>2026-03-22T00:29:55.000Z</time></trkpt>
        <trkpt lat="28.8260581" lon="105.3149084"><ele>488.19</ele><time>2026-03-22T00:30:01.000Z</time></trkpt>
        <trkpt lat="28.8260617" lon="105.3150298"><ele>487.54</ele><time>2026-03-22T00:30:11.000Z</time></trkpt>
        <trkpt lat="28.8260133" lon="105.3151349"><ele>486.09</ele><time>2026-03-22T00:30:21.000Z</time></trkpt>
        <trkpt lat="28.8260242" lon="105.3152519"><ele>485.34</ele><time>2026-03-22T00:30:31.000Z</time></trkpt>
        <trkpt lat="28.8260834" lon="105.3153553"><ele>484.4</ele><time>2026-03-22T00:30:41.000Z</time></trkpt>
        <trkpt lat="28.8261567" lon="105.3154438"><ele>483.31</ele><time>2026-03-22T00:30:51.000Z</time></trkpt>
        <trkpt lat="28.8261653" lon="105.315469"><ele>481.78</ele><time>2026-03-22T00:30:53.000Z</time></trkpt>
        <trkpt lat="28.8262219" lon="105.3155385"><ele>480.48</ele><time>2026-03-22T00:31:39.000Z</time></trkpt>
        <trkpt lat="28.8262699" lon="105.3156334"><ele>480.3</ele><time>2026-03-22T00:31:47.000Z</time></trkpt>
        <trkpt lat="28.8262943" lon="105.3157237"><ele>479.87</ele><time>2026-03-22T00:31:53.000Z</time></trkpt>
        <trkpt lat="28.8262991" lon="105.3158368"><ele>478.87</ele><time>2026-03-22T00:32:45.000Z</time></trkpt>
        <trkpt lat="28.8263177" lon="105.3159594"><ele>477.17</ele><time>2026-03-22T00:32:55.000Z</time></trkpt>
        <trkpt lat="28.8263123" lon="105.3160728"><ele>474.6</ele><time>2026-03-22T00:33:05.000Z</time></trkpt>
        <trkpt lat="28.8262746" lon="105.316173"><ele>472.48</ele><time>2026-03-22T00:33:15.000Z</time></trkpt>
        <trkpt lat="28.8262479" lon="105.3162078"><ele>470.74</ele><time>2026-03-22T00:33:19.000Z</time></trkpt>
        <trkpt lat="28.826177" lon="105.3162653"><ele>468.79</ele><time>2026-03-22T00:33:35.000Z</time></trkpt>
        <trkpt lat="28.8261539" lon="105.3162738"><ele>465.44</ele><time>2026-03-22T00:33:39.000Z</time></trkpt>
        <trkpt lat="28.8260917" lon="105.3163221"><ele>463.51</ele><time>2026-03-22T00:33:55.000Z</time></trkpt>
        <trkpt lat="28.8260454" lon="105.3164124"><ele>462.25</ele><time>2026-03-22T00:34:09.000Z</time></trkpt>
        <trkpt lat="28.8259887" lon="105.3163796"><ele>459.57</ele><time>2026-03-22T00:34:35.000Z</time></trkpt>
        <trkpt lat="28.8260385" lon="105.3164048"><ele>457.87</ele><time>2026-03-22T00:34:55.000Z</time></trkpt>
        <trkpt lat="28.8260397" lon="105.3164084"><ele>455.72</ele><time>2026-03-22T00:35:15.000Z</time></trkpt>
        <trkpt lat="28.8261189" lon="105.3164505"><ele>454.79</ele><time>2026-03-22T00:35:49.000Z</time></trkpt>
        <trkpt lat="28.8262169" lon="105.3164503"><ele>453.34</ele><time>2026-03-22T00:35:57.000Z</time></trkpt>
        <trkpt lat="28.8261822" lon="105.3164213"><ele>452.65</ele><time>2026-03-22T00:36:03.000Z</time></trkpt>
        <trkpt lat="28.8260921" lon="105.3164285"><ele>451.06</ele><time>2026-03-22T00:36:11.000Z</time></trkpt>
        <trkpt lat="28.8260017" lon="105.3164902"><ele>450.62</ele><time>2026-03-22T00:36:17.000Z</time></trkpt>
        <trkpt lat="28.8258964" lon="105.3165143"><ele>451.63</ele><time>2026-03-22T00:36:27.000Z</time></trkpt>
        <trkpt lat="28.8258099" lon="105.3164733"><ele>452.75</ele><time>2026-03-22T00:36:37.000Z</time></trkpt>
        <trkpt lat="28.8257198" lon="105.3164723"><ele>452.77</ele><time>2026-03-22T00:36:57.000Z</time></trkpt>
        <trkpt lat="28.8257198" lon="105.3164723"><ele>452.77</ele><time>2026-03-22T00:37:05.000Z</time></trkpt>
        <trkpt lat="28.8256644" lon="105.3165503"><ele>449.44</ele><time>2026-03-22T00:37:08.000Z</time></trkpt>
        <trkpt lat="28.8256644" lon="105.3165503"><ele>449.44</ele><time>2026-03-22T00:37:49.000Z</time></trkpt>
        <trkpt lat="28.8256541" lon="105.3165799"><ele>448.22</ele><time>2026-03-22T00:37:53.000Z</time></trkpt>
        <trkpt lat="28.8255963" lon="105.3166444"><ele>447.22</ele><time>2026-03-22T00:38:11.000Z</time></trkpt>
        <trkpt lat="28.8255289" lon="105.3167177"><ele>447.55</ele><time>2026-03-22T00:38:19.000Z</time></trkpt>
        <trkpt lat="28.825497" lon="105.3168161"><ele>447.27</ele><time>2026-03-22T00:38:29.000Z</time></trkpt>
        <trkpt lat="28.8254777" lon="105.3169211"><ele>449.09</ele><time>2026-03-22T00:38:37.000Z</time></trkpt>
        <trkpt lat="28.8254583" lon="105.3170426"><ele>449.74</ele><time>2026-03-22T00:38:47.000Z</time></trkpt>
        <trkpt lat="28.8254339" lon="105.3171511"><ele>449.24</ele><time>2026-03-22T00:38:59.000Z</time></trkpt>
        <trkpt lat="28.8254093" lon="105.3172619"><ele>447.82</ele><time>2026-03-22T00:39:13.000Z</time></trkpt>
        <trkpt lat="28.8253464" lon="105.3172438"><ele>447.44</ele><time>2026-03-22T00:40:11.000Z</time></trkpt>
        <trkpt lat="28.8252712" lon="105.3172772"><ele>441.02</ele><time>2026-03-22T00:40:31.000Z</time></trkpt>
        <trkpt lat="28.8252255" lon="105.3173692"><ele>434.3</ele><time>2026-03-22T00:40:47.000Z</time></trkpt>
        <trkpt lat="28.8251601" lon="105.3173508"><ele>430.06</ele><time>2026-03-22T00:41:01.000Z</time></trkpt>
        <trkpt lat="28.825083" lon="105.3172982"><ele>426.71</ele><time>2026-03-22T00:41:13.000Z</time></trkpt>
        <trkpt lat="28.8249973" lon="105.3173042"><ele>422.65</ele><time>2026-03-22T00:41:28.000Z</time></trkpt>
        <trkpt lat="28.8249743" lon="105.3172162"><ele>417.34</ele><time>2026-03-22T00:42:09.000Z</time></trkpt>
        <trkpt lat="28.8249937" lon="105.3170953"><ele>414.58</ele><time>2026-03-22T00:42:23.000Z</time></trkpt>
        <trkpt lat="28.825013" lon="105.3169678"><ele>411.48</ele><time>2026-03-22T00:42:31.000Z</time></trkpt>
        <trkpt lat="28.8250613" lon="105.3168648"><ele>409.75</ele><time>2026-03-22T00:42:39.000Z</time></trkpt>
        <trkpt lat="28.825139" lon="105.3167803"><ele>408.7</ele><time>2026-03-22T00:42:49.000Z</time></trkpt>
        <trkpt lat="28.8251564" lon="105.3167585"><ele>409.41</ele><time>2026-03-22T00:42:51.000Z</time></trkpt>
        <trkpt lat="28.8251905" lon="105.3166826"><ele>409.71</ele><time>2026-03-22T00:43:17.000Z</time></trkpt>
        <trkpt lat="28.8251532" lon="105.3166032"><ele>413.02</ele><time>2026-03-22T00:43:27.000Z</time></trkpt>
        <trkpt lat="28.8250835" lon="105.3165257"><ele>416.7</ele><time>2026-03-22T00:43:37.000Z</time></trkpt>
        <trkpt lat="28.8250284" lon="105.3164212"><ele>418.95</ele><time>2026-03-22T00:43:47.000Z</time></trkpt>
        <trkpt lat="28.8249566" lon="105.3163408"><ele>420.39</ele><time>2026-03-22T00:43:55.000Z</time></trkpt>
        <trkpt lat="28.8248666" lon="105.3162977"><ele>420.94</ele><time>2026-03-22T00:44:05.000Z</time></trkpt>
        <trkpt lat="28.8247773" lon="105.3163372"><ele>422</ele><time>2026-03-22T00:44:13.000Z</time></trkpt>
        <trkpt lat="28.8246954" lon="105.3164151"><ele>422.56</ele><time>2026-03-22T00:44:25.000Z</time></trkpt>
        <trkpt lat="28.8246125" lon="105.3164865"><ele>424.68</ele><time>2026-03-22T00:44:37.000Z</time></trkpt>
        <trkpt lat="28.8245062" lon="105.3165222"><ele>425.41</ele><time>2026-03-22T00:44:47.000Z</time></trkpt>
        <trkpt lat="28.8244035" lon="105.3165044"><ele>423.41</ele><time>2026-03-22T00:44:59.000Z</time></trkpt>
        <trkpt lat="28.8243022" lon="105.3164674"><ele>422.11</ele><time>2026-03-22T00:45:11.000Z</time></trkpt>
        <trkpt lat="28.8242095" lon="105.3164352"><ele>421.6</ele><time>2026-03-22T00:45:21.000Z</time></trkpt>
        <trkpt lat="28.8241221" lon="105.3163699"><ele>422.09</ele><time>2026-03-22T00:45:31.000Z</time></trkpt>
        <trkpt lat="28.8240718" lon="105.3162771"><ele>421.58</ele><time>2026-03-22T00:45:43.000Z</time></trkpt>
        <trkpt lat="28.824024" lon="105.3161773"><ele>421.74</ele><time>2026-03-22T00:45:55.000Z</time></trkpt>
        <trkpt lat="28.823952" lon="105.3160989"><ele>421.91</ele><time>2026-03-22T00:46:05.000Z</time></trkpt>
        <trkpt lat="28.8238678" lon="105.3160404"><ele>422.52</ele><time>2026-03-22T00:46:15.000Z</time></trkpt>
        <trkpt lat="28.8237736" lon="105.316004"><ele>423.28</ele><time>2026-03-22T00:46:25.000Z</time></trkpt>
        <trkpt lat="28.8236975" lon="105.31593"><ele>423.25</ele><time>2026-03-22T00:46:37.000Z</time></trkpt>
        <trkpt lat="28.8236676" lon="105.3158289"><ele>423.37</ele><time>2026-03-22T00:46:49.000Z</time></trkpt>
        <trkpt lat="28.823652" lon="105.3157031"><ele>423.89</ele><time>2026-03-22T00:46:59.000Z</time></trkpt>
        <trkpt lat="28.8236599" lon="105.3155735"><ele>424.49</ele><time>2026-03-22T00:47:09.000Z</time></trkpt>
        <trkpt lat="28.8236798" lon="105.315452"><ele>425.65</ele><time>2026-03-22T00:47:19.000Z</time></trkpt>
        <trkpt lat="28.8236864" lon="105.3153387"><ele>426.43</ele><time>2026-03-22T00:47:27.000Z</time></trkpt>
        <trkpt lat="28.8236764" lon="105.3152206"><ele>426.2</ele><time>2026-03-22T00:47:37.000Z</time></trkpt>
        <trkpt lat="28.823661" lon="105.3151067"><ele>424.18</ele><time>2026-03-22T00:47:47.000Z</time></trkpt>
        <trkpt lat="28.8236424" lon="105.3149939"><ele>421.2</ele><time>2026-03-22T00:47:57.000Z</time></trkpt>
        <trkpt lat="28.8235966" lon="105.3148843"><ele>418.77</ele><time>2026-03-22T00:48:07.000Z</time></trkpt>
        <trkpt lat="28.8235697" lon="105.3147651"><ele>417.4</ele><time>2026-03-22T00:48:15.000Z</time></trkpt>
        <trkpt lat="28.8235499" lon="105.3146515"><ele>415.36</ele><time>2026-03-22T00:48:25.000Z</time></trkpt>
        <trkpt lat="28.8235563" lon="105.3145393"><ele>413.78</ele><time>2026-03-22T00:48:35.000Z</time></trkpt>
        <trkpt lat="28.8235412" lon="105.3144237"><ele>411.03</ele><time>2026-03-22T00:48:49.000Z</time></trkpt>
        <trkpt lat="28.8235026" lon="105.3143277"><ele>409.76</ele><time>2026-03-22T00:49:03.000Z</time></trkpt>
        <trkpt lat="28.823459" lon="105.3142352"><ele>408.69</ele><time>2026-03-22T00:49:13.000Z</time></trkpt>
        <trkpt lat="28.8234509" lon="105.314119"><ele>406.54</ele><time>2026-03-22T00:49:23.000Z</time></trkpt>
        <trkpt lat="28.8234375" lon="105.314011"><ele>405.44</ele><time>2026-03-22T00:49:33.000Z</time></trkpt>
        <trkpt lat="28.8234472" lon="105.3139039"><ele>405.12</ele><time>2026-03-22T00:49:43.000Z</time></trkpt>
        <trkpt lat="28.8234385" lon="105.3138007"><ele>404.03</ele><time>2026-03-22T00:49:51.000Z</time></trkpt>
        <trkpt lat="28.8234224" lon="105.3136882"><ele>403.56</ele><time>2026-03-22T00:50:01.000Z</time></trkpt>
        <trkpt lat="28.8234009" lon="105.3135796"><ele>401.97</ele><time>2026-03-22T00:50:09.000Z</time></trkpt>
        <trkpt lat="28.8233483" lon="105.3134863"><ele>400.15</ele><time>2026-03-22T00:50:17.000Z</time></trkpt>
        <trkpt lat="28.8233531" lon="105.3133845"><ele>398.21</ele><time>2026-03-22T00:50:25.000Z</time></trkpt>
        <trkpt lat="28.8233741" lon="105.3132736"><ele>397.01</ele><time>2026-03-22T00:50:33.000Z</time></trkpt>
        <trkpt lat="28.8233972" lon="105.313164"><ele>396.41</ele><time>2026-03-22T00:50:43.000Z</time></trkpt>
        <trkpt lat="28.8234412" lon="105.3130681"><ele>395.22</ele><time>2026-03-22T00:51:03.000Z</time></trkpt>
        <trkpt lat="28.8234392" lon="105.3129625"><ele>393.73</ele><time>2026-03-22T00:51:15.000Z</time></trkpt>
        <trkpt lat="28.8234338" lon="105.3128565"><ele>392.93</ele><time>2026-03-22T00:51:35.000Z</time></trkpt>
        <trkpt lat="28.8233618" lon="105.3127892"><ele>389.24</ele><time>2026-03-22T00:51:49.000Z</time></trkpt>
        <trkpt lat="28.8232652" lon="105.312778"><ele>387.87</ele><time>2026-03-22T00:51:59.000Z</time></trkpt>
        <trkpt lat="28.8231641" lon="105.3127755"><ele>387.65</ele><time>2026-03-22T00:52:11.000Z</time></trkpt>
        <trkpt lat="28.8230835" lon="105.3127277"><ele>388.45</ele><time>2026-03-22T00:52:21.000Z</time></trkpt>
        <trkpt lat="28.8230168" lon="105.3126527"><ele>389.71</ele><time>2026-03-22T00:52:31.000Z</time></trkpt>
        <trkpt lat="28.8229551" lon="105.3125719"><ele>388.7</ele><time>2026-03-22T00:52:43.000Z</time></trkpt>
        <trkpt lat="28.822892" lon="105.3124877"><ele>387.26</ele><time>2026-03-22T00:52:55.000Z</time></trkpt>
        <trkpt lat="28.8228445" lon="105.3123942"><ele>385.51</ele><time>2026-03-22T00:53:07.000Z</time></trkpt>
        <trkpt lat="28.8228161" lon="105.3122919"><ele>384.95</ele><time>2026-03-22T00:53:17.000Z</time></trkpt>
        <trkpt lat="28.822792" lon="105.3121803"><ele>384.51</ele><time>2026-03-22T00:53:37.000Z</time></trkpt>
        <trkpt lat="28.8227543" lon="105.3120725"><ele>384.21</ele><time>2026-03-22T00:53:51.000Z</time></trkpt>
        <trkpt lat="28.8226735" lon="105.3120285"><ele>383.54</ele><time>2026-03-22T00:54:01.000Z</time></trkpt>
        <trkpt lat="28.8225881" lon="105.3120662"><ele>383.22</ele><time>2026-03-22T00:54:13.000Z</time></trkpt>
        <trkpt lat="28.8224925" lon="105.3121211"><ele>383.23</ele><time>2026-03-22T00:54:27.000Z</time></trkpt>
        <trkpt lat="28.8224133" lon="105.3122127"><ele>384.38</ele><time>2026-03-22T00:54:41.000Z</time></trkpt>
        <trkpt lat="28.8223654" lon="105.3123249"><ele>385.19</ele><time>2026-03-22T00:55:01.000Z</time></trkpt>
        <trkpt lat="28.822279" lon="105.3123678"><ele>385.15</ele><time>2026-03-22T00:55:15.000Z</time></trkpt>
        <trkpt lat="28.8221835" lon="105.3123791"><ele>385.9</ele><time>2026-03-22T00:55:29.000Z</time></trkpt>
        <trkpt lat="28.8220946" lon="105.3124096"><ele>387.01</ele><time>2026-03-22T00:55:41.000Z</time></trkpt>
        <trkpt lat="28.8220138" lon="105.3124648"><ele>388.43</ele><time>2026-03-22T00:55:53.000Z</time></trkpt>
        <trkpt lat="28.8219247" lon="105.3125051"><ele>389.75</ele><time>2026-03-22T00:56:07.000Z</time></trkpt>
        <trkpt lat="28.8218644" lon="105.3125876"><ele>391.47</ele><time>2026-03-22T00:56:19.000Z</time></trkpt>
        <trkpt lat="28.8218233" lon="105.3126898"><ele>392.77</ele><time>2026-03-22T00:56:29.000Z</time></trkpt>
        <trkpt lat="28.8217853" lon="105.3127994"><ele>392.75</ele><time>2026-03-22T00:56:39.000Z</time></trkpt>
        <trkpt lat="28.8217097" lon="105.3128735"><ele>392.56</ele><time>2026-03-22T00:56:49.000Z</time></trkpt>
        <trkpt lat="28.821614" lon="105.3129107"><ele>393.05</ele><time>2026-03-22T00:57:01.000Z</time></trkpt>
        <trkpt lat="28.8215058" lon="105.3129224"><ele>393.78</ele><time>2026-03-22T00:57:13.000Z</time></trkpt>
        <trkpt lat="28.8213981" lon="105.3129505"><ele>395.3</ele><time>2026-03-22T00:57:23.000Z</time></trkpt>
        <trkpt lat="28.821336" lon="105.3129849"><ele>396.32</ele><time>2026-03-22T00:57:31.000Z</time></trkpt>
        <trkpt lat="28.8212576" lon="105.3130224"><ele>396.95</ele><time>2026-03-22T00:57:47.000Z</time></trkpt>
        <trkpt lat="28.8211628" lon="105.3130559"><ele>397.72</ele><time>2026-03-22T00:57:59.000Z</time></trkpt>
        <trkpt lat="28.8210691" lon="105.3130742"><ele>398.83</ele><time>2026-03-22T00:58:09.000Z</time></trkpt>
        <trkpt lat="28.820967" lon="105.3130914"><ele>398.07</ele><time>2026-03-22T00:58:21.000Z</time></trkpt>
        <trkpt lat="28.8209033" lon="105.3131163"><ele>397.89</ele><time>2026-03-22T00:58:27.000Z</time></trkpt>
        <trkpt lat="28.8208253" lon="105.3131616"><ele>398.76</ele><time>2026-03-22T00:58:37.000Z</time></trkpt>
        <trkpt lat="28.8207365" lon="105.3131939"><ele>398.77</ele><time>2026-03-22T00:58:45.000Z</time></trkpt>
        <trkpt lat="28.8206378" lon="105.3132242"><ele>398.89</ele><time>2026-03-22T00:58:53.000Z</time></trkpt>
        <trkpt lat="28.8205308" lon="105.3132455"><ele>398.97</ele><time>2026-03-22T00:59:03.000Z</time></trkpt>
        <trkpt lat="28.8205308" lon="105.3132455"><ele>398.97</ele><time>2026-03-22T00:59:29.000Z</time></trkpt>
        <trkpt lat="28.8205325" lon="105.3131655"><ele>399.05</ele><time>2026-03-22T00:59:34.000Z</time></trkpt>
        <trkpt lat="28.8205325" lon="105.3131655"><ele>399.05</ele><time>2026-03-22T00:59:55.000Z</time></trkpt>
        <trkpt lat="28.8205717" lon="105.3130571"><ele>398.11</ele><time>2026-03-22T01:00:05.000Z</time></trkpt>
        <trkpt lat="28.8206156" lon="105.3129345"><ele>397.87</ele><time>2026-03-22T01:00:17.000Z</time></trkpt>
        <trkpt lat="28.8206599" lon="105.3128169"><ele>398.36</ele><time>2026-03-22T01:00:27.000Z</time></trkpt>
        <trkpt lat="28.8206962" lon="105.3127052"><ele>399.35</ele><time>2026-03-22T01:00:37.000Z</time></trkpt>
        <trkpt lat="28.8207411" lon="105.3126058"><ele>400.24</ele><time>2026-03-22T01:00:49.000Z</time></trkpt>
        <trkpt lat="28.8207905" lon="105.3125157"><ele>401.79</ele><time>2026-03-22T01:01:11.000Z</time></trkpt>
        <trkpt lat="28.8208334" lon="105.312421"><ele>403.88</ele><time>2026-03-22T01:01:51.000Z</time></trkpt>
        <trkpt lat="28.8208697" lon="105.3123257"><ele>407.61</ele><time>2026-03-22T01:02:20.000Z</time></trkpt>
        <trkpt lat="28.8209013" lon="105.3122258"><ele>411.04</ele><time>2026-03-22T01:02:35.000Z</time></trkpt>
        <trkpt lat="28.8209577" lon="105.3121406"><ele>412.97</ele><time>2026-03-22T01:02:49.000Z</time></trkpt>
        <trkpt lat="28.8210399" lon="105.3120831"><ele>416.23</ele><time>2026-03-22T01:03:05.000Z</time></trkpt>
        <trkpt lat="28.8211334" lon="105.3120305"><ele>419.62</ele><time>2026-03-22T01:03:17.000Z</time></trkpt>
        <trkpt lat="28.8212266" lon="105.311983"><ele>422.79</ele><time>2026-03-22T01:03:29.000Z</time></trkpt>
        <trkpt lat="28.8213076" lon="105.3119237"><ele>425.79</ele><time>2026-03-22T01:03:43.000Z</time></trkpt>
        <trkpt lat="28.8213076" lon="105.3119237"><ele>425.79</ele><time>2026-03-22T01:04:03.000Z</time></trkpt>
        <trkpt lat="28.8213976" lon="105.3118749"><ele>427.3</ele><time>2026-03-22T01:04:06.000Z</time></trkpt>
        <trkpt lat="28.8213976" lon="105.3118749"><ele>427.3</ele><time>2026-03-22T01:04:19.000Z</time></trkpt>
        <trkpt lat="28.8214786" lon="105.3118068"><ele>428.81</ele><time>2026-03-22T01:04:31.000Z</time></trkpt>
        <trkpt lat="28.8215478" lon="105.3117271"><ele>428.73</ele><time>2026-03-22T01:04:41.000Z</time></trkpt>
        <trkpt lat="28.8215697" lon="105.3116683"><ele>430.14</ele><time>2026-03-22T01:04:51.000Z</time></trkpt>
        <trkpt lat="28.8215535" lon="105.3115753"><ele>432.55</ele><time>2026-03-22T01:05:13.000Z</time></trkpt>
        <trkpt lat="28.8215092" lon="105.3114782"><ele>433.7</ele><time>2026-03-22T01:05:29.000Z</time></trkpt>
        <trkpt lat="28.821467" lon="105.3113784"><ele>435.4</ele><time>2026-03-22T01:05:41.000Z</time></trkpt>
        <trkpt lat="28.8214398" lon="105.3112649"><ele>436.55</ele><time>2026-03-22T01:05:55.000Z</time></trkpt>
        <trkpt lat="28.821428" lon="105.3111548"><ele>437.66</ele><time>2026-03-22T01:06:03.000Z</time></trkpt>
        <trkpt lat="28.8214311" lon="105.3110394"><ele>438.17</ele><time>2026-03-22T01:06:13.000Z</time></trkpt>
        <trkpt lat="28.821468" lon="105.3109187"><ele>440.17</ele><time>2026-03-22T01:06:33.000Z</time></trkpt>
        <trkpt lat="28.8215111" lon="105.310806"><ele>441.67</ele><time>2026-03-22T01:06:41.000Z</time></trkpt>
        <trkpt lat="28.8215866" lon="105.3107273"><ele>443.13</ele><time>2026-03-22T01:06:53.000Z</time></trkpt>
        <trkpt lat="28.8216819" lon="105.310672"><ele>445.29</ele><time>2026-03-22T01:07:29.000Z</time></trkpt>
        <trkpt lat="28.8217848" lon="105.3106438"><ele>450</ele><time>2026-03-22T01:07:41.000Z</time></trkpt>
        <trkpt lat="28.8218778" lon="105.3105902"><ele>453.84</ele><time>2026-03-22T01:07:53.000Z</time></trkpt>
        <trkpt lat="28.8219704" lon="105.3105639"><ele>457.54</ele><time>2026-03-22T01:08:09.000Z</time></trkpt>
        <trkpt lat="28.8220359" lon="105.3104861"><ele>462</ele><time>2026-03-22T01:08:17.000Z</time></trkpt>
        <trkpt lat="28.8220944" lon="105.3103969"><ele>464.08</ele><time>2026-03-22T01:08:25.000Z</time></trkpt>
        <trkpt lat="28.8221437" lon="105.3102897"><ele>465.33</ele><time>2026-03-22T01:08:35.000Z</time></trkpt>
        <trkpt lat="28.8221496" lon="105.3101733"><ele>466.97</ele><time>2026-03-22T01:08:47.000Z</time></trkpt>
        <trkpt lat="28.8221211" lon="105.3100631"><ele>468.48</ele><time>2026-03-22T01:08:59.000Z</time></trkpt>
        <trkpt lat="28.8220794" lon="105.3099599"><ele>470.31</ele><time>2026-03-22T01:09:09.000Z</time></trkpt>
        <trkpt lat="28.8220351" lon="105.3098462"><ele>471.37</ele><time>2026-03-22T01:09:19.000Z</time></trkpt>
        <trkpt lat="28.8219955" lon="105.3097431"><ele>472.49</ele><time>2026-03-22T01:09:27.000Z</time></trkpt>
        <trkpt lat="28.8219463" lon="105.309653"><ele>473.42</ele><time>2026-03-22T01:09:37.000Z</time></trkpt>
        <trkpt lat="28.8219463" lon="105.309653"><ele>473.42</ele><time>2026-03-22T01:09:53.000Z</time></trkpt>
        <trkpt lat="28.8219169" lon="105.3095543"><ele>474.26</ele><time>2026-03-22T01:09:58.000Z</time></trkpt>
        <trkpt lat="28.8219169" lon="105.3095543"><ele>474.26</ele><time>2026-03-22T01:10:39.000Z</time></trkpt>
        <trkpt lat="28.8218807" lon="105.3094484"><ele>476.89</ele><time>2026-03-22T01:11:15.000Z</time></trkpt>
        <trkpt lat="28.8218012" lon="105.3093727"><ele>478.22</ele><time>2026-03-22T01:11:25.000Z</time></trkpt>
        <trkpt lat="28.8217211" lon="105.3093029"><ele>480.23</ele><time>2026-03-22T01:11:43.000Z</time></trkpt>
        <trkpt lat="28.8216354" lon="105.3092386"><ele>481.74</ele><time>2026-03-22T01:11:53.000Z</time></trkpt>
        <trkpt lat="28.821554" lon="105.3091702"><ele>483.63</ele><time>2026-03-22T01:12:03.000Z</time></trkpt>
        <trkpt lat="28.8214827" lon="105.3090908"><ele>484.85</ele><time>2026-03-22T01:12:11.000Z</time></trkpt>
        <trkpt lat="28.8214251" lon="105.3089924"><ele>486.44</ele><time>2026-03-22T01:12:21.000Z</time></trkpt>
        <trkpt lat="28.8214046" lon="105.3088734"><ele>488.2</ele><time>2026-03-22T01:12:41.000Z</time></trkpt>
        <trkpt lat="28.8214371" lon="105.308762"><ele>489.89</ele><time>2026-03-22T01:12:53.000Z</time></trkpt>
        <trkpt lat="28.8214528" lon="105.3087154"><ele>490.68</ele><time>2026-03-22T01:13:03.000Z</time></trkpt>
        <trkpt lat="28.8214528" lon="105.3087154"><ele>490.68</ele><time>2026-03-22T01:13:11.000Z</time></trkpt>
        <trkpt lat="28.821485" lon="105.3086365"><ele>491.46</ele><time>2026-03-22T01:13:18.000Z</time></trkpt>
        <trkpt lat="28.821485" lon="105.3086365"><ele>491.46</ele><time>2026-03-22T01:13:27.000Z</time></trkpt>
        <trkpt lat="28.8215704" lon="105.3085695"><ele>492.15</ele><time>2026-03-22T01:13:39.000Z</time></trkpt>
        <trkpt lat="28.8216545" lon="105.3085365"><ele>493.67</ele><time>2026-03-22T01:13:51.000Z</time></trkpt>
        <trkpt lat="28.8217499" lon="105.3085368"><ele>495.04</ele><time>2026-03-22T01:14:05.000Z</time></trkpt>
        <trkpt lat="28.8218503" lon="105.3085184"><ele>497.37</ele><time>2026-03-22T01:14:17.000Z</time></trkpt>
        <trkpt lat="28.821913" lon="105.3084812"><ele>499.26</ele><time>2026-03-22T01:14:27.000Z</time></trkpt>
        <trkpt lat="28.8219358" lon="105.3083789"><ele>501.57</ele><time>2026-03-22T01:14:43.000Z</time></trkpt>
        <trkpt lat="28.8219655" lon="105.3082686"><ele>502.72</ele><time>2026-03-22T01:14:59.000Z</time></trkpt>
        <trkpt lat="28.8219471" lon="105.3081528"><ele>503.84</ele><time>2026-03-22T01:15:17.000Z</time></trkpt>
        <trkpt lat="28.8219257" lon="105.3080406"><ele>506.09</ele><time>2026-03-22T01:15:27.000Z</time></trkpt>
        <trkpt lat="28.8218779" lon="105.3079476"><ele>507.48</ele><time>2026-03-22T01:15:37.000Z</time></trkpt>
        <trkpt lat="28.8218151" lon="105.3078529"><ele>508.39</ele><time>2026-03-22T01:15:49.000Z</time></trkpt>
        <trkpt lat="28.8217561" lon="105.3077645"><ele>509.46</ele><time>2026-03-22T01:15:59.000Z</time></trkpt>
        <trkpt lat="28.8217377" lon="105.307663"><ele>511.23</ele><time>2026-03-22T01:16:09.000Z</time></trkpt>
        <trkpt lat="28.8217244" lon="105.3075569"><ele>512.05</ele><time>2026-03-22T01:16:27.000Z</time></trkpt>
        <trkpt lat="28.8217606" lon="105.3074631"><ele>513.1</ele><time>2026-03-22T01:16:37.000Z</time></trkpt>
        <trkpt lat="28.821804" lon="105.3073699"><ele>513.91</ele><time>2026-03-22T01:16:47.000Z</time></trkpt>
        <trkpt lat="28.8217958" lon="105.3073365"><ele>514.31</ele><time>2026-03-22T01:16:55.000Z</time></trkpt>
        <trkpt lat="28.8218075" lon="105.3072598"><ele>515.46</ele><time>2026-03-22T01:17:11.000Z</time></trkpt>
        <trkpt lat="28.8218175" lon="105.3071602"><ele>514.15</ele><time>2026-03-22T01:17:25.000Z</time></trkpt>
        <trkpt lat="28.8218013" lon="105.3070521"><ele>516.2</ele><time>2026-03-22T01:17:45.000Z</time></trkpt>
        <trkpt lat="28.82177" lon="105.3069415"><ele>519.4</ele><time>2026-03-22T01:17:55.000Z</time></trkpt>
        <trkpt lat="28.8217547" lon="105.3068319"><ele>520.72</ele><time>2026-03-22T01:18:05.000Z</time></trkpt>
        <trkpt lat="28.8217663" lon="105.3067194"><ele>520.33</ele><time>2026-03-22T01:18:15.000Z</time></trkpt>
        <trkpt lat="28.8218025" lon="105.3066191"><ele>519.55</ele><time>2026-03-22T01:18:25.000Z</time></trkpt>
        <trkpt lat="28.8217855" lon="105.3065184"><ele>519.51</ele><time>2026-03-22T01:18:47.000Z</time></trkpt>
        <trkpt lat="28.8217805" lon="105.3064105"><ele>522.63</ele><time>2026-03-22T01:18:59.000Z</time></trkpt>
        <trkpt lat="28.8217767" lon="105.3063044"><ele>524.88</ele><time>2026-03-22T01:19:15.000Z</time></trkpt>
        <trkpt lat="28.821751" lon="105.306205"><ele>527.14</ele><time>2026-03-22T01:19:25.000Z</time></trkpt>
        <trkpt lat="28.8217222" lon="105.3060915"><ele>528.15</ele><time>2026-03-22T01:19:49.000Z</time></trkpt>
        <trkpt lat="28.821694" lon="105.3059833"><ele>529.1</ele><time>2026-03-22T01:19:59.000Z</time></trkpt>
        <trkpt lat="28.8216727" lon="105.305874"><ele>530.81</ele><time>2026-03-22T01:20:11.000Z</time></trkpt>
        <trkpt lat="28.8216664" lon="105.3057643"><ele>534.12</ele><time>2026-03-22T01:20:23.000Z</time></trkpt>
        <trkpt lat="28.8216535" lon="105.3056607"><ele>536.61</ele><time>2026-03-22T01:20:35.000Z</time></trkpt>
        <trkpt lat="28.8216313" lon="105.3055563"><ele>539.23</ele><time>2026-03-22T01:20:47.000Z</time></trkpt>
        <trkpt lat="28.8215699" lon="105.3054728"><ele>541.7</ele><time>2026-03-22T01:21:01.000Z</time></trkpt>
        <trkpt lat="28.8214774" lon="105.3054163"><ele>544.2</ele><time>2026-03-22T01:21:13.000Z</time></trkpt>
        <trkpt lat="28.8213955" lon="105.3053453"><ele>544.98</ele><time>2026-03-22T01:21:23.000Z</time></trkpt>
        <trkpt lat="28.8213395" lon="105.3052534"><ele>545.91</ele><time>2026-03-22T01:21:31.000Z</time></trkpt>
        <trkpt lat="28.8213071" lon="105.3051513"><ele>545.67</ele><time>2026-03-22T01:21:39.000Z</time></trkpt>
        <trkpt lat="28.8212905" lon="105.3050339"><ele>545.4</ele><time>2026-03-22T01:21:49.000Z</time></trkpt>
        <trkpt lat="28.8212882" lon="105.3049143"><ele>545.93</ele><time>2026-03-22T01:21:59.000Z</time></trkpt>
        <trkpt lat="28.8212877" lon="105.3048037"><ele>546.06</ele><time>2026-03-22T01:22:09.000Z</time></trkpt>
        <trkpt lat="28.8212923" lon="105.3046865"><ele>548.09</ele><time>2026-03-22T01:22:21.000Z</time></trkpt>
        <trkpt lat="28.8212622" lon="105.3046444"><ele>550.09</ele><time>2026-03-22T01:22:35.000Z</time></trkpt>
        <trkpt lat="28.8212409" lon="105.3045625"><ele>552.19</ele><time>2026-03-22T01:22:55.000Z</time></trkpt>
        <trkpt lat="28.821199" lon="105.3044764"><ele>555.45</ele><time>2026-03-22T01:23:21.000Z</time></trkpt>
        <trkpt lat="28.821167" lon="105.3043804"><ele>558.1</ele><time>2026-03-22T01:23:43.000Z</time></trkpt>
        <trkpt lat="28.8211111" lon="105.3042981"><ele>558.29</ele><time>2026-03-22T01:23:57.000Z</time></trkpt>
        <trkpt lat="28.8210737" lon="105.3041984"><ele>559.72</ele><time>2026-03-22T01:24:07.000Z</time></trkpt>
        <trkpt lat="28.8210215" lon="105.3040917"><ele>560.17</ele><time>2026-03-22T01:24:19.000Z</time></trkpt>
        <trkpt lat="28.8209705" lon="105.3039836"><ele>560.46</ele><time>2026-03-22T01:24:29.000Z</time></trkpt>
        <trkpt lat="28.8209479" lon="105.3038724"><ele>560.29</ele><time>2026-03-22T01:24:37.000Z</time></trkpt>
        <trkpt lat="28.8209549" lon="105.3037508"><ele>560.36</ele><time>2026-03-22T01:24:47.000Z</time></trkpt>
        <trkpt lat="28.8209919" lon="105.3037159"><ele>559.7</ele><time>2026-03-22T01:24:55.000Z</time></trkpt>
        <trkpt lat="28.8209919" lon="105.3037159"><ele>559.7</ele><time>2026-03-22T01:25:25.000Z</time></trkpt>
        <trkpt lat="28.8210472" lon="105.3036348"><ele>558.47</ele><time>2026-03-22T01:25:42.000Z</time></trkpt>
        <trkpt lat="28.8210472" lon="105.3036348"><ele>558.47</ele><time>2026-03-22T01:26:03.000Z</time></trkpt>
        <trkpt lat="28.8210684" lon="105.3035648"><ele>556.63</ele><time>2026-03-22T01:26:11.000Z</time></trkpt>
        <trkpt lat="28.821132" lon="105.3034857"><ele>554.96</ele><time>2026-03-22T01:26:37.000Z</time></trkpt>
        <trkpt lat="28.8211971" lon="105.3034111"><ele>551.95</ele><time>2026-03-22T01:26:53.000Z</time></trkpt>
        <trkpt lat="28.8212546" lon="105.3033165"><ele>549.5</ele><time>2026-03-22T01:27:05.000Z</time></trkpt>
        <trkpt lat="28.8212974" lon="105.303218"><ele>547.29</ele><time>2026-03-22T01:27:25.000Z</time></trkpt>
        <trkpt lat="28.8213353" lon="105.3031146"><ele>544.61</ele><time>2026-03-22T01:27:41.000Z</time></trkpt>
        <trkpt lat="28.8213846" lon="105.3030114"><ele>542.54</ele><time>2026-03-22T01:27:55.000Z</time></trkpt>
        <trkpt lat="28.8214664" lon="105.3029801"><ele>539.51</ele><time>2026-03-22T01:28:07.000Z</time></trkpt>
        <trkpt lat="28.8215661" lon="105.3029681"><ele>537.7</ele><time>2026-03-22T01:28:19.000Z</time></trkpt>
        <trkpt lat="28.8216642" lon="105.3029651"><ele>536.33</ele><time>2026-03-22T01:28:29.000Z</time></trkpt>
        <trkpt lat="28.8217557" lon="105.3029387"><ele>535.37</ele><time>2026-03-22T01:28:39.000Z</time></trkpt>
        <trkpt lat="28.8218318" lon="105.3028692"><ele>534.15</ele><time>2026-03-22T01:28:51.000Z</time></trkpt>
        <trkpt lat="28.8218515" lon="105.3027678"><ele>532.05</ele><time>2026-03-22T01:29:03.000Z</time></trkpt>
        <trkpt lat="28.8218318" lon="105.3026583"><ele>530.61</ele><time>2026-03-22T01:29:17.000Z</time></trkpt>
        <trkpt lat="28.8218009" lon="105.3025365"><ele>529.86</ele><time>2026-03-22T01:29:29.000Z</time></trkpt>
        <trkpt lat="28.8218087" lon="105.3024219"><ele>528.56</ele><time>2026-03-22T01:29:39.000Z</time></trkpt>
        <trkpt lat="28.821822" lon="105.3023022"><ele>526.7</ele><time>2026-03-22T01:29:49.000Z</time></trkpt>
        <trkpt lat="28.8218799" lon="105.3022035"><ele>526.89</ele><time>2026-03-22T01:30:01.000Z</time></trkpt>
        <trkpt lat="28.8219079" lon="105.3020972"><ele>529.17</ele><time>2026-03-22T01:30:09.000Z</time></trkpt>
        <trkpt lat="28.8219277" lon="105.3019944"><ele>530.4</ele><time>2026-03-22T01:30:21.000Z</time></trkpt>
        <trkpt lat="28.8219007" lon="105.3019509"><ele>531.94</ele><time>2026-03-22T01:30:27.000Z</time></trkpt>
        <trkpt lat="28.8219094" lon="105.3018683"><ele>531.72</ele><time>2026-03-22T01:30:45.000Z</time></trkpt>
        <trkpt lat="28.8219377" lon="105.3017688"><ele>529.63</ele><time>2026-03-22T01:30:55.000Z</time></trkpt>
        <trkpt lat="28.8220119" lon="105.30171"><ele>527.92</ele><time>2026-03-22T01:31:05.000Z</time></trkpt>
        <trkpt lat="28.8221111" lon="105.301668"><ele>527.37</ele><time>2026-03-22T01:31:15.000Z</time></trkpt>
        <trkpt lat="28.8222046" lon="105.3015996"><ele>527.53</ele><time>2026-03-22T01:31:27.000Z</time></trkpt>
        <trkpt lat="28.8222475" lon="105.3015064"><ele>526.57</ele><time>2026-03-22T01:31:37.000Z</time></trkpt>
        <trkpt lat="28.8222468" lon="105.3013931"><ele>524.63</ele><time>2026-03-22T01:31:47.000Z</time></trkpt>
        <trkpt lat="28.8222523" lon="105.3012801"><ele>521.06</ele><time>2026-03-22T01:31:57.000Z</time></trkpt>
        <trkpt lat="28.8222592" lon="105.3011591"><ele>517.47</ele><time>2026-03-22T01:32:07.000Z</time></trkpt>
        <trkpt lat="28.8222264" lon="105.3010452"><ele>515.01</ele><time>2026-03-22T01:32:17.000Z</time></trkpt>
        <trkpt lat="28.8221613" lon="105.3009662"><ele>512.45</ele><time>2026-03-22T01:32:25.000Z</time></trkpt>
        <trkpt lat="28.8221005" lon="105.3008853"><ele>511.01</ele><time>2026-03-22T01:32:35.000Z</time></trkpt>
        <trkpt lat="28.8220674" lon="105.3007863"><ele>510.57</ele><time>2026-03-22T01:32:47.000Z</time></trkpt>
        <trkpt lat="28.8221056" lon="105.3006868"><ele>508.38</ele><time>2026-03-22T01:33:09.000Z</time></trkpt>
        <trkpt lat="28.8221759" lon="105.3005884"><ele>508.58</ele><time>2026-03-22T01:33:19.000Z</time></trkpt>
        <trkpt lat="28.8222742" lon="105.3005283"><ele>509.31</ele><time>2026-03-22T01:33:29.000Z</time></trkpt>
        <trkpt lat="28.8223675" lon="105.3004546"><ele>508.76</ele><time>2026-03-22T01:33:39.000Z</time></trkpt>
        <trkpt lat="28.8224439" lon="105.3003673"><ele>507.19</ele><time>2026-03-22T01:33:47.000Z</time></trkpt>
        <trkpt lat="28.8225088" lon="105.3002808"><ele>505.82</ele><time>2026-03-22T01:33:55.000Z</time></trkpt>
        <trkpt lat="28.8225854" lon="105.3002127"><ele>504.28</ele><time>2026-03-22T01:34:03.000Z</time></trkpt>
        <trkpt lat="28.8226686" lon="105.3001493"><ele>504.22</ele><time>2026-03-22T01:34:11.000Z</time></trkpt>
        <trkpt lat="28.8227551" lon="105.3000826"><ele>504.93</ele><time>2026-03-22T01:34:21.000Z</time></trkpt>
        <trkpt lat="28.8228272" lon="105.3000008"><ele>504.82</ele><time>2026-03-22T01:34:29.000Z</time></trkpt>
        <trkpt lat="28.8228622" lon="105.2998991"><ele>504.52</ele><time>2026-03-22T01:34:37.000Z</time></trkpt>
        <trkpt lat="28.8228658" lon="105.299792"><ele>504.15</ele><time>2026-03-22T01:34:45.000Z</time></trkpt>
        <trkpt lat="28.822805" lon="105.2996976"><ele>503.78</ele><time>2026-03-22T01:34:55.000Z</time></trkpt>
        <trkpt lat="28.8227203" lon="105.2996306"><ele>504.15</ele><time>2026-03-22T01:35:03.000Z</time></trkpt>
        <trkpt lat="28.822633" lon="105.2995697"><ele>504.33</ele><time>2026-03-22T01:35:11.000Z</time></trkpt>
        <trkpt lat="28.8225509" lon="105.2994991"><ele>503.61</ele><time>2026-03-22T01:35:21.000Z</time></trkpt>
        <trkpt lat="28.8225026" lon="105.2994034"><ele>502.03</ele><time>2026-03-22T01:35:31.000Z</time></trkpt>
        <trkpt lat="28.8225019" lon="105.2992855"><ele>500.84</ele><time>2026-03-22T01:35:45.000Z</time></trkpt>
        <trkpt lat="28.8225403" lon="105.2991742"><ele>499.25</ele><time>2026-03-22T01:35:57.000Z</time></trkpt>
        <trkpt lat="28.8225956" lon="105.2990663"><ele>498.71</ele><time>2026-03-22T01:36:09.000Z</time></trkpt>
        <trkpt lat="28.822657" lon="105.2989681"><ele>497.62</ele><time>2026-03-22T01:36:21.000Z</time></trkpt>
        <trkpt lat="28.8227022" lon="105.2988671"><ele>495.8</ele><time>2026-03-22T01:36:35.000Z</time></trkpt>
        <trkpt lat="28.8227304" lon="105.2987668"><ele>494.98</ele><time>2026-03-22T01:36:59.000Z</time></trkpt>
        <trkpt lat="28.8227642" lon="105.2986553"><ele>490.56</ele><time>2026-03-22T01:37:11.000Z</time></trkpt>
        <trkpt lat="28.8227917" lon="105.2986626"><ele>486.36</ele><time>2026-03-22T01:37:19.000Z</time></trkpt>
        <trkpt lat="28.8227917" lon="105.2986626"><ele>486.36</ele><time>2026-03-22T01:37:40.000Z</time></trkpt>
        <trkpt lat="28.8227673" lon="105.2986022"><ele>483.78</ele><time>2026-03-22T01:38:01.000Z</time></trkpt>
        <trkpt lat="28.8227673" lon="105.2986022"><ele>483.78</ele><time>2026-03-22T01:38:15.000Z</time></trkpt>
        <trkpt lat="28.8227704" lon="105.2985031"><ele>482.35</ele><time>2026-03-22T01:38:25.000Z</time></trkpt>
        <trkpt lat="28.8228059" lon="105.2984065"><ele>481.59</ele><time>2026-03-22T01:38:33.000Z</time></trkpt>
        <trkpt lat="28.8228636" lon="105.2983135"><ele>480.42</ele><time>2026-03-22T01:38:41.000Z</time></trkpt>
        <trkpt lat="28.8229347" lon="105.2982352"><ele>480.34</ele><time>2026-03-22T01:38:49.000Z</time></trkpt>
        <trkpt lat="28.8230381" lon="105.2982255"><ele>479.25</ele><time>2026-03-22T01:38:59.000Z</time></trkpt>
        <trkpt lat="28.8231377" lon="105.2982719"><ele>478.19</ele><time>2026-03-22T01:39:09.000Z</time></trkpt>
        <trkpt lat="28.8232343" lon="105.2982621"><ele>477.04</ele><time>2026-03-22T01:39:27.000Z</time></trkpt>
        <trkpt lat="28.8232343" lon="105.2982621"><ele>477.04</ele><time>2026-03-22T01:40:04.000Z</time></trkpt>
        <trkpt lat="28.823328" lon="105.2982177"><ele>476.14</ele><time>2026-03-22T01:40:05.000Z</time></trkpt>
        <trkpt lat="28.823328" lon="105.2982177"><ele>476.14</ele><time>2026-03-22T01:40:09.000Z</time></trkpt>
        <trkpt lat="28.823328" lon="105.2982177"><ele>476.14</ele><time>2026-03-22T01:40:24.000Z</time></trkpt>
        <trkpt lat="28.823328" lon="105.2982177"><ele>476.14</ele><time>2026-03-22T01:40:29.000Z</time></trkpt>
        <trkpt lat="28.823328" lon="105.2982177"><ele>476.14</ele><time>2026-03-22T01:40:40.000Z</time></trkpt>
        <trkpt lat="28.8232485" lon="105.2982706"><ele>474.64</ele><time>2026-03-22T01:41:21.000Z</time></trkpt>
        <trkpt lat="28.8232485" lon="105.2982706"><ele>474.64</ele><time>2026-03-22T01:42:03.000Z</time></trkpt>
        <trkpt lat="28.8231827" lon="105.2981982"><ele>475.59</ele><time>2026-03-22T01:42:27.000Z</time></trkpt>
        <trkpt lat="28.8231023" lon="105.2981527"><ele>476.29</ele><time>2026-03-22T01:42:39.000Z</time></trkpt>
        <trkpt lat="28.8230024" lon="105.2981094"><ele>476.95</ele><time>2026-03-22T01:42:49.000Z</time></trkpt>
        <trkpt lat="28.8229052" lon="105.2980788"><ele>476.98</ele><time>2026-03-22T01:42:59.000Z</time></trkpt>
        <trkpt lat="28.8228291" lon="105.2980184"><ele>476.73</ele><time>2026-03-22T01:43:09.000Z</time></trkpt>
        <trkpt lat="28.8228137" lon="105.2979085"><ele>476.14</ele><time>2026-03-22T01:43:19.000Z</time></trkpt>
        <trkpt lat="28.8228562" lon="105.2978169"><ele>474.32</ele><time>2026-03-22T01:43:29.000Z</time></trkpt>
        <trkpt lat="28.8228508" lon="105.2977175"><ele>472.95</ele><time>2026-03-22T01:43:51.000Z</time></trkpt>
        <trkpt lat="28.8228306" lon="105.2976135"><ele>471.23</ele><time>2026-03-22T01:44:01.000Z</time></trkpt>
        <trkpt lat="28.8228016" lon="105.297501"><ele>470.01</ele><time>2026-03-22T01:44:13.000Z</time></trkpt>
        <trkpt lat="28.8228297" lon="105.2973859"><ele>469.29</ele><time>2026-03-22T01:44:23.000Z</time></trkpt>
        <trkpt lat="28.8228963" lon="105.2972894"><ele>468.45</ele><time>2026-03-22T01:44:35.000Z</time></trkpt>
        <trkpt lat="28.8229261" lon="105.2972642"><ele>467.5</ele><time>2026-03-22T01:44:37.000Z</time></trkpt>
        <trkpt lat="28.8229978" lon="105.2972429"><ele>467.07</ele><time>2026-03-22T01:44:57.000Z</time></trkpt>
        <trkpt lat="28.8230835" lon="105.2972116"><ele>465.64</ele><time>2026-03-22T01:45:13.000Z</time></trkpt>
        <trkpt lat="28.8231077" lon="105.2972039"><ele>465.01</ele><time>2026-03-22T01:45:15.000Z</time></trkpt>
        <trkpt lat="28.8230514" lon="105.2972611"><ele>464.54</ele><time>2026-03-22T01:45:25.000Z</time></trkpt>
        <trkpt lat="28.8229998" lon="105.2973071"><ele>464.83</ele><time>2026-03-22T01:45:29.000Z</time></trkpt>
        <trkpt lat="28.8229479" lon="105.2972509"><ele>466.39</ele><time>2026-03-22T01:45:51.000Z</time></trkpt>
        <trkpt lat="28.8229528" lon="105.2971341"><ele>466.98</ele><time>2026-03-22T01:46:09.000Z</time></trkpt>
        <trkpt lat="28.8229785" lon="105.2970173"><ele>467.75</ele><time>2026-03-22T01:46:17.000Z</time></trkpt>
        <trkpt lat="28.8229887" lon="105.2968966"><ele>467.8</ele><time>2026-03-22T01:46:27.000Z</time></trkpt>
        <trkpt lat="28.8230191" lon="105.2967911"><ele>466.96</ele><time>2026-03-22T01:46:37.000Z</time></trkpt>
        <trkpt lat="28.8230414" lon="105.2966742"><ele>465.65</ele><time>2026-03-22T01:46:49.000Z</time></trkpt>
        <trkpt lat="28.8230724" lon="105.2965583"><ele>464.47</ele><time>2026-03-22T01:47:01.000Z</time></trkpt>
        <trkpt lat="28.8231231" lon="105.2964508"><ele>462.99</ele><time>2026-03-22T01:47:13.000Z</time></trkpt>
        <trkpt lat="28.8231895" lon="105.2963665"><ele>462.06</ele><time>2026-03-22T01:47:23.000Z</time></trkpt>
        <trkpt lat="28.8232645" lon="105.2962842"><ele>460.58</ele><time>2026-03-22T01:47:35.000Z</time></trkpt>
        <trkpt lat="28.8233468" lon="105.2962186"><ele>459.29</ele><time>2026-03-22T01:47:53.000Z</time></trkpt>
        <trkpt lat="28.8234324" lon="105.2961588"><ele>458.88</ele><time>2026-03-22T01:48:05.000Z</time></trkpt>
        <trkpt lat="28.8235281" lon="105.2961157"><ele>458.3</ele><time>2026-03-22T01:48:21.000Z</time></trkpt>
        <trkpt lat="28.8236224" lon="105.2960875"><ele>457.31</ele><time>2026-03-22T01:48:33.000Z</time></trkpt>
        <trkpt lat="28.8237199" lon="105.2960819"><ele>456.73</ele><time>2026-03-22T01:48:45.000Z</time></trkpt>
        <trkpt lat="28.8238153" lon="105.2960545"><ele>455.94</ele><time>2026-03-22T01:48:57.000Z</time></trkpt>
        <trkpt lat="28.8239163" lon="105.2960354"><ele>455.21</ele><time>2026-03-22T01:49:09.000Z</time></trkpt>
        <trkpt lat="28.8240166" lon="105.2960147"><ele>454.61</ele><time>2026-03-22T01:49:19.000Z</time></trkpt>
        <trkpt lat="28.8241188" lon="105.2960056"><ele>453.69</ele><time>2026-03-22T01:49:33.000Z</time></trkpt>
        <trkpt lat="28.8242164" lon="105.2960144"><ele>452.68</ele><time>2026-03-22T01:49:53.000Z</time></trkpt>
        <trkpt lat="28.82429" lon="105.2959612"><ele>450.87</ele><time>2026-03-22T01:50:09.000Z</time></trkpt>
        <trkpt lat="28.824323" lon="105.29586"><ele>449.77</ele><time>2026-03-22T01:50:29.000Z</time></trkpt>
        <trkpt lat="28.8243854" lon="105.295788"><ele>448.1</ele><time>2026-03-22T01:50:51.000Z</time></trkpt>
        <trkpt lat="28.8244153" lon="105.2956797"><ele>445.11</ele><time>2026-03-22T01:51:27.000Z</time></trkpt>
        <trkpt lat="28.8244049" lon="105.2955626"><ele>440.99</ele><time>2026-03-22T01:51:39.000Z</time></trkpt>
        <trkpt lat="28.8243872" lon="105.2954455"><ele>438.88</ele><time>2026-03-22T01:52:05.000Z</time></trkpt>
        <trkpt lat="28.8243778" lon="105.2953338"><ele>437.24</ele><time>2026-03-22T01:52:23.000Z</time></trkpt>
        <trkpt lat="28.8243823" lon="105.295296"><ele>434.87</ele><time>2026-03-22T01:52:27.000Z</time></trkpt>
        <trkpt lat="28.8243979" lon="105.2952179"><ele>433.1</ele><time>2026-03-22T01:52:39.000Z</time></trkpt>
        <trkpt lat="28.8244131" lon="105.2951146"><ele>433.18</ele><time>2026-03-22T01:52:53.000Z</time></trkpt>
        <trkpt lat="28.824414" lon="105.2949999"><ele>432.34</ele><time>2026-03-22T01:53:11.000Z</time></trkpt>
        <trkpt lat="28.8243873" lon="105.2948942"><ele>431.16</ele><time>2026-03-22T01:53:33.000Z</time></trkpt>
        <trkpt lat="28.8243465" lon="105.2947906"><ele>430.09</ele><time>2026-03-22T01:53:57.000Z</time></trkpt>
        <trkpt lat="28.8243333" lon="105.2947155"><ele>427.32</ele><time>2026-03-22T01:54:19.000Z</time></trkpt>
        <trkpt lat="28.8243149" lon="105.2946218"><ele>428.1</ele><time>2026-03-22T01:54:55.000Z</time></trkpt>
        <trkpt lat="28.8243347" lon="105.294524"><ele>423.05</ele><time>2026-03-22T01:55:19.000Z</time></trkpt>
        <trkpt lat="28.8244006" lon="105.2944547"><ele>416.9</ele><time>2026-03-22T01:55:45.000Z</time></trkpt>
        <trkpt lat="28.8244778" lon="105.2943926"><ele>411.59</ele><time>2026-03-22T01:55:59.000Z</time></trkpt>
        <trkpt lat="28.8245362" lon="105.2943068"><ele>407.39</ele><time>2026-03-22T01:56:19.000Z</time></trkpt>
        <trkpt lat="28.8245689" lon="105.2942094"><ele>404.81</ele><time>2026-03-22T01:56:29.000Z</time></trkpt>
        <trkpt lat="28.8245928" lon="105.2941076"><ele>403.83</ele><time>2026-03-22T01:56:39.000Z</time></trkpt>
        <trkpt lat="28.8246309" lon="105.2940064"><ele>403.67</ele><time>2026-03-22T01:56:53.000Z</time></trkpt>
        <trkpt lat="28.8247133" lon="105.2939362"><ele>403.58</ele><time>2026-03-22T01:57:19.000Z</time></trkpt>
        <trkpt lat="28.8247283" lon="105.293843"><ele>403.65</ele><time>2026-03-22T01:57:49.000Z</time></trkpt>
        <trkpt lat="28.8247451" lon="105.2937366"><ele>401.33</ele><time>2026-03-22T01:58:01.000Z</time></trkpt>
        <trkpt lat="28.8247989" lon="105.2936411"><ele>400.45</ele><time>2026-03-22T01:58:11.000Z</time></trkpt>
        <trkpt lat="28.8248651" lon="105.293547"><ele>398.74</ele><time>2026-03-22T01:58:21.000Z</time></trkpt>
        <trkpt lat="28.8248874" lon="105.2934415"><ele>397.63</ele><time>2026-03-22T01:58:29.000Z</time></trkpt>
        <trkpt lat="28.8249137" lon="105.2933832"><ele>397.27</ele><time>2026-03-22T01:58:39.000Z</time></trkpt>
        <trkpt lat="28.8249137" lon="105.2933832"><ele>397.27</ele><time>2026-03-22T01:59:18.000Z</time></trkpt>
        <trkpt lat="28.8249274" lon="105.2932906"><ele>397.11</ele><time>2026-03-22T01:59:21.000Z</time></trkpt>
        <trkpt lat="28.8249274" lon="105.2932906"><ele>397.11</ele><time>2026-03-22T01:59:25.000Z</time></trkpt>
        <trkpt lat="28.8250017" lon="105.2932584"><ele>393.81</ele><time>2026-03-22T02:00:19.000Z</time></trkpt>
        <trkpt lat="28.825009" lon="105.2931748"><ele>390.04</ele><time>2026-03-22T02:00:31.000Z</time></trkpt>
        <trkpt lat="28.8250039" lon="105.2930737"><ele>386.33</ele><time>2026-03-22T02:00:43.000Z</time></trkpt>
        <trkpt lat="28.8250333" lon="105.2929745"><ele>383.28</ele><time>2026-03-22T02:01:09.000Z</time></trkpt>
        <trkpt lat="28.8250591" lon="105.2928662"><ele>380.02</ele><time>2026-03-22T02:01:25.000Z</time></trkpt>
        <trkpt lat="28.8251379" lon="105.292793"><ele>376.94</ele><time>2026-03-22T02:01:39.000Z</time></trkpt>
        <trkpt lat="28.8251985" lon="105.2926994"><ele>374.26</ele><time>2026-03-22T02:01:51.000Z</time></trkpt>
        <trkpt lat="28.8252484" lon="105.2926"><ele>372.02</ele><time>2026-03-22T02:02:01.000Z</time></trkpt>
        <trkpt lat="28.8252137" lon="105.2924974"><ele>369.28</ele><time>2026-03-22T02:02:11.000Z</time></trkpt>
        <trkpt lat="28.8251599" lon="105.2924433"><ele>367.9</ele><time>2026-03-22T02:02:19.000Z</time></trkpt>
        <trkpt lat="28.8251021" lon="105.2923671"><ele>366.74</ele><time>2026-03-22T02:02:39.000Z</time></trkpt>
        <trkpt lat="28.8250381" lon="105.292273"><ele>365.43</ele><time>2026-03-22T02:02:51.000Z</time></trkpt>
        <trkpt lat="28.825052" lon="105.2921656"><ele>364.39</ele><time>2026-03-22T02:03:03.000Z</time></trkpt>
        <trkpt lat="28.8251198" lon="105.2920792"><ele>362.81</ele><time>2026-03-22T02:03:13.000Z</time></trkpt>
        <trkpt lat="28.8251797" lon="105.2919883"><ele>361.25</ele><time>2026-03-22T02:03:25.000Z</time></trkpt>
        <trkpt lat="28.8252174" lon="105.2918783"><ele>359.67</ele><time>2026-03-22T02:03:37.000Z</time></trkpt>
        <trkpt lat="28.8252754" lon="105.2917837"><ele>358.2</ele><time>2026-03-22T02:03:51.000Z</time></trkpt>
        <trkpt lat="28.8253611" lon="105.2917327"><ele>356.29</ele><time>2026-03-22T02:04:03.000Z</time></trkpt>
        <trkpt lat="28.8254237" lon="105.2916582"><ele>354.15</ele><time>2026-03-22T02:04:15.000Z</time></trkpt>
        <trkpt lat="28.8254394" lon="105.2915618"><ele>351.7</ele><time>2026-03-22T02:04:23.000Z</time></trkpt>
        <trkpt lat="28.825504" lon="105.29149"><ele>349.35</ele><time>2026-03-22T02:04:33.000Z</time></trkpt>
        <trkpt lat="28.825504" lon="105.29149"><ele>349.35</ele><time>2026-03-22T02:04:33.000Z</time></trkpt>
      </trkseg>
  </trk>
</gpx>